UA2329 / N36272 7700 Squawk Report (16th of February, 2020)

Aircraft B738 Reg No. N36272 Age 18 years old
Model 737 Jet engines 2 First flight 12-10-01
Registered 30-11-11 Rollout 03-10-01 Delivered 15-11-01
Construction No. 31590 Line No. 0987 Series 824
ADSHEX A41722 Airline name United Airlines Owner N/A
Airfield based Houston-George Bush Intercontinental~TX~N First tracked N/A

Flight history for N36272

Route Flight No Date Playback
Denver Intl (DEN) - Chicago Ohare Intl (ORD) UA532 2020-04-08 14:27:00
Newark Liberty Intl (EWR) - Denver Intl (DEN) UA2429 2020-04-08 02:12:00
Orlando Intl (MCO) - Newark Liberty Intl (EWR) UA2378 2020-04-06 22:00:00
Washington Dulles International (IAD) - Orlando Intl (MCO) UA607 2020-04-05 23:17:00
Orlando Intl (MCO) - Washington Dulles International (IAD) UA2379 2020-04-05 19:14:00
Cleveland Hopkins Intl (CLE) - Orlando Intl (MCO) UA2079 2020-04-04 15:33:00
Denver Intl (DEN) - Cleveland Hopkins Intl (CLE) UA405 2020-04-03 18:30:00
McCarran Intl (LAS) - Denver Intl (DEN) UA1475 2020-04-03 14:38:00
San Francisco Intl (SFO) - McCarran Intl (LAS) UA2433 2020-04-02 17:11:00
Los Angeles Intl (LAX) - San Francisco Intl (SFO) UA243 2020-03-31 21:55:00
Los Cabos Intl (SJD) - Los Angeles Intl (LAX) UA798 2020-03-30 23:10:00
Los Angeles Intl (LAX) - Los Cabos Intl (SJD) UA797 2020-03-30 21:11:00
McCarran Intl (LAS) - Los Angeles Intl (LAX) UA1861 2020-03-30 01:09:00
Los Angeles Intl (LAX) - McCarran Intl (LAS) UA1092 2020-03-29 23:01:00
Logan International Airport (BOS) - San Francisco Intl (SFO) - Los Angeles Intl (LAX) UA433 2020-03-29 20:34:00
Orlando Intl (MCO) - San Francisco Intl (SFO) UA470 2020-03-29 18:08:00
Chicago Ohare Intl (ORD) - Cincinnati Northern Kentucky Intl (CVG) UA2237 2020-03-29 10:44:00
Denver Intl (DEN) - San Francisco Intl (SFO) UA239 2020-03-29 04:24:00
Cleveland Hopkins Intl (CLE) - Denver Intl (DEN) - Spokane Intl (GEG) - Chicago Ohare Intl (ORD) UA486 2020-03-28 00:06:00
Fort Lauderdale Hollywood Intl (FLL) - Cleveland Hopkins Intl (CLE) UA337 2020-03-26 17:09:00
Time Lat Lon Altitude Heading Speed Vertical Rate
2020-02-16 03:02:18 GMT 40.695683 -74.172440 0 315 0 0
2020-02-16 03:01:58 GMT 40.695686 -74.172432 0 315 0 0
2020-02-16 03:01:38 GMT 40.695683 -74.172424 0 315 1 0
2020-02-16 03:01:28 GMT 40.695602 -74.172348 0 315 3 0
2020-02-16 03:01:13 GMT 40.695381 -74.172119 0 305 0 0
2020-02-16 03:01:10 GMT 40.695381 -74.172127 0 306 0 0
2020-02-16 03:01:06 GMT 40.695389 -74.172142 0 306 0 0
2020-02-16 03:01:03 GMT 40.695419 -74.172180 0 306 3 0
2020-02-16 03:01:00 GMT 40.695412 -74.172173 0 300 4 0
2020-02-16 03:00:57 GMT 40.695358 -74.172127 0 297 5 0
2020-02-16 03:00:54 GMT 40.695332 -74.172096 0 294 5 0
2020-02-16 03:00:51 GMT 40.695229 -74.171959 0 286 6 0
2020-02-16 03:00:48 GMT 40.695229 -74.171959 0 285 6 0
2020-02-16 03:00:45 GMT 40.695202 -74.171890 0 284 6 0
2020-02-16 03:00:42 GMT 40.695171 -74.171791 0 282 5 0
2020-02-16 03:00:39 GMT 40.695141 -74.171623 0 264 6 0
2020-02-16 03:00:36 GMT 40.695141 -74.171623 0 260 4 0
2020-02-16 03:00:33 GMT 40.695148 -74.171516 0 269 4 0
2020-02-16 03:00:30 GMT 40.695160 -74.171432 0 273 5 0
2020-02-16 03:00:27 GMT 40.695129 -74.171333 0 257 4 0
2020-02-16 03:00:24 GMT 40.695160 -74.171280 0 261 4 0
2020-02-16 03:00:21 GMT 40.695160 -74.171204 0 246 3 0
2020-02-16 03:00:18 GMT 40.695171 -74.171150 0 251 7 0
2020-02-16 03:00:15 GMT 40.695202 -74.171066 0 260 9 0
2020-02-16 03:00:12 GMT 40.695221 -74.170921 0 266 4 0
2020-02-16 03:00:09 GMT 40.695221 -74.170822 0 266 5 0
2020-02-16 03:00:06 GMT 40.695229 -74.170738 0 262 8 0
2020-02-16 03:00:03 GMT 40.695229 -74.170601 0 254 10 0
2020-02-16 03:00:00 GMT 40.695259 -74.170403 0 251 7 0
2020-02-16 02:59:57 GMT 40.695309 -74.170326 0 273 9 0
2020-02-16 02:59:54 GMT 40.695309 -74.170158 0 272 9 0
2020-02-16 02:59:51 GMT 40.695309 -74.169838 0 255 10 0
2020-02-16 02:59:48 GMT 40.695309 -74.169838 0 235 9 0
2020-02-16 02:59:45 GMT 40.695351 -74.169678 0 225 10 0
2020-02-16 02:59:42 GMT 40.695419 -74.169540 0 214 8 0
2020-02-16 02:59:39 GMT 40.695518 -74.169441 0 200 11 0
2020-02-16 02:59:36 GMT 40.695671 -74.169388 0 211 9 0
2020-02-16 02:59:33 GMT 40.695782 -74.169289 0 205 10 0
2020-02-16 02:59:30 GMT 40.695911 -74.169212 0 207 8 0
2020-02-16 02:59:27 GMT 40.695969 -74.169128 0 203 11 0
2020-02-16 02:59:24 GMT 40.696110 -74.169052 0 201 11 0
2020-02-16 02:59:21 GMT 40.696388 -74.168930 0 196 14 0
2020-02-16 02:59:18 GMT 40.696388 -74.168930 0 204 13 0
2020-02-16 02:59:15 GMT 40.696529 -74.168831 0 208 12 0
2020-02-16 02:59:12 GMT 40.696659 -74.168762 0 211 10 0
2020-02-16 02:59:09 GMT 40.696789 -74.168648 0 209 11 0
2020-02-16 02:59:06 GMT 40.696941 -74.168541 0 203 12 0
2020-02-16 02:59:03 GMT 40.697239 -74.168358 0 215 11 0
2020-02-16 02:59:00 GMT 40.697239 -74.168358 0 211 11 0
2020-02-16 02:58:57 GMT 40.697361 -74.168266 0 202 10 0
2020-02-16 02:58:54 GMT 40.697479 -74.168182 0 199 10 0
2020-02-16 02:58:51 GMT 40.697632 -74.168114 0 202 11 0
2020-02-16 02:58:48 GMT 40.697891 -74.167961 0 210 9 0
2020-02-16 02:58:45 GMT 40.697891 -74.167961 0 207 9 0
2020-02-16 02:58:42 GMT 40.698009 -74.167877 0 194 8 0
2020-02-16 02:58:39 GMT 40.698139 -74.167831 0 195 10 0
2020-02-16 02:58:36 GMT 40.698261 -74.167740 0 180 9 0
2020-02-16 02:58:33 GMT 40.698421 -74.167732 0 192 10 0
2020-02-16 02:58:30 GMT 40.698551 -74.167702 0 187 11 0
2020-02-16 02:58:27 GMT 40.698849 -74.167671 0 183 10 0
2020-02-16 02:58:24 GMT 40.698849 -74.167671 0 177 11 0
2020-02-16 02:58:21 GMT 40.698971 -74.167664 0 180 12 0
2020-02-16 02:58:18 GMT 40.699131 -74.167702 0 188 10 0
2020-02-16 02:58:15 GMT 40.699249 -74.167671 0 199 11 0
2020-02-16 02:58:12 GMT 40.699379 -74.167572 0 198 11 0
2020-02-16 02:58:09 GMT 40.699532 -74.167572 0 190 9 0
2020-02-16 02:58:06 GMT 40.699619 -74.167488 0 179 9 0
2020-02-16 02:58:03 GMT 40.699772 -74.167503 0 167 10 0
2020-02-16 02:58:00 GMT 40.699890 -74.167542 0 124 10 0
2020-02-16 02:57:57 GMT 40.700001 -74.167641 0 99 8 0
2020-02-16 02:57:54 GMT 40.700001 -74.167732 0 103 8 0
2020-02-16 02:57:51 GMT 40.700031 -74.167908 0 102 9 0
2020-02-16 02:57:48 GMT 40.700062 -74.168083 0 92 9 0
2020-02-16 02:57:45 GMT 40.700081 -74.168182 0 90 5 0
2020-02-16 02:57:42 GMT 40.700062 -74.168350 0 93 9 0
2020-02-16 02:57:39 GMT 40.700089 -74.168510 0 94 10 0
2020-02-16 02:57:36 GMT 40.700100 -74.168694 0 96 9 0
2020-02-16 02:57:33 GMT 40.700119 -74.168869 0 91 10 0
2020-02-16 02:57:30 GMT 40.700119 -74.169052 0 91 8 0
2020-02-16 02:57:27 GMT 40.700100 -74.169220 0 98 8 0
2020-02-16 02:57:24 GMT 40.700111 -74.169380 0 99 9 0
2020-02-16 02:57:21 GMT 40.700180 -74.169441 0 85 16 0
2020-02-16 02:57:18 GMT 40.700169 -74.169937 0 96 11 0
2020-02-16 02:57:15 GMT 40.700199 -74.170120 0 99 10 0
2020-02-16 02:57:12 GMT 40.700199 -74.170120 0 88 8 0
2020-02-16 02:57:09 GMT 40.700191 -74.170288 0 100 9 0
2020-02-16 02:57:06 GMT 40.700218 -74.170486 0 89 10 0
2020-02-16 02:57:03 GMT 40.700230 -74.170822 0 90 10 0
2020-02-16 02:57:00 GMT 40.700230 -74.170822 0 89 10 0
2020-02-16 02:56:57 GMT 40.700249 -74.170982 0 93 11 0
2020-02-16 02:56:54 GMT 40.700249 -74.171158 0 93 9 0
2020-02-16 02:56:51 GMT 40.700249 -74.171387 0 103 7 0
2020-02-16 02:56:48 GMT 40.700272 -74.171501 0 97 10 0
2020-02-16 02:56:45 GMT 40.700291 -74.171692 0 91 10 0
2020-02-16 02:56:42 GMT 40.700310 -74.171852 0 94 7 0
2020-02-16 02:56:39 GMT 40.700310 -74.171967 0 94 9 0
2020-02-16 02:56:36 GMT 40.700329 -74.172127 0 94 9 0
2020-02-16 02:56:33 GMT 40.700352 -74.172287 0 97 10 0
2020-02-16 02:56:30 GMT 40.700329 -74.172447 0 102 13 0
2020-02-16 02:56:27 GMT 40.700390 -74.172638 0 83 10 0
2020-02-16 02:56:24 GMT 40.700340 -74.172813 0 98 12 0
2020-02-16 02:56:21 GMT 40.700359 -74.173012 0 103 8 0
2020-02-16 02:56:18 GMT 40.700378 -74.173126 0 94 11 0
2020-02-16 02:56:15 GMT 40.700390 -74.173279 0 87 9 0
2020-02-16 02:56:12 GMT 40.700401 -74.173492 0 101 9 0
2020-02-16 02:56:09 GMT 40.700420 -74.173607 0 98 11 0
2020-02-16 02:56:06 GMT 40.700459 -74.173828 0 90 10 0
2020-02-16 02:56:03 GMT 40.700439 -74.173950 0 92 10 0
2020-02-16 02:56:00 GMT 40.700439 -74.174141 0 100 10 0
2020-02-16 02:55:57 GMT 40.700451 -74.174278 0 97 10 0
2020-02-16 02:55:54 GMT 40.700470 -74.174461 0 92 8 0
2020-02-16 02:55:51 GMT 40.700459 -74.174782 0 100 6 0
2020-02-16 02:55:48 GMT 40.700459 -74.174782 0 92 12 0
2020-02-16 02:55:45 GMT 40.700500 -74.174911 0 95 8 0
2020-02-16 02:55:42 GMT 40.700500 -74.175034 0 99 8 0
2020-02-16 02:55:39 GMT 40.700520 -74.175179 0 95 9 0
2020-02-16 02:55:36 GMT 40.700539 -74.175468 0 95 8 0
2020-02-16 02:55:33 GMT 40.700539 -74.175468 0 101 8 0
2020-02-16 02:55:30 GMT 40.700562 -74.175591 0 83 9 0
2020-02-16 02:55:27 GMT 40.700569 -74.175781 0 97 8 0
2020-02-16 02:55:24 GMT 40.700581 -74.175911 0 104 7 0
2020-02-16 02:55:21 GMT 40.700600 -74.176041 0 86 8 0
2020-02-16 02:55:18 GMT 40.700581 -74.176193 0 101 7 0
2020-02-16 02:55:15 GMT 40.700619 -74.176300 0 91 9 0
2020-02-16 02:55:12 GMT 40.700619 -74.176514 0 102 9 0
2020-02-16 02:55:09 GMT 40.700642 -74.176598 0 92 11 0
2020-02-16 02:55:06 GMT 40.700642 -74.176804 0 99 9 0
2020-02-16 02:55:03 GMT 40.700649 -74.176964 0 90 9 0
2020-02-16 02:55:00 GMT 40.700649 -74.177109 0 96 9 0
2020-02-16 02:54:57 GMT 40.700649 -74.177269 0 101 8 0
2020-02-16 02:54:54 GMT 40.700668 -74.177399 0 102 9 0
2020-02-16 02:54:51 GMT 40.700691 -74.177567 0 102 9 0
2020-02-16 02:54:48 GMT 40.700741 -74.177742 0 87 9 0
2020-02-16 02:54:45 GMT 40.700722 -74.177917 0 97 8 0
2020-02-16 02:54:42 GMT 40.700722 -74.178078 0 102 7 0
2020-02-16 02:54:39 GMT 40.700722 -74.178177 0 99 9 0
2020-02-16 02:54:36 GMT 40.700771 -74.178352 0 99 8 0
2020-02-16 02:54:33 GMT 40.700809 -74.178467 0 77 8 0
2020-02-16 02:54:30 GMT 40.700748 -74.178596 0 98 9 0
2020-02-16 02:54:27 GMT 40.700741 -74.178757 0 106 8 0
2020-02-16 02:54:24 GMT 40.700821 -74.178909 0 87 6 0
2020-02-16 02:54:21 GMT 40.700821 -74.179192 0 92 8 0
2020-02-16 02:54:18 GMT 40.700821 -74.179192 0 100 5 0
2020-02-16 02:54:15 GMT 40.700829 -74.179291 0 93 6 0
2020-02-16 02:54:12 GMT 40.700859 -74.179367 0 80 5 0
2020-02-16 02:54:09 GMT 40.700790 -74.179497 0 106 9 0
2020-02-16 02:54:06 GMT 40.700809 -74.179672 0 114 9 0
2020-02-16 02:54:03 GMT 40.700920 -74.179893 0 77 6 0
2020-02-16 02:54:00 GMT 40.700920 -74.179893 0 80 7 0
2020-02-16 02:53:57 GMT 40.700878 -74.180038 0 83 6 0
2020-02-16 02:53:54 GMT 40.700840 -74.180161 0 102 9 0
2020-02-16 02:53:51 GMT 40.700878 -74.180267 0 90 7 0
2020-02-16 02:53:48 GMT 40.700871 -74.180450 0 76 5 0
2020-02-16 02:53:45 GMT 40.700871 -74.180450 0 97 6 0
2020-02-16 02:53:42 GMT 40.700871 -74.180580 0 106 5 0
2020-02-16 02:53:39 GMT 40.700871 -74.180656 0 114 5 0
2020-02-16 02:53:36 GMT 40.700890 -74.180748 0 113 7 0
2020-02-16 02:53:33 GMT 40.700939 -74.180832 0 127 4 0
2020-02-16 02:53:30 GMT 40.700920 -74.180901 0 147 6 0
2020-02-16 02:53:27 GMT 40.701012 -74.180969 0 181 3 0
2020-02-16 02:53:24 GMT 40.701019 -74.181007 0 181 5 0
2020-02-16 02:53:21 GMT 40.701118 -74.181007 0 220 3 0
2020-02-16 02:53:18 GMT 40.701149 -74.181068 0 222 2 0
2020-02-16 02:53:15 GMT 40.701221 -74.181007 0 249 2 0
2020-02-16 02:53:12 GMT 40.701199 -74.180962 0 228 4 0
2020-02-16 02:53:09 GMT 40.701248 -74.180939 0 235 4 0
2020-02-16 02:53:06 GMT 40.701248 -74.180939 0 240 4 0
2020-02-16 02:53:03 GMT 40.701290 -74.180862 0 193 2 0
2020-02-16 02:53:00 GMT 40.701290 -74.180832 0 184 3 0
2020-02-16 02:52:57 GMT 40.701309 -74.180748 0 166 3 0
2020-02-16 02:52:54 GMT 40.701279 -74.180618 0 163 2 0
2020-02-16 02:52:51 GMT 40.701309 -74.180603 0 168 1 0
2020-02-16 02:52:48 GMT 40.701309 -74.180603 0 168 0 0
2020-02-16 02:52:45 GMT 40.701309 -74.180611 0 168 0 0
2020-02-16 02:52:42 GMT 40.701309 -74.180641 0 168 2 0
2020-02-16 02:52:39 GMT 40.701302 -74.180618 0 168 1 0
2020-02-16 02:52:36 GMT 40.701279 -74.180618 0 168 0 0
2020-02-16 02:52:33 GMT 40.701271 -74.180618 0 168 1 0
2020-02-16 02:52:30 GMT 40.701260 -74.180588 0 168 0 0
2020-02-16 02:52:27 GMT 40.701290 -74.180580 0 170 1 0
2020-02-16 02:52:24 GMT 40.701279 -74.180656 0 172 1 0
2020-02-16 02:52:21 GMT 40.701271 -74.180611 0 172 0 0
2020-02-16 02:52:18 GMT 40.701279 -74.180611 0 173 0 0
2020-02-16 02:52:15 GMT 40.701279 -74.180611 0 173 0 0
2020-02-16 02:52:12 GMT 40.701271 -74.180611 0 173 0 0
2020-02-16 02:52:09 GMT 40.701279 -74.180611 0 175 0 0
2020-02-16 02:52:06 GMT 40.701279 -74.180588 0 175 0 0
2020-02-16 02:52:03 GMT 40.701180 -74.180489 0 174 0 0
2020-02-16 02:52:00 GMT 40.701279 -74.180603 0 171 0 0
2020-02-16 02:51:57 GMT 40.701248 -74.180611 0 171 1 0
2020-02-16 02:51:54 GMT 40.701260 -74.180588 0 171 1 0
2020-02-16 02:51:51 GMT 40.701260 -74.180603 0 175 1 0
2020-02-16 02:51:48 GMT 40.701279 -74.180649 0 175 2 0
2020-02-16 02:51:45 GMT 40.701279 -74.180603 0 175 0 0
2020-02-16 02:51:42 GMT 40.701279 -74.180634 0 175 2 0
2020-02-16 02:51:39 GMT 40.701271 -74.180641 0 178 3 0
2020-02-16 02:51:36 GMT 40.701271 -74.180641 0 177 0 0
2020-02-16 02:51:30 GMT 40.701290 -74.180588 0 177 0 0
2020-02-16 02:51:27 GMT 40.701290 -74.180580 0 177 0 0
2020-02-16 02:51:24 GMT 40.701180 -74.180489 0 177 1 0
2020-02-16 02:51:20 GMT 40.701279 -74.180603 0 176 1 0
2020-02-16 02:51:17 GMT 40.701290 -74.180557 0 174 1 0
2020-02-16 02:51:14 GMT 40.701290 -74.180550 0 172 1 0
2020-02-16 02:51:11 GMT 40.701309 -74.180458 0 174 2 0
2020-02-16 02:51:08 GMT 40.701279 -74.180557 0 176 1 0
2020-02-16 02:51:05 GMT 40.701302 -74.180641 0 177 1 0
2020-02-16 02:51:02 GMT 40.701279 -74.180618 0 174 0 0
2020-02-16 02:50:59 GMT 40.701271 -74.180603 0 175 1 0
2020-02-16 02:50:56 GMT 40.701302 -74.180618 0 175 0 0
2020-02-16 02:50:53 GMT 40.701309 -74.180588 0 175 0 0
2020-02-16 02:50:50 GMT 40.701290 -74.180634 0 168 1 0
2020-02-16 02:50:47 GMT 40.701290 -74.180611 0 168 0 0
2020-02-16 02:50:44 GMT 40.701309 -74.180634 0 168 0 0
2020-02-16 02:50:41 GMT 40.701290 -74.180634 0 166 0 0
2020-02-16 02:50:38 GMT 40.701271 -74.180588 0 160 1 0
2020-02-16 02:50:35 GMT 40.701279 -74.180580 0 160 1 0
2020-02-16 02:50:32 GMT 40.701279 -74.180550 0 163 1 0
2020-02-16 02:50:29 GMT 40.701290 -74.180611 0 163 1 0
2020-02-16 02:50:26 GMT 40.701302 -74.180649 0 164 0 0
2020-02-16 02:50:23 GMT 40.701290 -74.180618 0 164 0 0
2020-02-16 02:50:20 GMT 40.701290 -74.180618 0 164 1 0
2020-02-16 02:50:17 GMT 40.701290 -74.180611 0 165 2 0
2020-02-16 02:50:14 GMT 40.701279 -74.180611 0 165 1 0
2020-02-16 02:50:11 GMT 40.701279 -74.180611 0 165 0 0
2020-02-16 02:50:08 GMT 40.701290 -74.180588 0 165 0 0
2020-02-16 02:50:05 GMT 40.701309 -74.180603 0 164 0 0
2020-02-16 02:50:02 GMT 40.701321 -74.180672 0 163 2 0
2020-02-16 02:49:59 GMT 40.701321 -74.180687 0 162 1 0
2020-02-16 02:49:56 GMT 40.701260 -74.180603 0 165 2 0
2020-02-16 02:49:53 GMT 40.701271 -74.180603 0 165 1 0
2020-02-16 02:49:50 GMT 40.701271 -74.180603 0 165 0 0
2020-02-16 02:49:47 GMT 40.701290 -74.180656 0 165 0 0
2020-02-16 02:49:44 GMT 40.701279 -74.180611 0 165 0 0
2020-02-16 02:49:41 GMT 40.701302 -74.180618 0 165 0 0
2020-02-16 02:49:38 GMT 40.701302 -74.180618 0 164 0 0
2020-02-16 02:49:35 GMT 40.701302 -74.180611 0 164 1 0
2020-02-16 02:49:32 GMT 40.701290 -74.180649 0 161 2 0
2020-02-16 02:49:29 GMT 40.701260 -74.180672 0 158 2 0
2020-02-16 02:49:26 GMT 40.701290 -74.180580 0 156 2 0
2020-02-16 02:49:23 GMT 40.701290 -74.180580 0 159 1 0
2020-02-16 02:49:20 GMT 40.701290 -74.180588 0 161 3 0
2020-02-16 02:49:17 GMT 40.701321 -74.180557 0 186 2 0
2020-02-16 02:49:14 GMT 40.701302 -74.180672 0 187 2 0
2020-02-16 02:49:11 GMT 40.701290 -74.180611 0 186 0 0
2020-02-16 02:49:08 GMT 40.701279 -74.180580 0 186 1 0
2020-02-16 02:49:05 GMT 40.701279 -74.180603 0 186 0 0
2020-02-16 02:49:02 GMT 40.701290 -74.180603 0 188 1 0
2020-02-16 02:48:59 GMT 40.701290 -74.180611 0 189 0 0
2020-02-16 02:48:56 GMT 40.701290 -74.180649 0 189 0 0
2020-02-16 02:48:53 GMT 40.701290 -74.180641 0 189 0 0
2020-02-16 02:48:50 GMT 40.701279 -74.180634 0 184 0 0
2020-02-16 02:48:47 GMT 40.701290 -74.180641 0 183 1 0
2020-02-16 02:48:44 GMT 40.701279 -74.180611 0 181 0 0
2020-02-16 02:48:41 GMT 40.701279 -74.180588 0 181 0 0
2020-02-16 02:48:38 GMT 40.701279 -74.180603 0 181 0 0
2020-02-16 02:48:35 GMT 40.701309 -74.180649 0 182 0 0
2020-02-16 02:48:32 GMT 40.701309 -74.180649 0 182 0 0
2020-02-16 02:48:27 GMT 40.701309 -74.180641 0 180 1 0
2020-02-16 02:48:24 GMT 40.701302 -74.180580 0 180 1 0
2020-02-16 02:48:21 GMT 40.701290 -74.180557 0 188 3 0
2020-02-16 02:48:18 GMT 40.701290 -74.180672 0 192 0 0
2020-02-16 02:48:12 GMT 40.701328 -74.180687 0 188 2 0
2020-02-16 02:48:09 GMT 40.701290 -74.180611 0 188 0 0
2020-02-16 02:48:06 GMT 40.701302 -74.180611 0 188 0 0
2020-02-16 02:48:03 GMT 40.701302 -74.180588 0 188 0 0
2020-02-16 02:48:00 GMT 40.701260 -74.180634 0 188 1 0
2020-02-16 02:47:57 GMT 40.701260 -74.180634 0 188 1 0
2020-02-16 02:47:54 GMT 40.701279 -74.180603 0 187 1 0
2020-02-16 02:47:51 GMT 40.701290 -74.180603 0 187 0 0
2020-02-16 02:47:48 GMT 40.701271 -74.180573 0 187 1 0
2020-02-16 02:47:45 GMT 40.701279 -74.180580 0 189 1 0
2020-02-16 02:47:42 GMT 40.701260 -74.180618 0 188 1 0
2020-02-16 02:47:39 GMT 40.701271 -74.180588 0 189 2 0
2020-02-16 02:47:36 GMT 40.701302 -74.180618 0 190 0 0
2020-02-16 02:47:33 GMT 40.701302 -74.180656 0 188 0 0
2020-02-16 02:47:30 GMT 40.701309 -74.180634 0 184 0 0
2020-02-16 02:47:27 GMT 40.701309 -74.180634 0 184 0 0
2020-02-16 02:47:24 GMT 40.701302 -74.180611 0 186 1 0
2020-02-16 02:47:21 GMT 40.701321 -74.180679 0 184 1 0
2020-02-16 02:47:18 GMT 40.701290 -74.180634 0 184 0 0
2020-02-16 02:47:15 GMT 40.701321 -74.180641 0 181 1 0
2020-02-16 02:47:12 GMT 40.701321 -74.180641 0 181 2 0
2020-02-16 02:47:09 GMT 40.701302 -74.180641 0 181 1 0
2020-02-16 02:47:06 GMT 40.701302 -74.180588 0 179 0 0
2020-02-16 02:47:03 GMT 40.701309 -74.180519 0 184 3 0
2020-02-16 02:47:00 GMT 40.701279 -74.180679 0 184 1 0
2020-02-16 02:46:57 GMT 40.701279 -74.180679 0 180 2 0
2020-02-16 02:46:54 GMT 40.701290 -74.180641 0 173 1 0
2020-02-16 02:46:51 GMT 40.701302 -74.180649 0 173 2 0
2020-02-16 02:46:48 GMT 40.701271 -74.180588 0 174 1 0
2020-02-16 02:46:45 GMT 40.701279 -74.180580 0 175 1 0
2020-02-16 02:46:42 GMT 40.701279 -74.180580 0 175 0 0
2020-02-16 02:46:39 GMT 40.701290 -74.180611 0 175 0 0
2020-02-16 02:46:36 GMT 40.701279 -74.180580 0 181 1 0
2020-02-16 02:46:33 GMT 40.701302 -74.180641 0 185 1 0
2020-02-16 02:46:30 GMT 40.701290 -74.180611 0 184 0 0
2020-02-16 02:46:27 GMT 40.701290 -74.180672 0 179 2 0
2020-02-16 02:46:24 GMT 40.701271 -74.180611 0 179 0 0
2020-02-16 02:46:21 GMT 40.701290 -74.180656 0 179 2 0
2020-02-16 02:46:18 GMT 40.701290 -74.180588 0 179 1 0
2020-02-16 02:46:15 GMT 40.701302 -74.180634 0 181 0 0
2020-02-16 02:46:12 GMT 40.701309 -74.180687 0 179 2 0
2020-02-16 02:46:09 GMT 40.701290 -74.180618 0 176 1 0
2020-02-16 02:46:06 GMT 40.701309 -74.180656 0 172 0 0
2020-02-16 02:46:03 GMT 40.701321 -74.180649 0 169 2 0
2020-02-16 02:46:00 GMT 40.701302 -74.180618 0 165 0 0
2020-02-16 02:45:57 GMT 40.701290 -74.180542 0 166 2 0
2020-02-16 02:45:54 GMT 40.701321 -74.180588 0 171 1 0
2020-02-16 02:45:51 GMT 40.701290 -74.180649 0 171 0 0
2020-02-16 02:45:48 GMT 40.701260 -74.180588 0 171 0 0
2020-02-16 02:45:45 GMT 40.701290 -74.180618 0 170 1 0
2020-02-16 02:45:42 GMT 40.701271 -74.180603 0 170 0 0
2020-02-16 02:45:39 GMT 40.701260 -74.180573 0 170 1 0
2020-02-16 02:45:36 GMT 40.701260 -74.180603 0 171 0 0
2020-02-16 02:45:33 GMT 40.701260 -74.180603 0 170 2 0
2020-02-16 02:45:30 GMT 40.701302 -74.180618 0 170 0 0
2020-02-16 02:45:27 GMT 40.701321 -74.180641 0 168 0 0
2020-02-16 02:45:24 GMT 40.701302 -74.180611 0 169 0 0
2020-02-16 02:45:21 GMT 40.701302 -74.180618 0 169 1 0
2020-02-16 02:45:18 GMT 40.701290 -74.180634 0 166 1 0
2020-02-16 02:45:15 GMT 40.701279 -74.180603 0 163 0 0
2020-02-16 02:45:12 GMT 40.701290 -74.180603 0 165 2 0
2020-02-16 02:45:09 GMT 40.701309 -74.180580 0 167 1 0
2020-02-16 02:45:06 GMT 40.701309 -74.180611 0 172 1 0
2020-02-16 02:45:03 GMT 40.701260 -74.180603 0 180 0 0
2020-02-16 02:45:00 GMT 40.701260 -74.180603 0 180 0 0
2020-02-16 02:44:57 GMT 40.701279 -74.180611 0 180 0 0
2020-02-16 02:44:54 GMT 40.701279 -74.180588 0 180 0 0
2020-02-16 02:44:51 GMT 40.701271 -74.180588 0 180 1 0
2020-02-16 02:44:48 GMT 40.701302 -74.180634 0 180 0 0
2020-02-16 02:44:45 GMT 40.701290 -74.180634 0 181 0 0
2020-02-16 02:44:42 GMT 40.701302 -74.180634 0 181 0 0
2020-02-16 02:44:39 GMT 40.701302 -74.180618 0 181 0 0
2020-02-16 02:44:36 GMT 40.701302 -74.180649 0 181 0 0
2020-02-16 02:44:33 GMT 40.701309 -74.180656 0 181 1 0
2020-02-16 02:44:30 GMT 40.701271 -74.180588 0 181 0 0
2020-02-16 02:44:27 GMT 40.701271 -74.180603 0 181 0 0
2020-02-16 02:44:24 GMT 40.701271 -74.180611 0 181 0 0
2020-02-16 02:44:21 GMT 40.701271 -74.180611 0 181 0 0
2020-02-16 02:44:18 GMT 40.701260 -74.180611 0 181 0 0
2020-02-16 02:44:15 GMT 40.701248 -74.180557 0 181 0 0
2020-02-16 02:44:12 GMT 40.701229 -74.180588 0 181 0 0
2020-02-16 02:44:09 GMT 40.701229 -74.180550 0 181 0 0
2020-02-16 02:44:06 GMT 40.701279 -74.180603 0 181 0 0
2020-02-16 02:44:03 GMT 40.701279 -74.180580 0 182 1 0
2020-02-16 02:44:00 GMT 40.701271 -74.180603 0 185 0 0
2020-02-16 02:43:57 GMT 40.701279 -74.180618 0 185 0 0
2020-02-16 02:43:54 GMT 40.701290 -74.180611 0 185 0 0
2020-02-16 02:43:51 GMT 40.701290 -74.180611 0 186 0 0
2020-02-16 02:43:48 GMT 40.701290 -74.180618 0 184 0 0
2020-02-16 02:43:45 GMT 40.701290 -74.180634 0 184 0 0
2020-02-16 02:43:42 GMT 40.701248 -74.180550 0 187 1 0
2020-02-16 02:43:39 GMT 40.701260 -74.180580 0 188 2 0
2020-02-16 02:43:36 GMT 40.701290 -74.180618 0 193 0 0
2020-02-16 02:43:33 GMT 40.701309 -74.180679 0 194 2 0
2020-02-16 02:43:30 GMT 40.701290 -74.180618 0 194 0 0
2020-02-16 02:43:27 GMT 40.701279 -74.180656 0 190 2 0
2020-02-16 02:43:24 GMT 40.701271 -74.180580 0 190 0 0
2020-02-16 02:43:21 GMT 40.701271 -74.180611 0 190 0 0
2020-02-16 02:43:18 GMT 40.701279 -74.180611 0 190 0 0
2020-02-16 02:43:15 GMT 40.701309 -74.180641 0 190 1 0
2020-02-16 02:43:12 GMT 40.701302 -74.180649 0 190 2 0
2020-02-16 02:43:09 GMT 40.701302 -74.180634 0 190 0 0
2020-02-16 02:43:06 GMT 40.701302 -74.180634 0 190 0 0
2020-02-16 02:43:03 GMT 40.701309 -74.180649 0 191 1 0
2020-02-16 02:43:00 GMT 40.701302 -74.180634 0 191 1 0
2020-02-16 02:42:57 GMT 40.701271 -74.180573 0 194 1 0
2020-02-16 02:42:54 GMT 40.701290 -74.180618 0 196 1 0
2020-02-16 02:42:51 GMT 40.701290 -74.180649 0 196 1 0
2020-02-16 02:42:48 GMT 40.701271 -74.180618 0 196 1 0
2020-02-16 02:42:45 GMT 40.701279 -74.180557 0 198 1 0
2020-02-16 02:42:42 GMT 40.701309 -74.180580 0 201 1 0
2020-02-16 02:42:39 GMT 40.701309 -74.180611 0 198 1 0
2020-02-16 02:42:36 GMT 40.701248 -74.180588 0 193 1 0
2020-02-16 02:42:33 GMT 40.701241 -74.180603 0 194 2 0
2020-02-16 02:42:30 GMT 40.701309 -74.180641 0 194 1 0
2020-02-16 02:42:25 GMT 40.701271 -74.180580 0 194 1 0
2020-02-16 02:42:22 GMT 40.701229 -74.180542 0 197 1 0
2020-02-16 02:42:19 GMT 40.701279 -74.180603 0 199 0 0
2020-02-16 02:42:16 GMT 40.701241 -74.180519 0 199 1 0
2020-02-16 02:42:13 GMT 40.701271 -74.180588 0 199 0 0
2020-02-16 02:42:10 GMT 40.701302 -74.180618 0 199 0 0
2020-02-16 02:42:07 GMT 40.701248 -74.180588 0 201 2 0
2020-02-16 02:42:04 GMT 40.701328 -74.180649 0 201 0 0
2020-02-16 02:42:01 GMT 40.701328 -74.180649 0 200 1 0
2020-02-16 02:41:58 GMT 40.701302 -74.180641 0 199 0 0
2020-02-16 02:41:55 GMT 40.701309 -74.180656 0 198 1 0
2020-02-16 02:41:52 GMT 40.701290 -74.180641 0 197 0 0
2020-02-16 02:41:49 GMT 40.701279 -74.180611 0 197 0 0
2020-02-16 02:41:46 GMT 40.701279 -74.180611 0 197 0 0
2020-02-16 02:41:43 GMT 40.701271 -74.180611 0 197 0 0
2020-02-16 02:41:40 GMT 40.701290 -74.180618 0 198 1 0
2020-02-16 02:41:37 GMT 40.701290 -74.180672 0 201 2 0
2020-02-16 02:41:34 GMT 40.701309 -74.180641 0 201 1 0
2020-02-16 02:41:31 GMT 40.701279 -74.180679 0 200 2 0
2020-02-16 02:41:28 GMT 40.701279 -74.180618 0 201 2 0
2020-02-16 02:41:25 GMT 40.701279 -74.180618 0 201 1 0
2020-02-16 02:41:22 GMT 40.701302 -74.180641 0 202 0 0
2020-02-16 02:41:19 GMT 40.701290 -74.180611 0 199 0 0
2020-02-16 02:41:16 GMT 40.701279 -74.180634 0 199 0 0
2020-02-16 02:41:13 GMT 40.701290 -74.180649 0 199 0 0
2020-02-16 02:41:10 GMT 40.701260 -74.180550 0 199 0 0
2020-02-16 02:41:07 GMT 40.701290 -74.180634 0 196 0 0
2020-02-16 02:41:03 GMT 40.701290 -74.180611 0 196 0 0
2020-02-16 02:41:00 GMT 40.701279 -74.180573 0 196 0 0
2020-02-16 02:40:57 GMT 40.701290 -74.180603 0 197 0 0
2020-02-16 02:40:54 GMT 40.701290 -74.180618 0 197 1 0
2020-02-16 02:40:51 GMT 40.701302 -74.180618 0 197 1 0
2020-02-16 02:40:48 GMT 40.701290 -74.180634 0 197 0 0
2020-02-16 02:40:45 GMT 40.701302 -74.180611 0 197 0 0
2020-02-16 02:40:42 GMT 40.701309 -74.180641 0 199 0 0
2020-02-16 02:40:39 GMT 40.701290 -74.180634 0 199 0 0
2020-02-16 02:40:36 GMT 40.701321 -74.180641 0 198 1 0
2020-02-16 02:40:33 GMT 40.701290 -74.180634 0 195 1 0
2020-02-16 02:40:30 GMT 40.701271 -74.180611 0 187 0 0
2020-02-16 02:40:27 GMT 40.701271 -74.180611 0 187 0 0
2020-02-16 02:40:24 GMT 40.701279 -74.180611 0 187 0 0
2020-02-16 02:40:21 GMT 40.701279 -74.180588 0 187 1 0
2020-02-16 02:40:18 GMT 40.701309 -74.180641 0 190 0 0
2020-02-16 02:40:15 GMT 40.701309 -74.180641 0 190 0 0
2020-02-16 02:40:12 GMT 40.701290 -74.180641 0 188 1 0
2020-02-16 02:40:09 GMT 40.701302 -74.180641 0 186 1 0
2020-02-16 02:40:06 GMT 40.701271 -74.180588 0 184 0 0
2020-02-16 02:40:03 GMT 40.701290 -74.180588 0 185 1 0
2020-02-16 02:40:00 GMT 40.701302 -74.180634 0 185 0 0
2020-02-16 02:39:57 GMT 40.701321 -74.180679 0 185 2 0
2020-02-16 02:39:54 GMT 40.701290 -74.180618 0 185 0 0
2020-02-16 02:39:51 GMT 40.701302 -74.180618 0 185 0 0
2020-02-16 02:39:48 GMT 40.701279 -74.180634 0 185 0 0
2020-02-16 02:39:43 GMT 40.701309 -74.180649 0 185 0 0
2020-02-16 02:39:40 GMT 40.701302 -74.180672 0 185 0 0
2020-02-16 02:39:37 GMT 40.701302 -74.180672 0 185 0 0
2020-02-16 02:39:34 GMT 40.701290 -74.180618 0 187 1 0
2020-02-16 02:39:31 GMT 40.701279 -74.180603 0 188 1 0
2020-02-16 02:39:28 GMT 40.701290 -74.180618 0 188 0 0
2020-02-16 02:39:25 GMT 40.701309 -74.180672 0 189 2 0
2020-02-16 02:39:22 GMT 40.701290 -74.180618 0 190 2 0
2020-02-16 02:39:19 GMT 40.701290 -74.180618 0 190 1 0
2020-02-16 02:39:15 GMT 40.701302 -74.180634 0 190 0 0
2020-02-16 02:39:12 GMT 40.701290 -74.180656 0 193 0 0
2020-02-16 02:39:09 GMT 40.701290 -74.180702 0 193 1 0
2020-02-16 02:39:06 GMT 40.701302 -74.180672 0 191 1 0
2020-02-16 02:39:03 GMT 40.701248 -74.180603 0 190 1 0
2020-02-16 02:39:00 GMT 40.701271 -74.180603 0 192 1 0
2020-02-16 02:38:57 GMT 40.701279 -74.180641 0 192 0 0
2020-02-16 02:38:54 GMT 40.701279 -74.180618 0 192 0 0
2020-02-16 02:38:51 GMT 40.701290 -74.180634 0 192 0 0
2020-02-16 02:38:45 GMT 40.701290 -74.180611 0 192 0 0
2020-02-16 02:38:42 GMT 40.701248 -74.180603 0 192 0 0
2020-02-16 02:38:39 GMT 40.701290 -74.180634 0 193 0 0
2020-02-16 02:38:36 GMT 40.701290 -74.180611 0 193 0 0
2020-02-16 02:38:33 GMT 40.701279 -74.180634 0 193 0 0
2020-02-16 02:38:29 GMT 40.701302 -74.180641 0 193 0 0
2020-02-16 02:38:25 GMT 40.701290 -74.180618 0 193 0 0
2020-02-16 02:38:22 GMT 40.701321 -74.180649 0 190 1 0
2020-02-16 02:38:19 GMT 40.701309 -74.180634 0 189 2 0
2020-02-16 02:38:16 GMT 40.701279 -74.180611 0 189 0 0
2020-02-16 02:38:13 GMT 40.701260 -74.180603 0 190 0 0
2020-02-16 02:38:10 GMT 40.701309 -74.180649 0 190 0 0
2020-02-16 02:38:07 GMT 40.701309 -74.180672 0 190 0 0
2020-02-16 02:38:04 GMT 40.701309 -74.180641 0 190 0 0
2020-02-16 02:38:01 GMT 40.701328 -74.180656 0 190 0 0
2020-02-16 02:37:58 GMT 40.701302 -74.180634 0 190 0 0
2020-02-16 02:37:55 GMT 40.701290 -74.180618 0 190 0 0
2020-02-16 02:37:52 GMT 40.701321 -74.180649 0 190 0 0
2020-02-16 02:37:49 GMT 40.701302 -74.180611 0 190 0 0
2020-02-16 02:37:46 GMT 40.701302 -74.180588 0 190 0 0
2020-02-16 02:37:43 GMT 40.701279 -74.180603 0 190 0 0
2020-02-16 02:37:40 GMT 40.701359 -74.180367 0 190 0 0
2020-02-16 02:37:34 GMT 40.701290 -74.180618 0 190 0 0
2020-02-16 02:37:31 GMT 40.701290 -74.180641 0 190 1 0
2020-02-16 02:37:28 GMT 40.701302 -74.180634 0 186 1 0
2020-02-16 02:37:25 GMT 40.701302 -74.180588 0 182 1 0
2020-02-16 02:37:22 GMT 40.701290 -74.180580 0 182 1 0
2020-02-16 02:37:19 GMT 40.701290 -74.180580 0 183 1 0
2020-02-16 02:37:16 GMT 40.701321 -74.180641 0 183 0 0
2020-02-16 02:37:13 GMT 40.701279 -74.180641 0 183 0 0
2020-02-16 02:37:10 GMT 40.701309 -74.180634 0 180 11 0
2020-02-16 02:37:07 GMT 40.701340 -74.180679 0 183 1 0
2020-02-16 02:37:04 GMT 40.701309 -74.180656 0 183 0 0
2020-02-16 02:37:01 GMT 40.701271 -74.180634 0 183 1 0
2020-02-16 02:36:58 GMT 40.701279 -74.180611 0 180 11 0
2020-02-16 02:36:55 GMT 40.701359 -74.180367 0 180 11 0
2020-02-16 02:36:52 GMT 40.701290 -74.180618 0 185 0 0
2020-02-16 02:36:49 GMT 40.701290 -74.180618 0 185 0 0
2020-02-16 02:36:46 GMT 40.701279 -74.180618 0 182 0 0
2020-02-16 02:36:40 GMT 40.701309 -74.180634 0 180 2 0
2020-02-16 02:36:37 GMT 40.701359 -74.180367 0 180 2 0
2020-02-16 02:36:34 GMT 40.701309 -74.180634 0 179 2 0
2020-02-16 02:36:31 GMT 40.701279 -74.180588 0 180 1 0
2020-02-16 02:36:28 GMT 40.701302 -74.180618 0 180 2 0
2020-02-16 02:36:25 GMT 40.701302 -74.180618 0 180 1 0
2020-02-16 02:36:22 GMT 40.701309 -74.180634 0 180 1 0
2020-02-16 02:36:19 GMT 40.701302 -74.180634 0 180 0 0
2020-02-16 02:36:16 GMT 40.701290 -74.180611 0 180 0 0
2020-02-16 02:36:13 GMT 40.701271 -74.180611 0 180 0 0
2020-02-16 02:36:10 GMT 40.701279 -74.180611 0 180 1 0
2020-02-16 02:36:07 GMT 40.701290 -74.180649 0 180 0 0
2020-02-16 02:36:04 GMT 40.701290 -74.180618 0 180 0 0
2020-02-16 02:36:01 GMT 40.701321 -74.180649 0 180 0 0
2020-02-16 02:35:58 GMT 40.701290 -74.180618 0 180 0 0
2020-02-16 02:35:55 GMT 40.701279 -74.180618 0 180 1 0
2020-02-16 02:35:52 GMT 40.701260 -74.180580 0 180 1 0
2020-02-16 02:35:49 GMT 40.701302 -74.180656 0 180 0 0
2020-02-16 02:35:46 GMT 40.701279 -74.180641 0 180 0 0
2020-02-16 02:35:43 GMT 40.701279 -74.180588 0 180 0 0
2020-02-16 02:35:40 GMT 40.701260 -74.180580 0 180 1 0
2020-02-16 02:35:37 GMT 40.701260 -74.180580 0 182 0 0
2020-02-16 02:35:34 GMT 40.701279 -74.180641 0 182 1 0
2020-02-16 02:35:31 GMT 40.701309 -74.180672 0 179 1 0
2020-02-16 02:35:28 GMT 40.701279 -74.180603 0 180 3 0
2020-02-16 02:35:25 GMT 40.701321 -74.180634 0 181 1 0
2020-02-16 02:35:22 GMT 40.701328 -74.180672 0 181 2 0
2020-02-16 02:35:19 GMT 40.701302 -74.180618 0 177 1 0
2020-02-16 02:35:16 GMT 40.701302 -74.180634 0 174 1 0
2020-02-16 02:35:13 GMT 40.701271 -74.180603 0 177 2 0
2020-02-16 02:35:10 GMT 40.701260 -74.180611 0 177 0 0
2020-02-16 02:35:07 GMT 40.701271 -74.180603 0 177 0 0
2020-02-16 02:35:04 GMT 40.701302 -74.180634 0 175 0 0
2020-02-16 02:35:01 GMT 40.701260 -74.180634 0 168 3 0
2020-02-16 02:34:58 GMT 40.701260 -74.180634 0 167 1 0
2020-02-16 02:34:55 GMT 40.701309 -74.180740 0 166 5 0
2020-02-16 02:34:52 GMT 40.701290 -74.180389 0 169 8 0
2020-02-16 02:34:49 GMT 40.701271 -74.180580 0 191 4 0
2020-02-16 02:34:46 GMT 40.701279 -74.180641 0 191 0 0
2020-02-16 02:34:42 GMT 40.701279 -74.180618 0 189 0 0
2020-02-16 02:34:39 GMT 40.701290 -74.180634 0 189 0 0
2020-02-16 02:34:36 GMT 40.701271 -74.180634 0 186 0 0
2020-02-16 02:34:33 GMT 40.701271 -74.180634 0 186 2 0
2020-02-16 02:34:30 GMT 40.701260 -74.180588 0 186 1 0
2020-02-16 02:34:27 GMT 40.701260 -74.180603 0 186 0 0
2020-02-16 02:34:24 GMT 40.701271 -74.180603 0 186 0 0
2020-02-16 02:34:21 GMT 40.701290 -74.180603 0 187 0 0
2020-02-16 02:34:18 GMT 40.701290 -74.180603 0 187 0 0
2020-02-16 02:34:15 GMT 40.701302 -74.180618 0 187 1 0
2020-02-16 02:34:12 GMT 40.701309 -74.180641 0 187 1 0
2020-02-16 02:34:09 GMT 40.701279 -74.180603 0 187 0 0
2020-02-16 02:34:06 GMT 40.701302 -74.180611 0 188 1 0
2020-02-16 02:34:03 GMT 40.701290 -74.180618 0 192 1 0
2020-02-16 02:34:00 GMT 40.701328 -74.180649 0 192 1 0
2020-02-16 02:33:57 GMT 40.701279 -74.180603 0 192 1 0
2020-02-16 02:33:54 GMT 40.701279 -74.180603 0 192 0 0
2020-02-16 02:33:51 GMT 40.701290 -74.180611 0 192 0 0
2020-02-16 02:33:48 GMT 40.701290 -74.180603 0 192 0 0
2020-02-16 02:33:45 GMT 40.701309 -74.180618 0 192 0 0
2020-02-16 02:33:42 GMT 40.701279 -74.180603 0 193 0 0
2020-02-16 02:33:39 GMT 40.701290 -74.180618 0 193 0 0
2020-02-16 02:33:35 GMT 40.701290 -74.180618 0 193 0 0
2020-02-16 02:33:32 GMT 40.701279 -74.180603 0 193 0 0
2020-02-16 02:33:29 GMT 40.701271 -74.180611 0 193 1 0
2020-02-16 02:33:26 GMT 40.701290 -74.180611 0 191 1 0
2020-02-16 02:33:23 GMT 40.701271 -74.180603 0 190 0 0
2020-02-16 02:33:20 GMT 40.701260 -74.180557 0 190 3 0
2020-02-16 02:33:16 GMT 40.701279 -74.180611 0 190 1 0
2020-02-16 02:33:10 GMT 40.701290 -74.180634 0 188 1 0
2020-02-16 02:33:07 GMT 40.701279 -74.180588 0 189 1 0
2020-02-16 02:33:04 GMT 40.701279 -74.180611 0 189 0 0
2020-02-16 02:33:01 GMT 40.701290 -74.180618 0 189 0 0
2020-02-16 02:32:58 GMT 40.701290 -74.180611 0 189 0 0
2020-02-16 02:32:55 GMT 40.701271 -74.180611 0 189 0 0
2020-02-16 02:32:52 GMT 40.701279 -74.180618 0 189 0 0
2020-02-16 02:32:49 GMT 40.701290 -74.180611 0 189 0 0
2020-02-16 02:32:46 GMT 40.701290 -74.180634 0 189 0 0
2020-02-16 02:32:43 GMT 40.701279 -74.180618 0 189 0 0
2020-02-16 02:32:40 GMT 40.701302 -74.180641 0 189 0 0
2020-02-16 02:32:37 GMT 40.701328 -74.180656 0 183 3 0
2020-02-16 02:32:34 GMT 40.701271 -74.180649 0 182 2 0
2020-02-16 02:32:31 GMT 40.701279 -74.180656 0 178 5 0
2020-02-16 02:32:28 GMT 40.701290 -74.180557 0 117 1 0
2020-02-16 02:32:25 GMT 40.701290 -74.180557 0 119 1 0
2020-02-16 02:32:22 GMT 40.701359 -74.180237 0 121 3 0
2020-02-16 02:32:19 GMT 40.701321 -74.180428 0 124 2 0
2020-02-16 02:32:16 GMT 40.701321 -74.180443 0 144 3 0
2020-02-16 02:32:13 GMT 40.701328 -74.180649 0 149 2 0
2020-02-16 02:32:10 GMT 40.701328 -74.180649 0 149 2 0
2020-02-16 02:32:07 GMT 40.701290 -74.180611 0 147 1 0
2020-02-16 02:32:04 GMT 40.701279 -74.180641 0 147 1 0
2020-02-16 02:32:01 GMT 40.701279 -74.180573 0 146 2 0
2020-02-16 02:31:58 GMT 40.701279 -74.180580 0 146 4 0
2020-02-16 02:31:55 GMT 40.701260 -74.180542 0 187 1 0
2020-02-16 02:31:52 GMT 40.701290 -74.180634 0 188 0 0
2020-02-16 02:31:49 GMT 40.701309 -74.180641 0 188 0 0
2020-02-16 02:31:46 GMT 40.701309 -74.180641 0 187 2 0
2020-02-16 02:31:43 GMT 40.701309 -74.180611 0 165 4 0
2020-02-16 02:31:40 GMT 40.701279 -74.180641 0 140 5 0
2020-02-16 02:31:37 GMT 40.701279 -74.180412 0 140 1 0
2020-02-16 02:31:34 GMT 40.701290 -74.180550 0 191 4 0
2020-02-16 02:31:31 GMT 40.701321 -74.180679 0 191 3 0
2020-02-16 02:31:28 GMT 40.701279 -74.180634 0 186 1 0
2020-02-16 02:31:25 GMT 40.701271 -74.180573 0 185 2 0
2020-02-16 02:31:22 GMT 40.701302 -74.180580 0 188 2 0
2020-02-16 02:31:19 GMT 40.701321 -74.180603 0 191 2 0
2020-02-16 02:31:16 GMT 40.701351 -74.180717 0 188 1 0
2020-02-16 02:31:12 GMT 40.701351 -74.180717 0 186 3 0
2020-02-16 02:31:09 GMT 40.701302 -74.180649 0 186 1 0
2020-02-16 02:31:06 GMT 40.701279 -74.180580 0 186 1 0
2020-02-16 02:31:03 GMT 40.701279 -74.180588 0 188 0 0
2020-02-16 02:31:00 GMT 40.701271 -74.180603 0 184 0 0
2020-02-16 02:30:57 GMT 40.701248 -74.180634 0 184 0 0
2020-02-16 02:30:54 GMT 40.701248 -74.180603 0 181 2 0
2020-02-16 02:30:51 GMT 40.701290 -74.180588 0 180 2 0
2020-02-16 02:30:48 GMT 40.701290 -74.180588 0 181 3 0
2020-02-16 02:30:45 GMT 40.701279 -74.180458 0 261 1 0
2020-02-16 02:30:42 GMT 40.701309 -74.180603 0 261 0 0
2020-02-16 02:30:39 GMT 40.701302 -74.180611 0 261 0 0
2020-02-16 02:30:36 GMT 40.701302 -74.180618 0 266 0 0
2020-02-16 02:30:33 GMT 40.701290 -74.180611 0 265 1 0
2020-02-16 02:30:30 GMT 40.701248 -74.180588 0 259 0 0
2020-02-16 02:30:24 GMT 40.701279 -74.180618 0 259 0 0
2020-02-16 02:30:21 GMT 40.701279 -74.180618 0 259 0 0
2020-02-16 02:30:18 GMT 40.701279 -74.180634 0 258 0 0
2020-02-16 02:30:15 GMT 40.701271 -74.180618 0 258 0 0
2020-02-16 02:30:12 GMT 40.701241 -74.180672 0 259 1 0
2020-02-16 02:30:09 GMT 40.701229 -74.180641 0 260 2 0
2020-02-16 02:30:06 GMT 40.701279 -74.180618 0 261 0 0
2020-02-16 02:30:03 GMT 40.701271 -74.180603 0 261 1 0
2020-02-16 02:30:00 GMT 40.701309 -74.180656 0 260 2 0
2020-02-16 02:29:57 GMT 40.701290 -74.180611 0 260 0 0
2020-02-16 02:29:54 GMT 40.701279 -74.180611 0 260 0 0
2020-02-16 02:29:51 GMT 40.701279 -74.180641 0 260 0 0
2020-02-16 02:29:48 GMT 40.701279 -74.180618 0 260 0 0
2020-02-16 02:29:45 GMT 40.701309 -74.180603 0 260 0 0
2020-02-16 02:29:42 GMT 40.701351 -74.180634 0 258 2 0
2020-02-16 02:29:39 GMT 40.701279 -74.180603 0 256 0 0
2020-02-16 02:29:36 GMT 40.701290 -74.180618 0 256 0 0
2020-02-16 02:29:33 GMT 40.701279 -74.180618 0 256 0 0
2020-02-16 02:29:30 GMT 40.701290 -74.180618 0 255 1 0
2020-02-16 02:29:27 GMT 40.701271 -74.180634 0 254 0 0
2020-02-16 02:29:24 GMT 40.701271 -74.180588 0 254 1 0
2020-02-16 02:29:21 GMT 40.701260 -74.180573 0 254 1 0
2020-02-16 02:29:15 GMT 40.701271 -74.180603 0 254 0 0
2020-02-16 02:29:12 GMT 40.701279 -74.180603 0 253 0 0
2020-02-16 02:29:08 GMT 40.701271 -74.180603 0 253 0 0
2020-02-16 02:29:05 GMT 40.701260 -74.180603 0 253 0 0
2020-02-16 02:29:02 GMT 40.701260 -74.180603 0 251 0 0
2020-02-16 02:28:59 GMT 40.701271 -74.180588 0 251 1 0
2020-02-16 02:28:55 GMT 40.701279 -74.180603 0 251 3 0
2020-02-16 02:28:52 GMT 40.701279 -74.180580 0 271 5 0
2020-02-16 02:28:49 GMT 40.701309 -74.180496 0 270 3 0
2020-02-16 02:28:46 GMT 40.701302 -74.180481 0 264 4 0
2020-02-16 02:28:43 GMT 40.701260 -74.180412 0 270 4 0
2020-02-16 02:28:40 GMT 40.701279 -74.180367 0 288 2 0
2020-02-16 02:28:37 GMT 40.701279 -74.180313 0 272 4 0
2020-02-16 02:28:34 GMT 40.701271 -74.180252 0 259 3 0
2020-02-16 02:28:31 GMT 40.701241 -74.180199 0 257 3 0
2020-02-16 02:28:28 GMT 40.701260 -74.180153 0 269 4 0
2020-02-16 02:28:25 GMT 40.701271 -74.180092 0 275 6 0
2020-02-16 02:28:22 GMT 40.701248 -74.179977 0 265 3 0
2020-02-16 02:28:19 GMT 40.701241 -74.179909 0 281 3 0
2020-02-16 02:28:16 GMT 40.701271 -74.179848 0 288 4 0
2020-02-16 02:28:13 GMT 40.701229 -74.179779 0 284 4 0
2020-02-16 02:28:10 GMT 40.701241 -74.179718 0 279 6 0
2020-02-16 02:28:07 GMT 40.701191 -74.179527 0 254 5 0
2020-02-16 02:28:04 GMT 40.701191 -74.179527 0 262 7 0
2020-02-16 02:28:01 GMT 40.701302 -74.179413 0 280 3 0
2020-02-16 02:27:58 GMT 40.701210 -74.179420 0 276 7 0
2020-02-16 02:27:55 GMT 40.701199 -74.179291 0 279 4 0
2020-02-16 02:27:52 GMT 40.701180 -74.179237 0 267 8 0
2020-02-16 02:27:49 GMT 40.701199 -74.178970 0 271 6 0
2020-02-16 02:27:46 GMT 40.701191 -74.178879 0 287 5 0
2020-02-16 02:27:43 GMT 40.701191 -74.178879 0 278 6 0
2020-02-16 02:27:40 GMT 40.701141 -74.178787 0 268 5 0
2020-02-16 02:27:37 GMT 40.701160 -74.178688 0 267 9 0
2020-02-16 02:27:34 GMT 40.701130 -74.178574 0 259 6 0
2020-02-16 02:27:31 GMT 40.701141 -74.178360 0 265 5 0
2020-02-16 02:27:28 GMT 40.701141 -74.178360 0 239 4 0
2020-02-16 02:27:25 GMT 40.701210 -74.178322 0 261 7 0
2020-02-16 02:27:22 GMT 40.701199 -74.178169 0 239 5 0
2020-02-16 02:27:19 GMT 40.701241 -74.178108 0 243 5 0
2020-02-16 02:27:16 GMT 40.701248 -74.178040 0 239 7 0
2020-02-16 02:27:13 GMT 40.701309 -74.177917 0 245 8 0
2020-02-16 02:27:10 GMT 40.701370 -74.177841 0 271 6 0
2020-02-16 02:27:07 GMT 40.701370 -74.177742 0 255 5 0
2020-02-16 02:27:04 GMT 40.701401 -74.177628 0 274 5 0
2020-02-16 02:27:01 GMT 40.701359 -74.177528 0 260 4 0
2020-02-16 02:26:58 GMT 40.701401 -74.177513 0 257 9 0
2020-02-16 02:26:55 GMT 40.701488 -74.177231 0 262 7 0
2020-02-16 02:26:52 GMT 40.701488 -74.177231 0 280 7 0
2020-02-16 02:26:49 GMT 40.701462 -74.177162 0 258 11 0
2020-02-16 02:26:46 GMT 40.701450 -74.176903 0 273 6 0
2020-02-16 02:26:43 GMT 40.701469 -74.176788 0 308 3 0
2020-02-16 02:26:40 GMT 40.701469 -74.176773 0 308 3 0
2020-02-16 02:26:37 GMT 40.701408 -74.176643 0 348 5 0
2020-02-16 02:26:34 GMT 40.701359 -74.176552 0 20 5 0
2020-02-16 02:26:31 GMT 40.701321 -74.176620 0 356 7 0
2020-02-16 02:26:28 GMT 40.701229 -74.176613 0 15 7 0
2020-02-16 02:26:25 GMT 40.701130 -74.176598 0 10 6 0
2020-02-16 02:26:22 GMT 40.701031 -74.176651 0 8 6 0
2020-02-16 02:26:19 GMT 40.700878 -74.176613 0 0 4 0
2020-02-16 02:26:16 GMT 40.700878 -74.176613 0 17 4 0
2020-02-16 02:26:13 GMT 40.700809 -74.176598 0 33 4 0
2020-02-16 02:26:10 GMT 40.700748 -74.176651 0 41 3 0
2020-02-16 02:26:07 GMT 40.700722 -74.176697 0 35 4 0
2020-02-16 02:26:04 GMT 40.700649 -74.176743 0 49 5 0
2020-02-16 02:26:01 GMT 40.700649 -74.176804 0 100 3 0
2020-02-16 02:25:58 GMT 40.700661 -74.176880 0 94 5 0
2020-02-16 02:25:55 GMT 40.700661 -74.176971 0 80 3 0
2020-02-16 02:25:52 GMT 40.700661 -74.177071 0 84 2 0
2020-02-16 02:25:49 GMT 40.700649 -74.177101 0 111 4 0
2020-02-16 02:25:46 GMT 40.700668 -74.177177 0 221 3 0
2020-02-16 02:25:43 GMT 40.700661 -74.177292 0 267 2 0
2020-02-16 02:25:40 GMT 40.700661 -74.177292 0 266 2 0
2020-02-16 02:25:37 GMT 40.700680 -74.177292 0 277 0 0
2020-02-16 02:25:34 GMT 40.700710 -74.177399 0 276 0 0
2020-02-16 02:25:31 GMT 40.700680 -74.177368 0 273 1 0
2020-02-16 02:25:28 GMT 40.700680 -74.177422 0 273 0 0
2020-02-16 02:25:25 GMT 40.700699 -74.177513 0 271 1 0
2020-02-16 02:25:22 GMT 40.700691 -74.177467 0 270 1 0
2020-02-16 02:25:19 GMT 40.700680 -74.177437 0 270 0 0
2020-02-16 02:25:16 GMT 40.700619 -74.177391 0 274 3 0
2020-02-16 02:25:13 GMT 40.700729 -74.177429 0 279 1 0
2020-02-16 02:25:10 GMT 40.700729 -74.177429 0 278 1 0
2020-02-16 02:25:07 GMT 40.700699 -74.177406 0 275 0 0
2020-02-16 02:25:04 GMT 40.700649 -74.177422 0 275 0 0
2020-02-16 02:25:01 GMT 40.700691 -74.177406 0 275 0 0
2020-02-16 02:24:58 GMT 40.700661 -74.177490 0 277 1 0
2020-02-16 02:24:55 GMT 40.700691 -74.177429 0 279 2 0
2020-02-16 02:24:52 GMT 40.700691 -74.177429 0 282 0 0
2020-02-16 02:24:49 GMT 40.700691 -74.177422 0 281 1 0
2020-02-16 02:24:46 GMT 40.700710 -74.177429 0 281 2 0
2020-02-16 02:24:43 GMT 40.700680 -74.177422 0 281 0 0
2020-02-16 02:24:40 GMT 40.700680 -74.177460 0 281 0 0
2020-02-16 02:24:37 GMT 40.700668 -74.177460 0 281 0 0
2020-02-16 02:24:34 GMT 40.700680 -74.177467 0 281 0 0
2020-02-16 02:24:31 GMT 40.700699 -74.177452 0 280 0 0
2020-02-16 02:24:28 GMT 40.700661 -74.177513 0 280 1 0
2020-02-16 02:24:25 GMT 40.700661 -74.177422 0 280 1 0
2020-02-16 02:24:22 GMT 40.700649 -74.177391 0 280 0 0
2020-02-16 02:24:19 GMT 40.700680 -74.177429 0 280 0 0
2020-02-16 02:24:16 GMT 40.700668 -74.177437 0 280 0 0
2020-02-16 02:24:13 GMT 40.700661 -74.177422 0 279 0 0
2020-02-16 02:24:10 GMT 40.700680 -74.177437 0 279 0 0
2020-02-16 02:24:07 GMT 40.700680 -74.177460 0 279 0 0
2020-02-16 02:24:03 GMT 40.700680 -74.177452 0 279 1 0
2020-02-16 02:24:00 GMT 40.700668 -74.177460 0 279 1 0
2020-02-16 02:23:57 GMT 40.700699 -74.177406 0 281 2 0
2020-02-16 02:23:54 GMT 40.700691 -74.177422 0 280 1 0
2020-02-16 02:23:51 GMT 40.700661 -74.177429 0 277 2 0
2020-02-16 02:23:48 GMT 40.700699 -74.177429 0 277 0 0
2020-02-16 02:23:45 GMT 40.700680 -74.177429 0 277 0 0
2020-02-16 02:23:42 GMT 40.700699 -74.177437 0 272 2 0
2020-02-16 02:23:39 GMT 40.700668 -74.177452 0 270 2 0
2020-02-16 02:23:36 GMT 40.700661 -74.177429 0 271 0 0
2020-02-16 02:23:33 GMT 40.700691 -74.177460 0 271 1 0
2020-02-16 02:23:30 GMT 40.700649 -74.177429 0 273 2 0
2020-02-16 02:23:27 GMT 40.700680 -74.177406 0 276 0 0
2020-02-16 02:23:22 GMT 40.700680 -74.177429 0 276 1 0
2020-02-16 02:23:19 GMT 40.700699 -74.177437 0 274 1 0
2020-02-16 02:23:16 GMT 40.700710 -74.177498 0 264 2 0
2020-02-16 02:23:13 GMT 40.700710 -74.177422 0 259 2 0
2020-02-16 02:23:10 GMT 40.700649 -74.177422 0 257 2 0
2020-02-16 02:23:07 GMT 40.700691 -74.177429 0 258 0 0
2020-02-16 02:23:04 GMT 40.700699 -74.177483 0 258 0 0
2020-02-16 02:23:01 GMT 40.700668 -74.177452 0 258 0 0
2020-02-16 02:22:58 GMT 40.700691 -74.177437 0 258 0 0
2020-02-16 02:22:55 GMT 40.700668 -74.177429 0 260 1 0
2020-02-16 02:22:52 GMT 40.700691 -74.177429 0 260 0 0
2020-02-16 02:22:49 GMT 40.700691 -74.177467 0 259 2 0
2020-02-16 02:22:46 GMT 40.700691 -74.177460 0 258 3 0
2020-02-16 02:22:43 GMT 40.700630 -74.177399 0 214 6 0
2020-02-16 02:22:40 GMT 40.700630 -74.177399 0 216 2 0
2020-02-16 02:22:37 GMT 40.700699 -74.177368 0 216 5 0
2020-02-16 02:22:34 GMT 40.700680 -74.177422 0 216 0 0
2020-02-16 02:22:31 GMT 40.700668 -74.177483 0 216 0 0
2020-02-16 02:22:28 GMT 40.700668 -74.177429 0 216 0 0
2020-02-16 02:22:25 GMT 40.700668 -74.177429 0 216 1 0
2020-02-16 02:22:22 GMT 40.700661 -74.177406 0 217 2 0
2020-02-16 02:22:19 GMT 40.700661 -74.177422 0 220 1 0
2020-02-16 02:22:16 GMT 40.700680 -74.177422 0 225 2 0
2020-02-16 02:22:13 GMT 40.700661 -74.177452 0 223 1 0
2020-02-16 02:22:10 GMT 40.700661 -74.177437 0 224 2 0
2020-02-16 02:22:07 GMT 40.700680 -74.177452 0 225 0 0
2020-02-16 02:22:04 GMT 40.700680 -74.177498 0 224 0 0
2020-02-16 02:22:01 GMT 40.700680 -74.177513 0 222 2 0
2020-02-16 02:21:58 GMT 40.700699 -74.177467 0 213 4 0
2020-02-16 02:21:52 GMT 40.700668 -74.177452 0 206 1 0
2020-02-16 02:21:49 GMT 40.700661 -74.177422 0 205 0 0
2020-02-16 02:21:46 GMT 40.700668 -74.177399 0 211 1 0
2020-02-16 02:21:43 GMT 40.700680 -74.177391 0 214 1 0
2020-02-16 02:21:40 GMT 40.700691 -74.177544 0 214 1 0
2020-02-16 02:21:37 GMT 40.700691 -74.177643 0 214 2 0
2020-02-16 02:21:34 GMT 40.700661 -74.177582 0 214 3 0
2020-02-16 02:21:31 GMT 40.700642 -74.177452 0 214 3 0
2020-02-16 02:21:28 GMT 40.700691 -74.177406 0 214 0 0
2020-02-16 02:21:25 GMT 40.700680 -74.177422 0 214 1 0
2020-02-16 02:21:22 GMT 40.700680 -74.177429 0 214 1 0
2020-02-16 02:21:19 GMT 40.700661 -74.177437 0 214 1 0
2020-02-16 02:21:16 GMT 40.700691 -74.177437 0 214 0 0
2020-02-16 02:21:13 GMT 40.700699 -74.177429 0 211 1 0
2020-02-16 02:21:10 GMT 40.700699 -74.177429 0 208 0 0
2020-02-16 02:21:07 GMT 40.700680 -74.177361 0 208 2 0
2020-02-16 02:21:04 GMT 40.700668 -74.177406 0 208 0 0
2020-02-16 02:21:01 GMT 40.700680 -74.177429 0 208 0 0
2020-02-16 02:20:58 GMT 40.700661 -74.177437 0 208 1 0
2020-02-16 02:20:54 GMT 40.700699 -74.177460 0 209 0 0
2020-02-16 02:20:51 GMT 40.700699 -74.177460 0 207 0 0
2020-02-16 02:20:48 GMT 40.700691 -74.177460 0 207 0 0
2020-02-16 02:20:45 GMT 40.700691 -74.177467 0 207 0 0
2020-02-16 02:20:42 GMT 40.700722 -74.177452 0 206 0 0
2020-02-16 02:20:39 GMT 40.700741 -74.177513 0 206 1 0
2020-02-16 02:20:36 GMT 40.700760 -74.177551 0 206 0 0
2020-02-16 02:20:33 GMT 40.700710 -74.177513 0 203 0 0
2020-02-16 02:20:30 GMT 40.700710 -74.177490 0 201 0 0
2020-02-16 02:20:27 GMT 40.700748 -74.177460 0 200 0 0
2020-02-16 02:20:24 GMT 40.700691 -74.177467 0 193 0 0
2020-02-16 02:20:21 GMT 40.700691 -74.177467 0 193 0 0
2020-02-16 02:20:18 GMT 40.700668 -74.177437 0 193 0 0
2020-02-16 02:20:15 GMT 40.700642 -74.177452 0 192 1 0
2020-02-16 02:20:12 GMT 40.700680 -74.177422 0 192 1 0
2020-02-16 02:20:09 GMT 40.700710 -74.177490 0 192 0 0
2020-02-16 02:20:06 GMT 40.700710 -74.177490 0 190 1 0
2020-02-16 02:20:03 GMT 40.700691 -74.177460 0 186 0 0
2020-02-16 02:20:00 GMT 40.700661 -74.177422 0 186 0 0
2020-02-16 02:19:57 GMT 40.700680 -74.177437 0 186 0 0
2020-02-16 02:19:54 GMT 40.700710 -74.177513 0 186 1 0
2020-02-16 02:19:51 GMT 40.700722 -74.177490 0 187 0 0
2020-02-16 02:19:48 GMT 40.700741 -74.177513 0 187 0 0
2020-02-16 02:19:45 GMT 40.700710 -74.177544 0 187 0 0
2020-02-16 02:19:42 GMT 40.700729 -74.177513 0 187 0 0
2020-02-16 02:19:39 GMT 40.700722 -74.177498 0 187 1 0
2020-02-16 02:19:36 GMT 40.700699 -74.177490 0 187 0 0
2020-02-16 02:19:33 GMT 40.700748 -74.177521 0 184 0 0
2020-02-16 02:19:30 GMT 40.700710 -74.177467 0 182 0 0
2020-02-16 02:19:27 GMT 40.700691 -74.177452 0 185 0 0
2020-02-16 02:19:24 GMT 40.700668 -74.177429 0 185 0 0
2020-02-16 02:19:21 GMT 40.700680 -74.177483 0 185 1 0
2020-02-16 02:19:18 GMT 40.700722 -74.177467 0 186 0 0
2020-02-16 02:19:15 GMT 40.700741 -74.177513 0 187 0 0
2020-02-16 02:19:12 GMT 40.700748 -74.177528 0 187 1 0
2020-02-16 02:19:09 GMT 40.700710 -74.177498 0 189 2 0
2020-02-16 02:19:06 GMT 40.700729 -74.177498 0 189 3 0
2020-02-16 02:19:03 GMT 40.700699 -74.177521 0 192 3 0
2020-02-16 02:19:00 GMT 40.700771 -74.177483 0 194 1 0
2020-02-16 02:18:57 GMT 40.700760 -74.177528 0 207 1 0
2020-02-16 02:18:54 GMT 40.700760 -74.177528 0 209 1 0
2020-02-16 02:18:51 GMT 40.700748 -74.177521 0 213 0 0
2020-02-16 02:18:48 GMT 40.700741 -74.177513 0 211 0 0
2020-02-16 02:18:45 GMT 40.700710 -74.177498 0 211 1 0
2020-02-16 02:18:42 GMT 40.700741 -74.177528 0 211 1 0
2020-02-16 02:18:39 GMT 40.700760 -74.177528 0 206 1 0
2020-02-16 02:18:36 GMT 40.700748 -74.177544 0 204 1 0
2020-02-16 02:18:33 GMT 40.700741 -74.177513 0 204 0 0
2020-02-16 02:18:30 GMT 40.700680 -74.177467 0 203 0 0
2020-02-16 02:18:27 GMT 40.700710 -74.177483 0 203 0 0
2020-02-16 02:18:24 GMT 40.700680 -74.177460 0 202 0 0
2020-02-16 02:18:21 GMT 40.700699 -74.177437 0 202 0 0
2020-02-16 02:18:18 GMT 40.700691 -74.177429 0 202 0 0
2020-02-16 02:18:15 GMT 40.700680 -74.177429 0 202 1 0
2020-02-16 02:18:12 GMT 40.700699 -74.177452 0 201 0 0
2020-02-16 02:18:09 GMT 40.700722 -74.177498 0 200 1 0
2020-02-16 02:18:06 GMT 40.700722 -74.177429 0 197 1 0
2020-02-16 02:18:03 GMT 40.700691 -74.177399 0 197 2 0
2020-02-16 02:18:00 GMT 40.700661 -74.177399 0 197 2 0
2020-02-16 02:17:57 GMT 40.700691 -74.177422 0 197 0 0
2020-02-16 02:17:54 GMT 40.700668 -74.177399 0 195 1 0
2020-02-16 02:17:51 GMT 40.700680 -74.177422 0 189 0 0
2020-02-16 02:17:48 GMT 40.700668 -74.177429 0 189 0 0
2020-02-16 02:17:45 GMT 40.700668 -74.177422 0 189 2 0
2020-02-16 02:17:42 GMT 40.700661 -74.177422 0 189 0 0
2020-02-16 02:17:38 GMT 40.700661 -74.177406 0 189 1 0
2020-02-16 02:17:35 GMT 40.700661 -74.177452 0 189 1 0
2020-02-16 02:17:32 GMT 40.700668 -74.177422 0 182 5 0
2020-02-16 02:17:29 GMT 40.700661 -74.177460 0 105 7 0
2020-02-16 02:17:26 GMT 40.700661 -74.177460 0 104 11 0
2020-02-16 02:17:23 GMT 40.700699 -74.177628 0 97 14 0
2020-02-16 02:17:20 GMT 40.700729 -74.177902 0 96 10 0
2020-02-16 02:17:17 GMT 40.700729 -74.178291 0 85 14 0
2020-02-16 02:17:14 GMT 40.700729 -74.178291 0 98 13 0
2020-02-16 02:17:11 GMT 40.700760 -74.178528 0 103 12 0
2020-02-16 02:17:08 GMT 40.700760 -74.178772 0 105 11 0
2020-02-16 02:17:05 GMT 40.700851 -74.178947 0 92 11 0
2020-02-16 02:17:02 GMT 40.700840 -74.179367 0 88 10 0
2020-02-16 02:16:59 GMT 40.700840 -74.179367 0 105 9 0
2020-02-16 02:16:56 GMT 40.700821 -74.179581 0 104 8 0
2020-02-16 02:16:53 GMT 40.700890 -74.179749 0 88 9 0
2020-02-16 02:16:50 GMT 40.700878 -74.179909 0 98 6 0
2020-02-16 02:16:47 GMT 40.700890 -74.180000 0 106 4 0
2020-02-16 02:16:44 GMT 40.700909 -74.180237 0 108 2 0
2020-02-16 02:16:41 GMT 40.700909 -74.180237 0 108 2 0
2020-02-16 02:16:38 GMT 40.701000 -74.181023 0 108 2 0
2020-02-16 02:16:35 GMT 40.700901 -74.180397 0 88 4 0
2020-02-16 02:16:32 GMT 40.700901 -74.180511 0 108 2 0
2020-02-16 02:16:29 GMT 40.701000 -74.181023 0 95 2 0
2020-02-16 02:16:26 GMT 40.700901 -74.180618 0 107 3 0
2020-02-16 02:16:23 GMT 40.701000 -74.181023 0 108 2 0
2020-02-16 02:16:20 GMT 40.700951 -74.180801 0 104 2 0
2020-02-16 02:16:17 GMT 40.700932 -74.180779 0 108 2 0
2020-02-16 02:16:14 GMT 40.700932 -74.180840 0 108 2 0
2020-02-16 02:16:11 GMT 40.700951 -74.180878 0 108 2 0
2020-02-16 02:16:08 GMT 40.700890 -74.180870 0 108 2 0
2020-02-16 02:16:05 GMT 40.700932 -74.180939 0 102 1 0
2020-02-16 02:16:02 GMT 40.700989 -74.181007 0 103 1 0
2020-02-16 02:15:59 GMT 40.701012 -74.181023 0 106 1 0
2020-02-16 02:15:56 GMT 40.700951 -74.180977 0 108 1 0
2020-02-16 02:15:53 GMT 40.700951 -74.180969 0 109 0 0
2020-02-16 02:15:49 GMT 40.700951 -74.180969 0 109 0 0
2020-02-16 02:15:46 GMT 40.700958 -74.180969 0 109 0 0
2020-02-16 02:15:42 GMT 40.700951 -74.180977 0 111 0 0
2020-02-16 02:15:39 GMT 40.700939 -74.180977 0 111 0 0
2020-02-16 02:15:36 GMT 40.700951 -74.180969 0 117 1 0
2020-02-16 02:15:33 GMT 40.700932 -74.180992 0 121 1 0
2020-02-16 02:15:30 GMT 40.700890 -74.180969 0 115 3 0
2020-02-16 02:15:27 GMT 40.700909 -74.181007 0 86 3 0
2020-02-16 02:15:24 GMT 40.700981 -74.181061 0 56 3 0
2020-02-16 02:15:19 GMT 40.700981 -74.181068 0 52 0 0
2020-02-16 02:15:16 GMT 40.700970 -74.181084 0 159 4 0
2020-02-16 02:15:13 GMT 40.700970 -74.181084 0 163 0 0
2020-02-16 02:15:10 GMT 40.700890 -74.181053 0 167 5 0
2020-02-16 02:15:07 GMT 40.700970 -74.181107 0 177 6 0
2020-02-16 02:15:04 GMT 40.701019 -74.181099 0 184 3 0
2020-02-16 02:15:01 GMT 40.701050 -74.181129 0 198 1 0
2020-02-16 02:14:58 GMT 40.701099 -74.181084 0 191 5 0
2020-02-16 02:14:55 GMT 40.701160 -74.181122 0 202 9 0
2020-02-16 02:14:52 GMT 40.701290 -74.181023 0 186 7 0
2020-02-16 02:14:49 GMT 40.701389 -74.181007 0 189 9 0
2020-02-16 02:14:46 GMT 40.701550 -74.180992 0 201 6 0
2020-02-16 02:14:43 GMT 40.701660 -74.180962 0 210 6 0
2020-02-16 02:14:40 GMT 40.701759 -74.180847 0 188 5 0
2020-02-16 02:14:37 GMT 40.701809 -74.180809 0 188 9 0
2020-02-16 02:14:34 GMT 40.701931 -74.180817 0 197 15 0
2020-02-16 02:14:31 GMT 40.702122 -74.180717 0 193 11 0
2020-02-16 02:14:28 GMT 40.702271 -74.180672 0 193 15 0
2020-02-16 02:14:25 GMT 40.702469 -74.180618 0 211 15 0
2020-02-16 02:14:22 GMT 40.702660 -74.180481 0 245 15 0
2020-02-16 02:14:19 GMT 40.702759 -74.180229 0 267 14 0
2020-02-16 02:14:16 GMT 40.702789 -74.179993 0 271 15 0
2020-02-16 02:14:13 GMT 40.702808 -74.179718 0 274 16 0
2020-02-16 02:14:10 GMT 40.702751 -74.179390 0 278 15 0
2020-02-16 02:14:07 GMT 40.702709 -74.179123 0 275 16 0
2020-02-16 02:14:04 GMT 40.702728 -74.178810 0 274 16 0
2020-02-16 02:14:01 GMT 40.702721 -74.178543 0 277 19 0
2020-02-16 02:13:58 GMT 40.702671 -74.178169 0 282 17 0
2020-02-16 02:13:55 GMT 40.702629 -74.177902 0 269 19 0
2020-02-16 02:13:52 GMT 40.702591 -74.177238 0 274 20 0
2020-02-16 02:13:49 GMT 40.702591 -74.177238 0 276 21 0
2020-02-16 02:13:46 GMT 40.702549 -74.176819 0 274 19 0
2020-02-16 02:13:43 GMT 40.702541 -74.176491 0 272 19 0
2020-02-16 02:13:40 GMT 40.702499 -74.176086 0 273 18 0
2020-02-16 02:13:37 GMT 40.702492 -74.175758 0 274 22 0
2020-02-16 02:13:34 GMT 40.702469 -74.175362 0 274 22 0
2020-02-16 02:13:31 GMT 40.702450 -74.174973 0 275 20 0
2020-02-16 02:13:28 GMT 40.702412 -74.174606 0 273 24 0
2020-02-16 02:13:25 GMT 40.702332 -74.173767 0 281 26 0
2020-02-16 02:13:22 GMT 40.702332 -74.173767 0 274 26 0
2020-02-16 02:13:19 GMT 40.702301 -74.173279 0 270 26 0
2020-02-16 02:13:16 GMT 40.702271 -74.172852 0 271 23 0
2020-02-16 02:13:13 GMT 40.702259 -74.172432 0 272 25 0
2020-02-16 02:13:10 GMT 40.702271 -74.172012 0 279 24 0
2020-02-16 02:13:07 GMT 40.702221 -74.171577 0 276 24 0
2020-02-16 02:13:04 GMT 40.702171 -74.171158 0 272 24 0
2020-02-16 02:13:01 GMT 40.702148 -74.170708 0 272 24 0
2020-02-16 02:12:58 GMT 40.702129 -74.170273 0 277 24 0
2020-02-16 02:12:55 GMT 40.702110 -74.169884 0 273 24 0
2020-02-16 02:12:52 GMT 40.702042 -74.169357 0 275 27 0
2020-02-16 02:12:49 GMT 40.702030 -74.168861 0 273 25 0
2020-02-16 02:12:46 GMT 40.702000 -74.168427 0 276 22 0
2020-02-16 02:12:43 GMT 40.701962 -74.167603 0 277 23 0
2020-02-16 02:12:40 GMT 40.701962 -74.167603 0 276 26 0
2020-02-16 02:12:37 GMT 40.701920 -74.167183 0 272 21 0
2020-02-16 02:12:34 GMT 40.701870 -74.166771 0 272 23 0
2020-02-16 02:12:31 GMT 40.701851 -74.166328 0 269 20 0
2020-02-16 02:12:28 GMT 40.701820 -74.165627 0 270 22 0
2020-02-16 02:12:25 GMT 40.701820 -74.165627 0 273 20 0
2020-02-16 02:12:22 GMT 40.701801 -74.165237 0 275 21 0
2020-02-16 02:12:19 GMT 40.701759 -74.164871 0 275 17 0
2020-02-16 02:12:16 GMT 40.701740 -74.164543 0 275 17 0
2020-02-16 02:12:13 GMT 40.701740 -74.164268 0 268 15 0
2020-02-16 02:12:10 GMT 40.701721 -74.163940 0 276 16 0
2020-02-16 02:12:07 GMT 40.701710 -74.163597 0 277 14 0
2020-02-16 02:12:04 GMT 40.701679 -74.163361 0 276 14 0
2020-02-16 02:12:01 GMT 40.701649 -74.163109 0 277 15 0
2020-02-16 02:11:58 GMT 40.701618 -74.162827 0 269 14 0
2020-02-16 02:11:55 GMT 40.701599 -74.162331 0 277 11 0
2020-02-16 02:11:52 GMT 40.701599 -74.162331 0 277 9 0
2020-02-16 02:11:49 GMT 40.701580 -74.162148 0 310 4 0
2020-02-16 02:11:46 GMT 40.701591 -74.161980 0 309 12 0
2020-02-16 02:11:43 GMT 40.701462 -74.161842 0 296 16 0
2020-02-16 02:11:40 GMT 40.701382 -74.161552 0 346 11 0
2020-02-16 02:11:37 GMT 40.701038 -74.161461 0 9 10 0
2020-02-16 02:11:34 GMT 40.701038 -74.161461 0 22 13 0
2020-02-16 02:11:31 GMT 40.700729 -74.161667 0 22 15 0
2020-02-16 02:11:28 GMT 40.700729 -74.161667 0 26 17 0
2020-02-16 02:11:25 GMT 40.700520 -74.161797 0 24 18 0
2020-02-16 02:11:22 GMT 40.700291 -74.161980 0 26 16 0
2020-02-16 02:11:19 GMT 40.700069 -74.162086 0 22 19 0
2020-02-16 02:11:16 GMT 40.699848 -74.162247 0 25 16 0
2020-02-16 02:11:13 GMT 40.699661 -74.162369 0 26 18 0
2020-02-16 02:11:10 GMT 40.699440 -74.162529 0 21 18 0
2020-02-16 02:11:07 GMT 40.699211 -74.162643 0 23 19 0
2020-02-16 02:11:04 GMT 40.698940 -74.162773 0 29 16 0
2020-02-16 02:11:01 GMT 40.698761 -74.162918 0 32 18 0
2020-02-16 02:10:58 GMT 40.698551 -74.163094 0 24 18 0
2020-02-16 02:10:55 GMT 40.698109 -74.163330 0 22 18 0
2020-02-16 02:10:52 GMT 40.698109 -74.163330 0 27 20 0
2020-02-16 02:10:49 GMT 40.697849 -74.163483 0 25 17 0
2020-02-16 02:10:46 GMT 40.697639 -74.163643 0 28 18 0
2020-02-16 02:10:43 GMT 40.697441 -74.163818 0 31 18 0
2020-02-16 02:10:40 GMT 40.697189 -74.163979 0 25 19 0
2020-02-16 02:10:37 GMT 40.696709 -74.164261 0 25 20 0
2020-02-16 02:10:34 GMT 40.696709 -74.164261 0 24 19 0
2020-02-16 02:10:31 GMT 40.696468 -74.164391 0 26 21 0
2020-02-16 02:10:28 GMT 40.696209 -74.164574 0 27 20 0
2020-02-16 02:10:25 GMT 40.695961 -74.164726 0 30 22 0
2020-02-16 02:10:22 GMT 40.695679 -74.164909 0 21 21 0
2020-02-16 02:10:19 GMT 40.695431 -74.165077 0 26 23 0
2020-02-16 02:10:16 GMT 40.695179 -74.165253 0 24 23 0
2020-02-16 02:10:13 GMT 40.694889 -74.165443 0 26 20 0
2020-02-16 02:10:10 GMT 40.694611 -74.165588 0 30 21 0
2020-02-16 02:10:07 GMT 40.694351 -74.165802 0 23 21 0
2020-02-16 02:10:04 GMT 40.693779 -74.166054 0 26 22 0
2020-02-16 02:10:01 GMT 40.693779 -74.166054 0 29 22 0
2020-02-16 02:09:58 GMT 40.693539 -74.166267 0 25 21 0
2020-02-16 02:09:55 GMT 40.693272 -74.166428 0 29 20 0
2020-02-16 02:09:52 GMT 40.693031 -74.166618 0 23 19 0
2020-02-16 02:09:49 GMT 40.692768 -74.166740 0 26 22 0
2020-02-16 02:09:46 GMT 40.692230 -74.167099 0 25 20 0
2020-02-16 02:09:43 GMT 40.692230 -74.167099 0 24 20 0
2020-02-16 02:09:40 GMT 40.691959 -74.167259 0 26 20 0
2020-02-16 02:09:37 GMT 40.691719 -74.167427 0 27 21 0
2020-02-16 02:09:34 GMT 40.691448 -74.167587 0 26 20 0
2020-02-16 02:09:31 GMT 40.691200 -74.167763 0 30 22 0
2020-02-16 02:09:28 GMT 40.690948 -74.167931 0 24 20 0
2020-02-16 02:09:25 GMT 40.690701 -74.168068 0 31 21 0
2020-02-16 02:09:22 GMT 40.690449 -74.168259 0 23 19 0
2020-02-16 02:09:19 GMT 40.690201 -74.168411 0 23 21 0
2020-02-16 02:09:16 GMT 40.689732 -74.168709 0 22 17 0
2020-02-16 02:09:13 GMT 40.689732 -74.168709 0 25 20 0
2020-02-16 02:09:10 GMT 40.689461 -74.168854 0 24 20 0
2020-02-16 02:09:07 GMT 40.689201 -74.168983 0 23 22 0
2020-02-16 02:09:04 GMT 40.688961 -74.169167 0 29 18 0
2020-02-16 02:09:01 GMT 40.688751 -74.169357 0 27 21 0
2020-02-16 02:08:58 GMT 40.688492 -74.169472 0 25 19 0
2020-02-16 02:08:55 GMT 40.688259 -74.169609 0 25 18 0
2020-02-16 02:08:52 GMT 40.688049 -74.169792 0 22 19 0
2020-02-16 02:08:49 GMT 40.687790 -74.169922 0 27 20 0
2020-02-16 02:08:46 GMT 40.687328 -74.170189 0 26 18 0
2020-02-16 02:08:43 GMT 40.687111 -74.170372 0 29 18 0
2020-02-16 02:08:40 GMT 40.687111 -74.170372 0 25 18 0
2020-02-16 02:08:37 GMT 40.686871 -74.170517 0 24 18 0
2020-02-16 02:08:34 GMT 40.686642 -74.170631 0 26 17 0
2020-02-16 02:08:31 GMT 40.686420 -74.170799 0 27 18 0
2020-02-16 02:08:28 GMT 40.686230 -74.170914 0 29 16 0
2020-02-16 02:08:25 GMT 40.686031 -74.171097 0 17 17 0
2020-02-16 02:08:22 GMT 40.685780 -74.171158 0 27 16 0
2020-02-16 02:08:19 GMT 40.685581 -74.171303 0 30 16 0
2020-02-16 02:08:16 GMT 40.685390 -74.171440 0 27 16 0
2020-02-16 02:08:13 GMT 40.685200 -74.171577 0 23 15 0
2020-02-16 02:08:10 GMT 40.684990 -74.171700 0 24 15 0
2020-02-16 02:08:07 GMT 40.684818 -74.171806 0 25 16 0
2020-02-16 02:08:04 GMT 40.684608 -74.171921 0 29 16 0
2020-02-16 02:08:01 GMT 40.684422 -74.172043 0 27 13 0
2020-02-16 02:07:58 GMT 40.684090 -74.172279 0 22 12 0
2020-02-16 02:07:55 GMT 40.684090 -74.172279 0 38 14 0
2020-02-16 02:07:52 GMT 40.683922 -74.172394 0 24 13 0
2020-02-16 02:07:49 GMT 40.683769 -74.172478 0 22 11 0
2020-02-16 02:07:46 GMT 40.683609 -74.172592 0 22 9 0
2020-02-16 02:07:43 GMT 40.683491 -74.172623 0 36 10 0
2020-02-16 02:07:40 GMT 40.683380 -74.172760 0 35 10 0
2020-02-16 02:07:37 GMT 40.683311 -74.172798 0 15 8 0
2020-02-16 02:07:34 GMT 40.683182 -74.172829 0 34 5 0
2020-02-16 02:07:31 GMT 40.683128 -74.172890 0 21 8 0
2020-02-16 02:07:28 GMT 40.683041 -74.172989 0 13 9 0
2020-02-16 02:07:25 GMT 40.682919 -74.173019 0 10 9 0
2020-02-16 02:07:22 GMT 40.682800 -74.173073 0 357 9 0
2020-02-16 02:07:19 GMT 40.682678 -74.173088 0 342 9 0
2020-02-16 02:07:16 GMT 40.682560 -74.173058 0 328 8 0
2020-02-16 02:07:13 GMT 40.682449 -74.172989 0 310 9 0
2020-02-16 02:07:10 GMT 40.682369 -74.172859 0 301 9 0
2020-02-16 02:07:07 GMT 40.682289 -74.172760 0 278 9 0
2020-02-16 02:07:04 GMT 40.682270 -74.172401 0 237 10 0
2020-02-16 02:07:01 GMT 40.682270 -74.172401 0 244 13 0
2020-02-16 02:06:58 GMT 40.682362 -74.172249 0 237 17 0
2020-02-16 02:06:55 GMT 40.682468 -74.171967 0 226 15 0
2020-02-16 02:06:52 GMT 40.682610 -74.171768 0 224 19 0
2020-02-16 02:06:49 GMT 40.682800 -74.171516 0 226 22 0
2020-02-16 02:06:46 GMT 40.682999 -74.171249 0 224 24 0
2020-02-16 02:06:43 GMT 40.683208 -74.170929 0 218 24 0
2020-02-16 02:06:40 GMT 40.683498 -74.170639 0 217 24 0
2020-02-16 02:06:37 GMT 40.684120 -74.170090 0 208 25 0
2020-02-16 02:06:34 GMT 40.684120 -74.170090 0 205 28 0
2020-02-16 02:06:31 GMT 40.684502 -74.169861 0 206 45 -64
2020-02-16 02:06:28 GMT 40.685040 -74.169510 -450 207 51 -64
2020-02-16 02:06:25 GMT 40.685680 -74.169052 -450 206 66 32
2020-02-16 02:06:22 GMT 40.686508 -74.168541 -450 206 74 32
2020-02-16 02:06:19 GMT 40.687469 -74.167931 -450 205 82 32
2020-02-16 02:06:16 GMT 40.688629 -74.167198 -450 206 101 -576
2020-02-16 02:06:13 GMT 40.691349 -74.165421 -450 205 120 0
2020-02-16 02:06:10 GMT 40.691349 -74.165421 -450 204 126 -832
2020-02-16 02:06:07 GMT 40.692959 -74.164490 -450 206 128 -832
2020-02-16 02:06:04 GMT 40.696232 -74.162392 -425 206 134 -832
2020-02-16 02:06:01 GMT 40.696232 -74.162392 -400 205 135 -832
2020-02-16 02:05:58 GMT 40.697910 -74.161293 -350 206 133 -832
2020-02-16 02:05:55 GMT 40.699558 -74.160202 -200 205 137 -832
2020-02-16 02:05:52 GMT 40.701271 -74.159081 -200 204 136 -832
2020-02-16 02:05:49 GMT 40.704720 -74.156960 -200 206 139 -832
2020-02-16 02:05:46 GMT 40.706371 -74.155899 -100 204 134 -832
2020-02-16 02:05:43 GMT 40.706371 -74.155899 -100 206 139 -832
2020-02-16 02:05:40 GMT 40.708179 -74.154747 -100 206 129 -832
2020-02-16 02:05:37 GMT 40.709820 -74.153778 0 205 135 -832
2020-02-16 02:05:34 GMT 40.711498 -74.152588 0 205 130 -832
2020-02-16 02:05:31 GMT 40.713139 -74.151550 0 204 133 -512
2020-02-16 02:05:28 GMT 40.716370 -74.149467 75 206 132 -512
2020-02-16 02:05:25 GMT 40.716370 -74.149467 75 203 132 -512
2020-02-16 02:05:22 GMT 40.718071 -74.148499 100 206 133 -512
2020-02-16 02:05:19 GMT 40.719711 -74.147461 100 205 132 -512
2020-02-16 02:05:16 GMT 40.723019 -74.145287 300 204 133 -512
2020-02-16 02:05:13 GMT 40.724621 -74.144241 300 206 129 -512
2020-02-16 02:05:10 GMT 40.724621 -74.144241 300 203 131 -512
2020-02-16 02:05:07 GMT 40.726280 -74.143303 300 206 130 -512
2020-02-16 02:05:04 GMT 40.727921 -74.142151 300 202 127 -512
2020-02-16 02:05:01 GMT 40.729519 -74.141220 500 206 130 -512
2020-02-16 02:04:58 GMT 40.731300 -74.140106 500 205 131 -512
2020-02-16 02:04:53 GMT 40.733814 -74.138489 450 206 130 -832
2020-02-16 02:04:50 GMT 40.735565 -74.137329 475 207 130 -768
2020-02-16 02:04:47 GMT 40.739044 -74.135132 650 206 131 -704
2020-02-16 02:04:43 GMT 40.739044 -74.135132 575 206 130 -768
2020-02-16 02:04:39 GMT 40.741447 -74.133560 625 207 131 -768
2020-02-16 02:04:36 GMT 40.744801 -74.131371 675 207 131 -704
2020-02-16 02:04:32 GMT 40.744801 -74.131371 700 207 131 -832
2020-02-16 02:04:28 GMT 40.747128 -74.129875 800 206 131 -768
2020-02-16 02:04:25 GMT 40.750397 -74.127808 875 207 131 -768
2020-02-16 02:04:19 GMT 40.752762 -74.126312 875 206 131 -768
2020-02-16 02:04:14 GMT 40.754993 -74.124878 950 207 129 -832
2020-02-16 02:04:11 GMT 40.756668 -74.123840 975 206 131 -704
2020-02-16 02:04:08 GMT 40.758438 -74.122696 1,000 206 131 -640
2020-02-16 02:04:04 GMT 40.760674 -74.121323 1,050 207 129 -832
2020-02-16 02:04:01 GMT 40.761978 -74.120514 1,100 207 129 -832
2020-02-16 02:03:58 GMT 40.763855 -74.119263 1,150 206 130 -896
2020-02-16 02:03:53 GMT 40.768570 -74.116211 1,225 207 129 -704
2020-02-16 02:03:49 GMT 40.768570 -74.116211 1,275 207 131 -704
2020-02-16 02:03:46 GMT 40.770584 -74.114929 1,300 206 132 -640
2020-02-16 02:03:40 GMT 40.774063 -74.112671 1,375 206 137 -576
2020-02-16 02:03:37 GMT 40.775200 -74.111961 1,375 206 140 -576
2020-02-16 02:03:33 GMT 40.778137 -74.110107 1,450 206 143 -832
2020-02-16 02:03:30 GMT 40.779282 -74.109375 1,475 205 144 -896
2020-02-16 02:03:27 GMT 40.781342 -74.108154 1,500 205 146 -704
2020-02-16 02:03:24 GMT 40.782852 -74.107239 1,525 205 146 -512
2020-02-16 02:03:21 GMT 40.784775 -74.106079 1,550 205 148 -256
2020-02-16 02:03:18 GMT 40.786469 -74.105103 1,575 205 149 -64
2020-02-16 02:03:15 GMT 40.790699 -74.102722 1,550 204 155 192
2020-02-16 02:03:09 GMT 40.792610 -74.101601 1,550 204 156 256
2020-02-16 02:03:06 GMT 40.797588 -74.098854 1,550 204 157 64
2020-02-16 02:03:03 GMT 40.797588 -74.098854 1,550 203 157 0
2020-02-16 02:02:57 GMT 40.800934 -74.097168 1,550 197 158 -64
2020-02-16 02:02:54 GMT 40.805782 -74.095978 1,550 175 162 64
2020-02-16 02:02:50 GMT 40.805782 -74.095978 1,550 173 162 0
2020-02-16 02:02:46 GMT 40.809135 -74.096291 1,550 171 163 0
2020-02-16 02:02:43 GMT 40.810719 -74.096603 1,550 171 164 0
2020-02-16 02:02:40 GMT 40.813648 -74.097168 1,550 171 163 -64
2020-02-16 02:02:36 GMT 40.816723 -74.097725 1,550 172 163 0
2020-02-16 02:02:33 GMT 40.818695 -74.098083 1,550 172 163 -64
2020-02-16 02:02:30 GMT 40.821239 -74.098541 1,550 172 161 0
2020-02-16 02:02:26 GMT 40.824219 -74.099037 1,550 172 162 0
2020-02-16 02:02:23 GMT 40.826340 -74.099426 1,550 171 162 0
2020-02-16 02:02:20 GMT 40.828503 -74.099846 1,550 172 162 64
2020-02-16 02:02:15 GMT 40.834076 -74.100830 1,550 172 161 0
2020-02-16 02:02:12 GMT 40.834076 -74.100830 1,550 172 161 64
2020-02-16 02:02:09 GMT 40.836788 -74.101288 1,550 172 162 0
2020-02-16 02:02:05 GMT 40.839569 -74.101746 1,550 172 163 -576
2020-02-16 02:02:01 GMT 40.843723 -74.102409 1,600 172 164 -512
2020-02-16 02:01:58 GMT 40.847355 -74.103096 1,650 170 167 -512
2020-02-16 02:01:55 GMT 40.847355 -74.103096 1,650 169 168 -576
2020-02-16 02:01:48 GMT 40.853546 -74.105530 1,775 140 179 -1088
2020-02-16 02:01:45 GMT 40.856964 -74.108459 1,800 140 179 -1088
2020-02-16 02:01:42 GMT 40.856964 -74.108459 1,875 133 183 -1024
2020-02-16 02:01:39 GMT 40.859116 -74.111267 1,925 122 188 -704
2020-02-16 02:01:36 GMT 40.859829 -74.112396 1,925 124 187 -768
2020-02-16 02:01:33 GMT 40.861771 -74.116211 1,975 121 190 -640
2020-02-16 02:01:30 GMT 40.863373 -74.119690 2,000 120 193 -576
2020-02-16 02:01:23 GMT 40.866531 -74.126831 2,050 120 198 -576
2020-02-16 02:01:20 GMT 40.867653 -74.129311 2,075 120 198 -576
2020-02-16 02:01:17 GMT 40.869370 -74.133301 2,125 119 202 -640
2020-02-16 02:01:13 GMT 40.870770 -74.136490 2,150 119 205 -704
2020-02-16 02:01:09 GMT 40.873238 -74.142174 2,225 119 207 -1088
2020-02-16 02:01:06 GMT 40.873993 -74.143921 2,250 120 207 -1152
2020-02-16 02:01:02 GMT 40.875893 -74.148354 2,325 119 208 -1280
2020-02-16 02:00:59 GMT 40.877426 -74.151855 2,400 119 209 -1280
2020-02-16 02:00:56 GMT 40.879074 -74.155823 2,450 119 209 -1024
2020-02-16 02:00:53 GMT 40.880264 -74.158936 2,500 114 216 -448
2020-02-16 02:00:50 GMT 40.881546 -74.162659 2,525 109 220 -320
2020-02-16 02:00:47 GMT 40.882595 -74.167015 2,550 102 224 -64
2020-02-16 02:00:43 GMT 40.883514 -74.172241 2,550 101 226 -64
2020-02-16 02:00:40 GMT 40.884201 -74.177002 2,575 100 228 -128
2020-02-16 02:00:36 GMT 40.884968 -74.182182 2,575 101 228 0
2020-02-16 02:00:32 GMT 40.885666 -74.186646 2,575 101 229 192
2020-02-16 02:00:29 GMT 40.886505 -74.192482 2,550 101 231 128
2020-02-16 02:00:25 GMT 40.887268 -74.197510 2,550 101 234 -128
2020-02-16 02:00:21 GMT 40.887772 -74.200989 2,575 101 237 -128
2020-02-16 02:00:18 GMT 40.888508 -74.205841 2,575 101 240 0
2020-02-16 02:00:15 GMT 40.889297 -74.210960 2,550 101 245 192
2020-02-16 02:00:12 GMT 40.889877 -74.214783 2,550 101 247 256
2020-02-16 02:00:09 GMT 40.890785 -74.220764 2,525 101 251 128
2020-02-16 02:00:05 GMT 40.891766 -74.227127 2,525 101 257 0
2020-02-16 02:00:01 GMT 40.892395 -74.230957 2,525 101 258 -64
2020-02-16 01:59:58 GMT 40.893394 -74.237488 2,550 101 262 -128
2020-02-16 01:59:55 GMT 40.893906 -74.240601 2,550 101 263 0
2020-02-16 01:59:52 GMT 40.894867 -74.246765 2,550 101 263 0
2020-02-16 01:59:47 GMT 40.896011 -74.253967 2,550 101 263 -64
2020-02-16 01:59:44 GMT 40.896980 -74.259964 2,550 101 263 -64
2020-02-16 01:59:41 GMT 40.897350 -74.262520 2,550 101 263 -64
2020-02-16 01:59:38 GMT 40.898254 -74.268311 2,550 101 264 -64
2020-02-16 01:59:34 GMT 40.899353 -74.275146 2,550 101 265 0
2020-02-16 01:59:31 GMT 40.900051 -74.279564 2,550 101 265 64
2020-02-16 01:59:25 GMT 40.902328 -74.293640 2,575 102 270 -832
2020-02-16 01:59:19 GMT 40.902969 -74.297485 2,625 102 270 -832
2020-02-16 01:59:16 GMT 40.903824 -74.302597 2,675 102 269 -1152
2020-02-16 01:59:12 GMT 40.904800 -74.308594 2,800 102 270 -1280
2020-02-16 01:59:09 GMT 40.905731 -74.314209 2,850 102 271 -960
2020-02-16 01:59:06 GMT 40.906448 -74.318420 2,875 102 271 -960
2020-02-16 01:59:03 GMT 40.907173 -74.322945 2,900 101 272 -768
2020-02-16 01:59:00 GMT 40.908325 -74.330139 2,950 101 275 -1024
2020-02-16 01:58:55 GMT 40.909332 -74.336731 3,000 101 276 -1152
2020-02-16 01:58:50 GMT 40.910706 -74.345703 3,150 101 276 -1472
2020-02-16 01:58:47 GMT 40.911549 -74.351288 3,250 101 275 -1536
2020-02-16 01:58:44 GMT 40.911968 -74.353905 3,300 101 274 -1536
2020-02-16 01:58:41 GMT 40.912807 -74.359024 3,425 102 275 -1408
2020-02-16 01:58:38 GMT 40.913692 -74.364456 3,425 102 273 -1472
2020-02-16 01:58:34 GMT 40.915554 -74.375572 3,525 102 274 -1536
2020-02-16 01:58:31 GMT 40.915554 -74.375572 3,625 102 273 -1536
2020-02-16 01:58:28 GMT 40.916531 -74.381439 3,700 102 273 -1408
2020-02-16 01:58:24 GMT 40.917648 -74.388115 3,800 102 274 -1024
2020-02-16 01:58:20 GMT 40.918625 -74.393982 3,850 102 274 -1152
2020-02-16 01:58:17 GMT 40.919312 -74.398071 3,925 102 275 -960
2020-02-16 01:58:14 GMT 40.920181 -74.403503 3,975 102 276 -832
2020-02-16 01:58:11 GMT 40.921280 -74.409775 4,025 102 278 -768
2020-02-16 01:58:07 GMT 40.922352 -74.416084 4,075 102 280 -896
2020-02-16 01:58:04 GMT 40.923187 -74.420952 4,125 102 281 -896
2020-02-16 01:58:00 GMT 40.924397 -74.427818 4,200 103 283 -1088
2020-02-16 01:57:57 GMT 40.926315 -74.438416 4,275 103 283 -1536
2020-02-16 01:57:53 GMT 40.926315 -74.438416 4,300 103 283 -1728
2020-02-16 01:57:49 GMT 40.927505 -74.445312 4,425 103 282 -1664
2020-02-16 01:57:46 GMT 40.928402 -74.450417 4,525 103 283 -960
2020-02-16 01:57:43 GMT 40.929379 -74.455971 4,550 102 285 -256
2020-02-16 01:57:38 GMT 40.930939 -74.464966 4,550 103 286 0
2020-02-16 01:57:35 GMT 40.932175 -74.471741 4,550 103 286 0
2020-02-16 01:57:29 GMT 40.933475 -74.479256 4,550 103 286 0
2020-02-16 01:57:26 GMT 40.934547 -74.485184 4,550 103 286 0
2020-02-16 01:57:22 GMT 40.935478 -74.490486 4,625 96 299 -768
2020-02-16 01:57:18 GMT 40.937164 -74.499878 4,550 103 286 0
2020-02-16 01:57:15 GMT 40.937714 -74.502930 4,550 103 287 0
2020-02-16 01:57:12 GMT 40.938690 -74.508400 4,550 103 287 0
2020-02-16 01:57:08 GMT 40.939911 -74.515076 4,550 103 287 0
2020-02-16 01:57:05 GMT 40.940964 -74.521057 4,550 103 288 64
2020-02-16 01:57:02 GMT 40.941994 -74.526566 4,550 103 289 128
2020-02-16 01:56:59 GMT 40.943066 -74.532562 4,525 102 294 -512
2020-02-16 01:56:55 GMT 40.943996 -74.537926 4,550 103 292 -320
2020-02-16 01:56:52 GMT 40.944901 -74.543213 4,575 102 293 -512
2020-02-16 01:56:49 GMT 40.945999 -74.550110 4,600 99 297 -512
2020-02-16 01:56:46 GMT 40.946594 -74.556030 4,650 91 301 -1088
2020-02-16 01:56:43 GMT 40.946789 -74.559715 4,700 88 301 -1344
2020-02-16 01:56:40 GMT 40.946777 -74.563538 4,725 86 301 -1344
2020-02-16 01:56:36 GMT 40.946136 -74.571960 4,875 77 302 -1408
2020-02-16 01:56:33 GMT 40.945255 -74.578133 4,950 76 301 -1280
2020-02-16 01:56:30 GMT 40.944489 -74.582458 4,950 76 301 -1280
2020-02-16 01:56:27 GMT 40.943253 -74.589478 5,050 76 302 -1152
2020-02-16 01:56:21 GMT 40.940460 -74.604912 5,200 76 301 -1856
2020-02-16 01:56:18 GMT 40.940460 -74.604912 5,250 76 301 -1856
2020-02-16 01:56:15 GMT 40.939060 -74.612587 5,325 76 299 -2048
2020-02-16 01:56:10 GMT 40.937851 -74.618896 5,500 75 297 -832
2020-02-16 01:56:06 GMT 40.936203 -74.627380 5,550 75 300 -128
2020-02-16 01:56:02 GMT 40.935246 -74.632561 5,575 75 300 -64
2020-02-16 01:55:59 GMT 40.934082 -74.638557 5,575 75 300 -64
2020-02-16 01:55:55 GMT 40.932724 -74.645691 5,575 75 300 -64
2020-02-16 01:55:51 GMT 40.931381 -74.652786 5,575 75 300 -64
2020-02-16 01:55:48 GMT 40.930637 -74.656532 5,575 75 300 0
2020-02-16 01:55:44 GMT 40.929291 -74.663635 5,575 75 300 0
2020-02-16 01:55:41 GMT 40.927841 -74.671265 5,575 76 300 0
2020-02-16 01:55:37 GMT 40.926540 -74.678192 5,575 76 300 0
2020-02-16 01:55:34 GMT 40.925655 -74.683060 5,575 76 301 0
2020-02-16 01:55:30 GMT 40.924072 -74.691650 5,575 76 302 64
2020-02-16 01:55:26 GMT 40.923065 -74.697205 5,575 76 303 -256
2020-02-16 01:55:23 GMT 40.922150 -74.702026 5,575 76 303 -448
2020-02-16 01:55:19 GMT 40.920685 -74.710144 5,675 76 304 -1152
2020-02-16 01:55:16 GMT 40.919769 -74.715027 5,675 76 304 -1088
2020-02-16 01:55:13 GMT 40.918903 -74.719765 5,725 76 304 -1024
2020-02-16 01:55:10 GMT 40.917694 -74.726067 5,775 76 305 -960
2020-02-16 01:55:07 GMT 40.916859 -74.730629 5,825 76 305 -960
2020-02-16 01:55:04 GMT 40.915421 -74.738220 5,900 76 306 -1088
2020-02-16 01:55:00 GMT 40.914436 -74.743675 5,975 76 306 -1088
2020-02-16 01:54:57 GMT 40.913406 -74.749146 5,975 76 306 -1088
2020-02-16 01:54:54 GMT 40.912262 -74.755554 6,050 76 307 -1024
2020-02-16 01:54:51 GMT 40.911392 -74.760071 6,125 76 307 -1216
2020-02-16 01:54:48 GMT 40.910248 -74.766273 6,350 75 303 -2112
2020-02-16 01:54:43 GMT 40.908291 -74.776756 6,400 75 303 -2112
2020-02-16 01:54:40 GMT 40.907406 -74.781250 6,475 75 301 -1792
2020-02-16 01:54:37 GMT 40.906540 -74.785706 6,525 75 301 -1280
2020-02-16 01:54:34 GMT 40.905533 -74.790894 6,575 75 303 0
2020-02-16 01:54:31 GMT 40.904472 -74.796234 6,575 75 303 0
2020-02-16 01:54:28 GMT 40.903076 -74.803223 6,575 75 301 0
2020-02-16 01:54:25 GMT 40.901962 -74.808960 6,575 75 301 0
2020-02-16 01:54:21 GMT 40.900845 -74.814835 6,575 75 301 0
2020-02-16 01:54:17 GMT 40.899582 -74.821289 6,575 75 301 0
2020-02-16 01:54:13 GMT 40.897064 -74.834045 6,575 75 300 0
2020-02-16 01:54:07 GMT 40.895966 -74.839600 6,575 89 300 64
2020-02-16 01:54:00 GMT 40.893677 -74.851318 6,575 75 301 64
2020-02-16 01:53:57 GMT 40.892277 -74.858841 6,550 76 302 0
2020-02-16 01:53:52 GMT 40.891068 -74.866394 6,575 88 300 64
2020-02-16 01:53:48 GMT 40.890369 -74.872765 6,575 85 301 0
2020-02-16 01:53:45 GMT 40.890152 -74.885376 6,575 93 298 0
2020-02-16 01:53:41 GMT 40.890648 -74.895355 6,575 93 298 0
2020-02-16 01:53:36 GMT 40.891113 -74.904663 6,575 93 298 0
2020-02-16 01:53:32 GMT 40.891113 -74.904663 6,575 93 298 -64
2020-02-16 01:53:29 GMT 40.891251 -74.907227 6,575 93 298 0
2020-02-16 01:53:26 GMT 40.891663 -74.915222 6,575 93 298 0
2020-02-16 01:53:22 GMT 40.891891 -74.920105 6,600 94 295 -640
2020-02-16 01:53:18 GMT 40.892368 -74.928444 6,600 94 295 -640
2020-02-16 01:53:15 GMT 40.892624 -74.933533 6,575 94 297 0
2020-02-16 01:53:11 GMT 40.893021 -74.940804 6,575 94 290 0
2020-02-16 01:53:07 GMT 40.893402 -74.947632 6,575 94 292 128
2020-02-16 01:53:04 GMT 40.893719 -74.952972 6,575 94 291 0
2020-02-16 01:53:01 GMT 40.894093 -74.959152 6,575 94 290 -64
2020-02-16 01:52:58 GMT 40.894417 -74.965401 6,575 94 290 -64
2020-02-16 01:52:55 GMT 40.894745 -74.970886 6,575 94 290 -64
2020-02-16 01:52:51 GMT 40.895119 -74.977379 6,575 94 289 64
2020-02-16 01:52:45 GMT 40.895737 -74.988159 6,575 94 290 128
2020-02-16 01:52:42 GMT 40.895920 -74.991882 6,550 94 291 128
2020-02-16 01:52:38 GMT 40.896332 -74.998840 6,600 94 295 -640
2020-02-16 01:52:32 GMT 40.896980 -75.010529 6,625 94 296 -896
2020-02-16 01:52:27 GMT 40.897491 -75.020264 6,725 94 297 -960
2020-02-16 01:52:24 GMT 40.898190 -75.033310 6,800 94 299 -1024
2020-02-16 01:52:19 GMT 40.898190 -75.033310 6,825 94 300 -1088
2020-02-16 01:52:13 GMT 40.898842 -75.044983 6,950 94 300 -1088
2020-02-16 01:52:10 GMT 40.899628 -75.058350 7,025 94 301 -1024
2020-02-16 01:52:05 GMT 40.899628 -75.058350 8,175 106 353 -448
2020-02-16 01:52:01 GMT 40.900097 -75.066460 7,225 95 303 -1280
2020-02-16 01:51:56 GMT 40.900795 -75.077133 7,325 95 302 -1280
2020-02-16 01:51:51 GMT 40.901321 -75.083740 7,350 98 302 -1216
2020-02-16 01:51:48 GMT 40.902100 -75.090302 7,425 101 302 -1088
2020-02-16 01:51:44 GMT 40.903217 -75.096985 7,525 104 301 -1088
2020-02-16 01:51:40 GMT 40.904846 -75.104408 7,775 106 309 -704
2020-02-16 01:51:37 GMT 40.905945 -75.109619 7,625 106 304 -1088
2020-02-16 01:51:33 GMT 40.907967 -75.118706 7,725 106 307 -896
2020-02-16 01:51:30 GMT 40.908802 -75.122452 7,750 106 307 -832
2020-02-16 01:51:26 GMT 40.910889 -75.132080 7,800 106 310 -768
2020-02-16 01:51:22 GMT 40.912033 -75.137146 7,875 106 312 -960
2020-02-16 01:51:19 GMT 40.913040 -75.141724 7,900 106 312 -960
2020-02-16 01:51:14 GMT 40.914993 -75.150604 7,950 106 315 -1024
2020-02-16 01:51:11 GMT 40.916565 -75.157837 8,125 105 321 -832
2020-02-16 01:51:08 GMT 40.917740 -75.163216 8,075 105 319 -960
2020-02-16 01:51:05 GMT 40.919128 -75.169617 8,125 105 320 -832
2020-02-16 01:51:02 GMT 40.921978 -75.182686 8,200 106 323 -640
2020-02-16 01:50:58 GMT 40.921978 -75.182686 8,200 106 325 -640
2020-02-16 01:50:53 GMT 40.923840 -75.191055 8,250 106 329 -576
2020-02-16 01:50:50 GMT 40.925262 -75.197266 8,275 106 330 -512
2020-02-16 01:50:47 GMT 40.926498 -75.202698 9,150 106 364 64
2020-02-16 01:50:43 GMT 40.928402 -75.211090 9,475 106 340 -704
2020-02-16 01:50:39 GMT 40.930161 -75.218567 8,400 106 336 -1792
2020-02-16 01:50:36 GMT 40.931442 -75.224243 8,575 106 335 -2304
2020-02-16 01:50:33 GMT 40.933056 -75.231316 8,700 106 335 -1664
2020-02-16 01:50:29 GMT 40.934555 -75.237976 8,750 106 335 -1536
2020-02-16 01:50:26 GMT 40.935699 -75.242859 8,850 106 336 -1472
2020-02-16 01:50:23 GMT 40.937527 -75.251167 9,475 106 340 -704
2020-02-16 01:50:20 GMT 40.938412 -75.255348 9,000 105 341 -512
2020-02-16 01:50:17 GMT 40.940231 -75.263672 9,025 105 341 -512
2020-02-16 01:50:12 GMT 40.942062 -75.271912 9,100 106 373 -128
2020-02-16 01:50:09 GMT 40.943111 -75.276825 9,075 106 348 -704
2020-02-16 01:50:06 GMT 40.944763 -75.284180 9,150 106 364 64
2020-02-16 01:50:02 GMT 40.947208 -75.295174 9,150 106 358 -64
2020-02-16 01:49:58 GMT 40.949524 -75.305786 9,250 106 381 -1536
2020-02-16 01:49:55 GMT 40.951817 -75.315964 9,150 106 375 -320
2020-02-16 01:49:52 GMT 40.951817 -75.315964 9,150 106 375 -384
2020-02-16 01:49:49 GMT 40.952682 -75.319702 9,150 106 376 -512
2020-02-16 01:49:46 GMT 40.954330 -75.327255 9,250 106 381 -1536
2020-02-16 01:49:40 GMT 40.957031 -75.339600 9,375 106 386 -1152
2020-02-16 01:49:37 GMT 40.960197 -75.353912 9,475 106 390 -832
2020-02-16 01:49:31 GMT 40.962292 -75.363342 9,525 106 394 -512
2020-02-16 01:49:28 GMT 40.964012 -75.371017 9,550 106 398 -384
2020-02-16 01:49:24 GMT 40.965084 -75.375946 9,550 106 401 -320
2020-02-16 01:49:20 GMT 40.967693 -75.387558 9,575 106 406 -128
2020-02-16 01:49:17 GMT 40.969135 -75.393990 9,575 106 409 -256
2020-02-16 01:49:14 GMT 40.970673 -75.400795 9,600 106 414 -896
2020-02-16 01:49:11 GMT 40.973045 -75.411469 9,725 106 416 -2368
2020-02-16 01:49:08 GMT 40.973885 -75.415398 9,950 106 416 -2624
2020-02-16 01:49:05 GMT 40.975937 -75.424683 10,000 106 417 -2688
2020-02-16 01:49:02 GMT 40.977562 -75.432007 10,100 106 417 -2624
2020-02-16 01:48:59 GMT 40.978867 -75.437927 10,250 106 419 -2560
2020-02-16 01:48:56 GMT 40.980495 -75.445297 10,300 106 418 -2624
2020-02-16 01:48:53 GMT 40.982025 -75.452393 10,475 106 419 -2496
2020-02-16 01:48:49 GMT 40.984406 -75.463257 10,800 106 420 -2624
2020-02-16 01:48:46 GMT 40.985752 -75.469460 10,725 105 421 -2688
2020-02-16 01:48:43 GMT 40.987289 -75.476639 10,900 105 422 -2816
2020-02-16 01:48:39 GMT 40.990082 -75.489555 11,075 105 423 -2944
2020-02-16 01:48:36 GMT 40.991592 -75.496765 11,300 105 426 -3008
2020-02-16 01:48:32 GMT 40.994705 -75.511353 11,475 105 426 -3008
2020-02-16 01:48:29 GMT 40.994705 -75.511353 11,700 105 428 -3072
2020-02-16 01:48:26 GMT 40.996994 -75.522217 12,000 105 429 -3072
2020-02-16 01:48:23 GMT 40.999695 -75.534912 13,150 106 444 -3136
2020-02-16 01:48:15 GMT 41.002762 -75.549194 12,400 106 445 -3136
2020-02-16 01:48:12 GMT 41.004318 -75.556335 12,500 105 437 -3136
2020-02-16 01:48:09 GMT 41.005539 -75.562027 13,150 106 444 -3136
2020-02-16 01:48:06 GMT 41.007355 -75.570518 12,775 106 440 -3136
2020-02-16 01:48:02 GMT 41.010567 -75.585068 13,075 106 443 -3136
2020-02-16 01:47:57 GMT 41.013153 -75.597107 13,300 105 447 -3136
2020-02-16 01:47:54 GMT 41.014057 -75.601295 13,975 105 454 -3328
2020-02-16 01:47:51 GMT 41.018620 -75.622452 13,725 105 451 -3200
2020-02-16 01:47:47 GMT 41.018620 -75.622452 13,900 105 453 -3264
2020-02-16 01:47:44 GMT 41.020340 -75.630432 13,900 105 453 -3264
2020-02-16 01:47:41 GMT 41.023407 -75.644592 14,275 106 456 -3456
2020-02-16 01:47:34 GMT 41.025833 -75.655640 14,450 106 457 -3456
2020-02-16 01:47:30 GMT 41.028069 -75.665901 14,725 106 459 -3392
2020-02-16 01:47:25 GMT 41.031921 -75.683716 15,100 106 462 -3136
2020-02-16 01:47:22 GMT 41.033020 -75.688599 15,200 106 462 -3136
2020-02-16 01:47:19 GMT 41.034775 -75.696739 15,300 105 461 -3072
2020-02-16 01:47:16 GMT 41.036865 -75.706543 15,575 105 462 -3072
2020-02-16 01:47:13 GMT 41.038101 -75.712219 15,575 105 462 -3072
2020-02-16 01:47:10 GMT 41.039566 -75.718994 15,750 105 462 -3008
2020-02-16 01:47:07 GMT 41.041523 -75.728012 15,925 105 462 -3008
2020-02-16 01:47:03 GMT 41.047062 -75.753914 16,300 105 464 -2560
2020-02-16 01:46:58 GMT 41.047062 -75.753914 16,375 105 465 -2432
2020-02-16 01:46:54 GMT 41.049820 -75.766785 16,525 105 466 -2432
2020-02-16 01:46:51 GMT 41.051285 -75.773682 16,625 105 468 -2432
2020-02-16 01:46:47 GMT 41.052975 -75.781693 16,775 105 469 -2432
2020-02-16 01:46:43 GMT 41.055679 -75.794373 16,900 105 470 -2432
2020-02-16 01:46:39 GMT 41.057922 -75.804932 17,100 105 471 -2368
2020-02-16 01:46:36 GMT 41.059525 -75.812439 17,200 105 471 -2368
2020-02-16 01:46:32 GMT 41.061913 -75.823517 17,350 105 472 -2432
2020-02-16 01:46:29 GMT 41.064056 -75.833557 17,500 105 472 -2432
2020-02-16 01:46:25 GMT 41.066799 -75.846359 17,700 105 473 -2432
2020-02-16 01:46:22 GMT 41.068619 -75.854980 17,775 105 474 -2432
2020-02-16 01:46:19 GMT 41.070107 -75.861969 17,900 105 476 -2368
2020-02-16 01:46:15 GMT 41.072479 -75.872894 18,125 105 477 -2368
2020-02-16 01:46:12 GMT 41.074539 -75.882446 18,225 106 478 -2368
2020-02-16 01:46:09 GMT 41.076370 -75.890869 18,325 105 479 -2368
2020-02-16 01:46:06 GMT 41.078346 -75.899925 18,450 105 480 -2368
2020-02-16 01:46:01 GMT 41.081139 -75.912903 18,550 105 480 -2432
2020-02-16 01:45:57 GMT 41.083096 -75.921959 18,775 106 481 -2368
2020-02-16 01:45:54 GMT 41.085571 -75.933350 18,900 105 482 -2368
2020-02-16 01:45:51 GMT 41.090652 -75.956909 19,200 105 484 -2432
2020-02-16 01:45:46 GMT 41.090652 -75.956909 19,350 105 485 -2432
2020-02-16 01:45:43 GMT 41.091843 -75.962646 19,350 105 485 -2432
2020-02-16 01:45:40 GMT 41.093903 -75.972046 19,425 105 485 -2432
2020-02-16 01:45:35 GMT 41.097015 -75.986687 19,675 105 488 -2432
2020-02-16 01:45:31 GMT 41.099712 -75.999107 19,850 105 490 -2368
2020-02-16 01:45:27 GMT 41.101856 -76.009224 19,975 105 492 -2432
2020-02-16 01:45:23 GMT 41.104706 -76.022583 20,225 105 494 -2432
2020-02-16 01:45:20 GMT 41.106537 -76.031006 20,300 105 495 -2432
2020-02-16 01:45:14 GMT 41.110607 -76.049988 20,550 105 497 -2432
2020-02-16 01:45:08 GMT 41.113728 -76.064407 20,725 105 500 -2432
2020-02-16 01:45:04 GMT 41.116055 -76.075325 20,950 105 503 -2432
2020-02-16 01:45:01 GMT 41.118210 -76.085388 21,025 105 504 -2432
2020-02-16 01:44:57 GMT 41.121140 -76.099060 21,225 105 505 -2432
2020-02-16 01:44:54 GMT 41.122803 -76.106789 21,400 105 508 -2432
2020-02-16 01:44:51 GMT 41.125168 -76.117859 21,400 105 508 -2432
2020-02-16 01:44:48 GMT 41.127045 -76.126526 21,550 105 509 -2432
2020-02-16 01:44:45 GMT 41.128296 -76.132568 21,600 105 510 -2432
2020-02-16 01:44:42 GMT 41.130577 -76.143059 21,875 105 511 -2432
2020-02-16 01:44:39 GMT 41.132996 -76.154541 21,975 105 512 -2432
2020-02-16 01:44:35 GMT 41.134827 -76.163330 22,100 105 513 -2432
2020-02-16 01:44:32 GMT 41.138626 -76.181213 22,450 105 517 -2432
2020-02-16 01:44:26 GMT 41.140263 -76.189186 22,675 105 517 -2432
2020-02-16 01:44:23 GMT 41.142494 -76.199860 22,650 105 521 -2432
2020-02-16 01:44:20 GMT 41.144714 -76.210327 22,700 105 521 -2432
2020-02-16 01:44:17 GMT 41.147011 -76.221397 22,875 105 523 -2432
2020-02-16 01:44:13 GMT 41.148697 -76.229431 22,975 105 525 -2432
2020-02-16 01:44:10 GMT 41.151245 -76.241875 23,100 105 527 -2432
2020-02-16 01:44:06 GMT 41.153111 -76.250923 23,250 105 528 -2432
2020-02-16 01:44:03 GMT 41.155903 -76.264343 23,425 105 531 -2432
2020-02-16 01:43:57 GMT 41.159393 -76.281319 23,725 105 536 -2432
2020-02-16 01:43:53 GMT 41.161469 -76.291443 23,775 105 534 -2432
2020-02-16 01:43:50 GMT 41.164398 -76.305664 23,975 105 538 -2496
2020-02-16 01:43:47 GMT 41.166412 -76.315552 24,075 105 540 -2496
2020-02-16 01:43:43 GMT 41.168701 -76.326660 24,200 105 541 -2496
2020-02-16 01:43:40 GMT 41.170521 -76.335320 24,275 105 541 -2496
2020-02-16 01:43:37 GMT 41.171776 -76.341370 24,375 105 543 -2496
2020-02-16 01:43:34 GMT 41.174618 -76.355232 24,575 105 545 -2496
2020-02-16 01:43:31 GMT 41.176712 -76.365219 24,700 105 546 -2496
2020-02-16 01:43:28 GMT 41.178589 -76.374268 24,925 105 548 -2432
2020-02-16 01:43:25 GMT 41.180695 -76.384277 24,900 105 548 -2432
2020-02-16 01:43:21 GMT 41.182858 -76.394684 25,075 105 548 -2368
2020-02-16 01:43:18 GMT 41.185604 -76.407974 25,200 105 549 -2368
2020-02-16 01:43:14 GMT 41.188118 -76.419960 25,375 105 549 -2304
2020-02-16 01:43:11 GMT 41.190071 -76.429390 25,500 105 549 -2304
2020-02-16 01:43:08 GMT 41.192368 -76.440430 25,625 105 548 -2304
2020-02-16 01:43:04 GMT 41.194199 -76.449158 25,725 105 548 -2304
2020-02-16 01:43:01 GMT 41.197006 -76.462723 25,900 105 547 -2304
2020-02-16 01:42:57 GMT 41.199738 -76.475708 26,025 105 547 -2304
2020-02-16 01:42:54 GMT 41.203903 -76.495728 26,275 105 547 -2304
2020-02-16 01:42:50 GMT 41.203903 -76.495728 26,275 105 546 -2304
2020-02-16 01:42:47 GMT 41.205963 -76.505737 26,425 105 546 -2304
2020-02-16 01:42:44 GMT 41.209019 -76.520271 26,575 105 546 -2304
2020-02-16 01:42:39 GMT 41.211624 -76.532883 26,725 105 546 -2304
2020-02-16 01:42:36 GMT 41.214092 -76.544807 26,825 105 546 -2304
2020-02-16 01:42:33 GMT 41.215393 -76.550964 27,350 105 546 -2304
2020-02-16 01:42:29 GMT 41.218655 -76.566780 27,125 105 546 -2368
2020-02-16 01:42:26 GMT 41.220245 -76.574524 27,200 105 546 -2368
2020-02-16 01:42:22 GMT 41.224987 -76.597427 27,425 105 545 -2304
2020-02-16 01:42:19 GMT 41.224987 -76.597427 27,500 105 545 -2304
2020-02-16 01:42:15 GMT 41.227890 -76.611572 27,600 105 544 -2304
2020-02-16 01:42:12 GMT 41.229813 -76.620911 27,775 105 543 -2304
2020-02-16 01:42:08 GMT 41.232010 -76.631470 27,900 105 542 -2304
2020-02-16 01:42:05 GMT 41.234669 -76.644310 28,050 105 541 -2304
2020-02-16 01:42:02 GMT 41.236633 -76.653870 28,175 105 541 -2304
2020-02-16 01:41:58 GMT 41.238579 -76.663162 28,375 105 541 -2304
2020-02-16 01:41:54 GMT 41.241882 -76.679138 28,700 105 540 -2304
2020-02-16 01:41:51 GMT 41.243561 -76.687134 28,525 105 540 -2304
2020-02-16 01:41:45 GMT 41.248169 -76.709480 28,850 105 539 -2304
2020-02-16 01:41:42 GMT 41.249451 -76.715515 28,925 105 539 -2304
2020-02-16 01:41:39 GMT 41.251511 -76.725403 29,075 105 538 -2304
2020-02-16 01:41:36 GMT 41.253433 -76.734619 29,225 105 538 -2304
2020-02-16 01:41:32 GMT 41.255859 -76.746399 29,450 105 536 -2304
2020-02-16 01:41:27 GMT 41.259247 -76.762596 29,450 105 536 -2304
2020-02-16 01:41:24 GMT 41.261715 -76.774269 29,675 105 536 -2304
2020-02-16 01:41:21 GMT 41.263412 -76.782532 29,675 105 536 -2240
2020-02-16 01:41:17 GMT 41.265747 -76.793579 30,050 105 535 -2304
2020-02-16 01:41:14 GMT 41.268093 -76.804985 30,000 105 535 -2304
2020-02-16 01:41:10 GMT 41.271072 -76.819214 30,075 105 535 -2304
2020-02-16 01:41:07 GMT 41.272659 -76.826843 30,250 105 535 -2304
2020-02-16 01:41:03 GMT 41.275314 -76.839783 30,375 105 535 -2304
2020-02-16 01:41:00 GMT 41.277054 -76.848022 30,575 105 535 -2368
2020-02-16 01:40:56 GMT 41.279526 -76.859985 30,650 105 534 -2368
2020-02-16 01:40:52 GMT 41.282776 -76.875488 30,850 105 534 -2368
2020-02-16 01:40:49 GMT 41.283875 -76.880859 31,125 105 534 -2368
2020-02-16 01:40:45 GMT 41.287354 -76.897583 31,125 105 533 -2432
2020-02-16 01:40:42 GMT 41.288589 -76.903625 31,500 105 533 -2432
2020-02-16 01:40:39 GMT 41.291245 -76.916565 31,375 105 533 -2176
2020-02-16 01:40:36 GMT 41.292767 -76.923836 31,475 105 533 -2240
2020-02-16 01:40:33 GMT 41.295135 -76.935486 31,600 105 533 -1984
2020-02-16 01:40:29 GMT 41.299980 -76.959167 31,750 105 533 -1728
2020-02-16 01:40:25 GMT 41.299980 -76.959167 31,775 105 533 -1408
2020-02-16 01:40:22 GMT 41.302357 -76.970840 31,900 105 532 -1408
2020-02-16 01:40:14 GMT 41.307522 -76.995995 32,100 105 530 -1408
2020-02-16 01:40:09 GMT 41.310966 -77.012978 32,125 105 530 -1408
2020-02-16 01:40:04 GMT 41.313202 -77.023895 32,300 105 528 -1408
2020-02-16 01:40:01 GMT 41.315369 -77.034546 32,375 105 527 -1408
2020-02-16 01:39:58 GMT 41.317299 -77.043938 32,625 105 526 -1472
2020-02-16 01:39:53 GMT 41.320511 -77.059792 32,575 105 526 -1408
2020-02-16 01:39:50 GMT 41.325394 -77.083801 32,700 105 525 -1408
2020-02-16 01:39:46 GMT 41.325394 -77.083801 32,775 105 525 -1408
2020-02-16 01:39:43 GMT 41.327225 -77.092773 32,825 105 525 -1408
2020-02-16 01:39:40 GMT 41.328552 -77.099304 32,875 105 525 -1408
2020-02-16 01:39:37 GMT 41.331078 -77.111786 33,125 105 525 -1408
2020-02-16 01:39:34 GMT 41.332336 -77.117966 33,025 105 525 -1408
2020-02-16 01:39:30 GMT 41.335190 -77.132019 33,125 105 524 -1408
2020-02-16 01:39:27 GMT 41.338852 -77.150055 33,200 105 524 -1408
2020-02-16 01:39:24 GMT 41.338852 -77.150055 33,300 105 524 -1408
2020-02-16 01:39:20 GMT 41.341507 -77.163086 33,350 105 524 -1408
2020-02-16 01:39:17 GMT 41.343063 -77.170898 33,425 105 524 -1472
2020-02-16 01:39:14 GMT 41.347511 -77.193001 33,550 104 524 -1408
2020-02-16 01:39:08 GMT 41.349243 -77.201721 33,650 104 524 -1472
2020-02-16 01:39:05 GMT 41.350723 -77.209167 33,750 104 524 -1472
2020-02-16 01:38:59 GMT 41.353867 -77.224731 33,775 104 524 -1472
2020-02-16 01:38:56 GMT 41.355892 -77.234695 33,950 104 524 -1472
2020-02-16 01:38:53 GMT 41.360046 -77.255554 34,025 104 525 -1472
2020-02-16 01:38:47 GMT 41.362106 -77.265808 34,125 104 525 -1408
2020-02-16 01:38:42 GMT 41.364830 -77.279579 34,275 104 526 -1472
2020-02-16 01:38:39 GMT 41.367249 -77.291756 34,375 104 526 -1472
2020-02-16 01:38:36 GMT 41.368786 -77.299553 34,375 104 526 -1472
2020-02-16 01:38:31 GMT 41.372139 -77.316406 34,525 104 524 -1536
2020-02-16 01:38:28 GMT 41.373348 -77.322655 34,575 104 520 -1344
2020-02-16 01:38:25 GMT 41.375153 -77.331970 34,675 104 522 -1600
2020-02-16 01:38:22 GMT 41.377304 -77.342834 34,825 104 520 -1472
2020-02-16 01:38:19 GMT 41.379120 -77.352112 34,900 104 520 -1152
2020-02-16 01:38:15 GMT 41.381195 -77.362610 34,900 104 520 -960
2020-02-16 01:38:12 GMT 41.383778 -77.375587 34,950 104 520 -768
2020-02-16 01:38:09 GMT 41.384766 -77.380554 34,975 104 520 -512
2020-02-16 01:38:05 GMT 41.387787 -77.395683 35,000 104 520 -64
2020-02-16 01:37:59 GMT 41.391998 -77.417343 35,000 104 520 0
2020-02-16 01:37:55 GMT 41.393417 -77.424461 35,000 104 520 -64
2020-02-16 01:37:52 GMT 41.395458 -77.435028 35,000 104 520 -64
2020-02-16 01:37:49 GMT 41.396942 -77.442436 35,000 104 520 -64
2020-02-16 01:37:46 GMT 41.399090 -77.453293 35,000 104 521 0
2020-02-16 01:37:43 GMT 41.401653 -77.466263 35,000 104 521 0
2020-02-16 01:37:39 GMT 41.403233 -77.474304 35,000 104 521 0
2020-02-16 01:37:35 GMT 41.406075 -77.488548 35,000 104 521 0
2020-02-16 01:37:31 GMT 41.408680 -77.501900 35,000 104 521 0
2020-02-16 01:37:28 GMT 41.410995 -77.513725 35,000 104 521 0
2020-02-16 01:37:25 GMT 41.412506 -77.521469 35,000 104 522 0
2020-02-16 01:37:18 GMT 41.416363 -77.541054 35,000 104 522 0
2020-02-16 01:37:14 GMT 41.418640 -77.552864 35,000 104 523 0
2020-02-16 01:37:11 GMT 41.420471 -77.562164 35,000 104 523 0
2020-02-16 01:37:07 GMT 41.422714 -77.573402 35,000 104 523 0
2020-02-16 01:37:04 GMT 41.424957 -77.584885 35,000 104 523 0
2020-02-16 01:37:00 GMT 41.429352 -77.606918 35,000 104 523 0
2020-02-16 01:36:57 GMT 41.429352 -77.606918 35,000 104 523 0
2020-02-16 01:36:53 GMT 41.431538 -77.618156 35,000 104 524 0
2020-02-16 01:36:50 GMT 41.435303 -77.637138 35,000 104 524 0
2020-02-16 01:36:42 GMT 41.438194 -77.651749 35,000 104 524 0
2020-02-16 01:36:39 GMT 41.440109 -77.661415 35,000 104 524 64
2020-02-16 01:36:36 GMT 41.441826 -77.670143 35,000 104 524 0
2020-02-16 01:36:32 GMT 41.444412 -77.683266 35,000 104 524 0
2020-02-16 01:36:27 GMT 41.447880 -77.700996 35,000 104 524 0
2020-02-16 01:36:24 GMT 41.449860 -77.710983 35,000 104 524 0
2020-02-16 01:36:21 GMT 41.451096 -77.717224 35,000 104 524 0
2020-02-16 01:36:16 GMT 41.454391 -77.734077 35,000 104 524 0
2020-02-16 01:36:12 GMT 41.457138 -77.748184 35,000 104 524 0
2020-02-16 01:36:06 GMT 41.460495 -77.765320 35,000 104 525 0
2020-02-16 01:36:01 GMT 41.463474 -77.780647 35,000 104 525 -64
2020-02-16 01:35:57 GMT 41.465755 -77.792206 35,000 104 525 -64
2020-02-16 01:35:54 GMT 41.470642 -77.816933 35,000 104 526 128
2020-02-16 01:35:49 GMT 41.470642 -77.816933 35,000 104 526 128
2020-02-16 01:35:45 GMT 41.473808 -77.832893 35,000 104 527 -256
2020-02-16 01:35:40 GMT 41.476501 -77.846687 35,025 104 529 -832
2020-02-16 01:35:34 GMT 41.479813 -77.863365 35,350 104 532 -896
2020-02-16 01:35:31 GMT 41.482468 -77.876968 35,350 104 532 -896
2020-02-16 01:35:27 GMT 41.484970 -77.889946 35,250 104 532 -960
2020-02-16 01:35:24 GMT 41.486252 -77.896248 35,275 104 532 -960
2020-02-16 01:35:21 GMT 41.488312 -77.906738 35,325 104 532 -960
2020-02-16 01:35:17 GMT 41.491264 -77.921936 35,400 104 532 -896
2020-02-16 01:35:14 GMT 41.492847 -77.929855 35,450 104 532 -896
2020-02-16 01:35:09 GMT 41.495819 -77.945061 35,525 104 532 -960
2020-02-16 01:35:06 GMT 41.497921 -77.955856 35,600 104 531 -960
2020-02-16 01:35:03 GMT 41.499527 -77.964043 35,625 104 531 -960
2020-02-16 01:34:57 GMT 41.503181 -77.982681 35,675 104 531 -960
2020-02-16 01:34:53 GMT 41.505741 -77.995712 35,775 102 529 -960
2020-02-16 01:34:49 GMT 41.507675 -78.005486 35,875 104 531 -960
2020-02-16 01:34:46 GMT 41.510586 -78.020302 35,900 104 531 -960
2020-02-16 01:34:43 GMT 41.512119 -78.027901 35,925 104 531 -960
2020-02-16 01:34:38 GMT 41.514542 -78.040260 36,000 104 531 -960
2020-02-16 01:34:33 GMT 41.518066 -78.058235 36,075 104 530 -960
2020-02-16 01:34:28 GMT 41.521152 -78.074402 36,175 104 530 -960
2020-02-16 01:34:23 GMT 41.524429 -78.091446 36,225 104 529 -960
2020-02-16 01:34:18 GMT 41.527359 -78.106613 36,475 101 530 -960
2020-02-16 01:34:15 GMT 41.529465 -78.118286 36,400 102 529 -960
2020-02-16 01:34:12 GMT 41.530506 -78.124352 36,500 100 530 -960
2020-02-16 01:34:04 GMT 41.534466 -78.152267 36,625 99 530 -1024
2020-02-16 01:33:57 GMT 41.537071 -78.173538 36,650 99 530 -1024
2020-02-16 01:33:54 GMT 41.539307 -78.191872 36,800 99 529 -1088
2020-02-16 01:33:47 GMT 41.540936 -78.205093 36,850 99 530 -1088
2020-02-16 01:33:43 GMT 41.542751 -78.219849 36,925 99 529 -320
2020-02-16 01:33:36 GMT 41.545578 -78.243378 37,000 99 529 -192
2020-02-16 01:33:33 GMT 41.546616 -78.251717 37,000 99 529 0
2020-02-16 01:33:30 GMT 41.547733 -78.261047 37,000 99 529 0
2020-02-16 01:33:26 GMT 41.549103 -78.272346 37,000 99 529 0
2020-02-16 01:33:23 GMT 41.550434 -78.283592 37,000 99 530 0
2020-02-16 01:33:20 GMT 41.552620 -78.301346 37,000 99 530 0
2020-02-16 01:33:17 GMT 41.552620 -78.301346 37,000 99 530 0
2020-02-16 01:33:13 GMT 41.554436 -78.316490 37,000 99 531 0
2020-02-16 01:33:10 GMT 41.555412 -78.324600 37,000 99 531 0
2020-02-16 01:33:06 GMT 41.557297 -78.340073 37,000 99 532 0
2020-02-16 01:33:00 GMT 41.559605 -78.359222 37,000 99 532 0
2020-02-16 01:32:57 GMT 41.560673 -78.367973 37,000 99 533 0
2020-02-16 01:32:52 GMT 41.562241 -78.380898 37,000 99 534 0
2020-02-16 01:32:49 GMT 41.563614 -78.392632 37,000 98 535 0
2020-02-16 01:32:46 GMT 41.564621 -78.401062 37,000 98 535 0
2020-02-16 01:32:42 GMT 41.566353 -78.415749 37,000 98 535 -64
2020-02-16 01:32:39 GMT 41.567505 -78.425468 37,000 98 535 -64
2020-02-16 01:32:33 GMT 41.569706 -78.444366 37,000 98 535 -64
2020-02-16 01:32:29 GMT 41.571335 -78.458412 37,000 98 535 0
2020-02-16 01:32:26 GMT 41.572590 -78.469147 37,000 98 535 64
2020-02-16 01:32:18 GMT 41.575378 -78.492943 37,000 98 536 64
2020-02-16 01:32:14 GMT 41.576920 -78.506004 37,000 98 536 -64
2020-02-16 01:32:11 GMT 41.578262 -78.517792 37,000 98 536 0
2020-02-16 01:32:08 GMT 41.579086 -78.524590 37,000 98 536 0
2020-02-16 01:32:05 GMT 41.580505 -78.536705 37,000 98 536 -64
2020-02-16 01:32:02 GMT 41.581284 -78.543571 37,000 98 536 -64
2020-02-16 01:31:58 GMT 41.583527 -78.562485 37,000 98 537 0
2020-02-16 01:31:53 GMT 41.586464 -78.587692 37,000 98 537 0
2020-02-16 01:31:49 GMT 41.586464 -78.587692 37,000 98 537 0
2020-02-16 01:31:46 GMT 41.587418 -78.596191 37,000 98 537 0
2020-02-16 01:31:43 GMT 41.589066 -78.610237 37,000 98 537 0
2020-02-16 01:31:40 GMT 41.590256 -78.620346 37,000 98 537 0
2020-02-16 01:31:37 GMT 41.591492 -78.630814 37,000 98 537 0
2020-02-16 01:31:34 GMT 41.592361 -78.638329 37,000 98 537 64
2020-02-16 01:31:31 GMT 41.593231 -78.645882 37,000 98 537 64
2020-02-16 01:31:28 GMT 41.594704 -78.658279 37,000 98 537 64
2020-02-16 01:31:25 GMT 41.595589 -78.665817 37,000 98 537 0
2020-02-16 01:31:21 GMT 41.596985 -78.677589 37,000 98 537 0
2020-02-16 01:31:17 GMT 41.598846 -78.693344 37,000 98 538 0
2020-02-16 01:31:12 GMT 41.602570 -78.724777 37,000 99 540 0
2020-02-16 01:31:08 GMT 41.602570 -78.724777 37,000 99 540 0
2020-02-16 01:31:04 GMT 41.604385 -78.739906 37,000 98 540 -64
2020-02-16 01:31:01 GMT 41.606598 -78.758675 37,000 98 541 -64
2020-02-16 01:30:57 GMT 41.606598 -78.758675 37,000 98 541 -64
2020-02-16 01:30:54 GMT 41.607506 -78.766609 37,000 98 541 -64
2020-02-16 01:30:49 GMT 41.609413 -78.782768 37,000 98 542 0
2020-02-16 01:30:45 GMT 41.611370 -78.799950 37,000 98 542 0
2020-02-16 01:30:38 GMT 41.614117 -78.823708 37,000 98 542 0
2020-02-16 01:30:35 GMT 41.614861 -78.830292 37,000 98 542 0
2020-02-16 01:30:32 GMT 41.616257 -78.842506 37,000 98 542 0
2020-02-16 01:30:27 GMT 41.618271 -78.859985 37,000 98 542 0
2020-02-16 01:30:23 GMT 41.619324 -78.868912 37,000 98 542 0
2020-02-16 01:30:20 GMT 41.620865 -78.882797 37,000 98 542 0
2020-02-16 01:30:16 GMT 41.622253 -78.894691 37,000 98 542 0
2020-02-16 01:30:13 GMT 41.623241 -78.903236 37,000 98 542 0
2020-02-16 01:30:09 GMT 41.624729 -78.916138 37,000 98 542 0
2020-02-16 01:30:06 GMT 41.626034 -78.927696 37,000 98 542 0
2020-02-16 01:30:03 GMT 41.627197 -78.937576 37,000 98 542 0
2020-02-16 01:30:00 GMT 41.628204 -78.946503 37,000 98 542 0
2020-02-16 01:29:56 GMT 41.630081 -78.962669 37,000 98 542 0
2020-02-16 01:29:53 GMT 41.631088 -78.971596 37,000 98 542 0
2020-02-16 01:29:49 GMT 41.632599 -78.984772 37,000 98 542 -64
2020-02-16 01:29:45 GMT 41.634064 -78.997688 37,000 98 542 0
2020-02-16 01:29:42 GMT 41.635063 -79.006264 37,000 98 542 0
2020-02-16 01:29:39 GMT 41.636181 -79.016167 37,000 98 542 0
2020-02-16 01:29:36 GMT 41.637486 -79.027786 37,000 98 542 0
2020-02-16 01:29:33 GMT 41.638184 -79.034050 37,000 98 542 0
2020-02-16 01:29:29 GMT 41.639999 -79.050209 37,000 98 543 0
2020-02-16 01:29:25 GMT 41.641708 -79.065109 37,000 98 543 -64
2020-02-16 01:29:21 GMT 41.643127 -79.078026 37,000 98 541 0
2020-02-16 01:29:18 GMT 41.644188 -79.087257 37,000 98 541 0
2020-02-16 01:29:14 GMT 41.645725 -79.100800 37,000 98 542 0
2020-02-16 01:29:10 GMT 41.646843 -79.111076 37,000 98 542 0
2020-02-16 01:29:07 GMT 41.648117 -79.122353 37,000 98 542 0
2020-02-16 01:29:03 GMT 41.649765 -79.137207 37,000 98 542 0
2020-02-16 01:29:00 GMT 41.650955 -79.148132 37,000 98 542 0
2020-02-16 01:28:57 GMT 41.653564 -79.171974 37,000 98 542 0
2020-02-16 01:28:52 GMT 41.653564 -79.171974 37,000 98 542 0
2020-02-16 01:28:46 GMT 41.655807 -79.192451 37,000 98 542 0
2020-02-16 01:28:43 GMT 41.657089 -79.204063 37,000 98 542 0
2020-02-16 01:28:40 GMT 41.659286 -79.224594 37,000 98 542 0
2020-02-16 01:28:37 GMT 41.659286 -79.224594 37,000 98 542 0
2020-02-16 01:28:34 GMT 41.660248 -79.233208 37,000 98 542 0
2020-02-16 01:28:29 GMT 41.662205 -79.251411 37,000 98 542 0
2020-02-16 01:28:26 GMT 41.663181 -79.260353 37,000 98 542 0
2020-02-16 01:28:21 GMT 41.664413 -79.271599 37,000 98 542 0
2020-02-16 01:28:18 GMT 41.666069 -79.286858 37,000 98 542 0
2020-02-16 01:28:15 GMT 41.666931 -79.294762 37,000 98 542 64
2020-02-16 01:28:11 GMT 41.668396 -79.308365 37,000 98 542 0
2020-02-16 01:28:07 GMT 41.670731 -79.329529 37,000 98 541 0
2020-02-16 01:28:04 GMT 41.670731 -79.329529 37,000 98 541 0
2020-02-16 01:28:01 GMT 41.671967 -79.341080 37,000 98 541 0
2020-02-16 01:27:58 GMT 41.674438 -79.363609 37,000 98 541 0
2020-02-16 01:27:55 GMT 41.674438 -79.363609 37,000 98 541 0
2020-02-16 01:27:51 GMT 41.675659 -79.374817 37,000 98 541 -64
2020-02-16 01:27:47 GMT 41.676956 -79.386772 37,000 98 541 0
2020-02-16 01:27:43 GMT 41.678173 -79.398003 37,000 98 541 0
2020-02-16 01:27:40 GMT 41.679749 -79.412552 37,000 98 541 0
2020-02-16 01:27:37 GMT 41.681625 -79.429718 37,000 98 541 0
2020-02-16 01:27:34 GMT 41.681625 -79.429718 37,000 98 540 0
2020-02-16 01:27:31 GMT 41.682690 -79.439583 37,000 98 540 0
2020-02-16 01:27:28 GMT 41.683990 -79.451851 37,000 98 540 0
2020-02-16 01:27:25 GMT 41.685249 -79.463409 37,000 98 540 0
2020-02-16 01:27:22 GMT 41.687111 -79.480530 37,000 98 540 0
2020-02-16 01:27:19 GMT 41.687111 -79.480530 37,000 98 540 0
2020-02-16 01:27:16 GMT 41.689392 -79.501991 37,000 98 540 0
2020-02-16 01:27:12 GMT 41.689392 -79.501991 37,000 98 540 0
2020-02-16 01:27:09 GMT 41.690414 -79.511238 37,000 98 540 0
2020-02-16 01:27:06 GMT 41.693069 -79.536270 37,000 98 539 0
2020-02-16 01:27:02 GMT 41.693069 -79.536270 37,000 98 539 0
2020-02-16 01:26:58 GMT 41.694260 -79.547195 37,000 98 539 0
2020-02-16 01:26:55 GMT 41.695175 -79.556061 37,000 98 539 0
2020-02-16 01:26:52 GMT 41.696514 -79.568611 37,000 98 539 0
2020-02-16 01:26:49 GMT 41.697678 -79.579468 37,000 98 539 0
2020-02-16 01:26:46 GMT 41.698795 -79.589622 37,000 98 539 0
2020-02-16 01:26:41 GMT 41.700050 -79.601822 37,000 98 538 0
2020-02-16 01:26:38 GMT 41.701447 -79.614983 37,000 98 538 0
2020-02-16 01:26:35 GMT 41.702518 -79.624886 37,000 98 538 0
2020-02-16 01:26:32 GMT 41.703449 -79.633759 37,000 98 538 0
2020-02-16 01:26:28 GMT 41.704941 -79.647881 37,000 98 538 0
2020-02-16 01:26:25 GMT 41.706337 -79.660652 37,000 98 537 0
2020-02-16 01:26:22 GMT 41.707260 -79.669228 37,000 98 537 0
2020-02-16 01:26:19 GMT 41.709175 -79.687225 37,000 98 537 0
2020-02-16 01:26:16 GMT 41.709175 -79.687225 37,000 98 536 0
2020-02-16 01:26:12 GMT 41.710804 -79.701981 37,000 98 536 0
2020-02-16 01:26:08 GMT 41.711967 -79.712837 37,000 98 536 0
2020-02-16 01:26:05 GMT 41.713028 -79.722664 37,000 98 536 0
2020-02-16 01:26:02 GMT 41.714264 -79.734085 37,000 98 536 0
2020-02-16 01:25:59 GMT 41.715229 -79.742599 37,000 98 536 0
2020-02-16 01:25:56 GMT 41.717514 -79.763924 37,000 98 535 0
2020-02-16 01:25:53 GMT 41.717514 -79.763924 37,000 98 535 0
2020-02-16 01:25:49 GMT 41.719044 -79.777672 37,000 98 535 0
2020-02-16 01:25:46 GMT 41.719742 -79.784187 37,000 98 535 0
2020-02-16 01:25:43 GMT 41.722210 -79.807053 37,000 98 535 0
2020-02-16 01:25:40 GMT 41.722210 -79.807053 37,000 98 535 0
2020-02-16 01:25:35 GMT 41.723877 -79.822418 37,000 98 535 0
2020-02-16 01:25:28 GMT 41.727493 -79.856125 37,000 98 535 0
2020-02-16 01:25:25 GMT 41.727493 -79.856125 37,000 98 534 0
2020-02-16 01:25:19 GMT 41.730103 -79.880280 37,000 98 534 0
2020-02-16 01:25:16 GMT 41.730103 -79.880280 37,000 98 534 0
2020-02-16 01:25:13 GMT 41.731201 -79.891083 37,000 98 534 0
2020-02-16 01:25:07 GMT 41.733803 -79.915573 37,000 97 534 0
2020-02-16 01:25:00 GMT 41.735710 -79.933838 37,000 97 532 0
2020-02-16 01:24:55 GMT 41.737747 -79.953751 37,000 97 534 0
2020-02-16 01:24:45 GMT 41.741714 -79.992226 37,000 97 532 0
2020-02-16 01:24:42 GMT 41.741714 -79.992226 37,000 97 532 0
2020-02-16 01:24:38 GMT 41.743065 -80.005638 37,000 97 532 0
2020-02-16 01:24:35 GMT 41.744019 -80.015427 37,000 97 532 0
2020-02-16 01:24:31 GMT 41.745758 -80.032341 37,000 97 532 0
2020-02-16 01:24:25 GMT 41.747627 -80.051308 37,000 97 532 0
2020-02-16 01:24:22 GMT 41.748276 -80.057808 37,000 97 532 0
2020-02-16 01:24:15 GMT 41.750839 -80.083214 37,000 97 531 0
2020-02-16 01:24:11 GMT 41.751892 -80.093330 37,000 97 532 0
2020-02-16 01:24:02 GMT 41.756054 -80.134026 37,000 97 532 0
2020-02-16 01:23:59 GMT 41.756054 -80.134026 37,000 97 532 0
2020-02-16 01:23:55 GMT 41.757339 -80.146385 37,000 97 532 0
2020-02-16 01:23:50 GMT 41.758846 -80.161041 37,000 97 532 0
2020-02-16 01:23:46 GMT 41.760384 -80.175667 37,000 98 531 0
2020-02-16 01:23:40 GMT 41.762291 -80.193810 37,000 98 531 0
2020-02-16 01:23:35 GMT 41.764061 -80.210419 37,000 97 531 0
2020-02-16 01:23:32 GMT 41.765442 -80.224045 37,000 97 531 0
2020-02-16 01:23:26 GMT 41.767460 -80.243248 37,000 97 530 0
2020-02-16 01:23:22 GMT 41.768345 -80.251999 37,000 97 530 0
2020-02-16 01:23:19 GMT 41.769413 -80.262093 37,000 97 530 0
2020-02-16 01:23:16 GMT 41.770386 -80.271797 37,000 97 530 -64
2020-02-16 01:23:13 GMT 41.771744 -80.284828 37,000 97 530 -64
2020-02-16 01:23:10 GMT 41.772766 -80.295204 37,000 97 530 0
2020-02-16 01:23:07 GMT 41.775330 -80.320236 37,000 97 530 0
2020-02-16 01:23:02 GMT 41.775330 -80.320236 37,000 97 530 0
2020-02-16 01:22:59 GMT 41.776337 -80.329659 37,000 97 530 0
2020-02-16 01:22:56 GMT 41.777252 -80.338707 37,000 97 530 0
2020-02-16 01:22:52 GMT 41.778580 -80.351753 37,000 97 532 0
2020-02-16 01:22:49 GMT 41.779564 -80.361794 37,000 97 530 64
2020-02-16 01:22:45 GMT 41.780727 -80.373169 37,000 97 531 0
2020-02-16 01:22:42 GMT 41.781982 -80.385880 37,000 97 531 0
2020-02-16 01:22:39 GMT 41.784172 -80.407341 37,000 97 531 0
2020-02-16 01:22:36 GMT 41.784172 -80.407341 37,000 97 531 0
2020-02-16 01:22:30 GMT 41.785904 -80.424606 37,000 97 531 0
2020-02-16 01:22:27 GMT 41.786591 -80.431099 37,000 97 532 0
2020-02-16 01:22:23 GMT 41.788330 -80.448013 37,000 97 531 0
2020-02-16 01:22:20 GMT 41.789017 -80.454819 37,000 97 531 0
2020-02-16 01:22:17 GMT 41.790035 -80.464638 37,000 97 531 0
2020-02-16 01:22:14 GMT 41.791340 -80.477348 37,000 97 532 64
2020-02-16 01:22:11 GMT 41.791946 -80.483475 37,000 97 532 0
2020-02-16 01:22:08 GMT 41.793365 -80.497200 37,000 97 532 0
2020-02-16 01:22:04 GMT 41.794510 -80.508621 37,000 97 532 0
2020-02-16 01:22:00 GMT 41.795883 -80.522667 37,000 97 533 0
2020-02-16 01:21:56 GMT 41.796936 -80.533470 37,000 97 533 0
2020-02-16 01:21:53 GMT 41.797852 -80.542892 37,000 97 533 0
2020-02-16 01:21:50 GMT 41.798977 -80.554695 37,000 97 533 0
2020-02-16 01:21:47 GMT 41.799957 -80.564491 37,000 97 533 -64
2020-02-16 01:21:43 GMT 41.801022 -80.575584 37,000 97 533 0
2020-02-16 01:21:38 GMT 41.802792 -80.593597 37,000 97 533 0
2020-02-16 01:21:35 GMT 41.803444 -80.600433 37,000 97 533 0
2020-02-16 01:21:32 GMT 41.804516 -80.611221 37,000 97 533 0
2020-02-16 01:21:27 GMT 41.806412 -80.630844 37,000 97 533 64
2020-02-16 01:21:23 GMT 41.807739 -80.644577 37,000 97 533 0
2020-02-16 01:21:19 GMT 41.809067 -80.657936 37,000 97 533 0
2020-02-16 01:21:16 GMT 41.809959 -80.667114 37,000 97 534 0
2020-02-16 01:21:11 GMT 41.811218 -80.680222 37,000 97 534 -64
2020-02-16 01:21:08 GMT 41.812592 -80.694267 37,000 97 534 0
2020-02-16 01:21:05 GMT 41.813171 -80.700523 37,000 97 534 0
2020-02-16 01:21:02 GMT 41.814243 -80.711952 37,000 97 534 0
2020-02-16 01:20:57 GMT 41.815826 -80.728371 37,000 97 534 0
2020-02-16 01:20:54 GMT 41.816433 -80.734947 37,000 97 534 0
2020-02-16 01:20:51 GMT 41.817627 -80.747704 37,000 97 534 0
2020-02-16 01:20:48 GMT 41.818588 -80.757500 37,000 97 535 0
2020-02-16 01:20:45 GMT 41.819366 -80.766052 37,000 97 535 0
2020-02-16 01:20:39 GMT 41.821152 -80.784721 37,000 97 535 0
2020-02-16 01:20:34 GMT 41.822891 -80.803131 37,000 97 535 0
2020-02-16 01:20:31 GMT 41.824020 -80.814919 37,000 97 535 0
2020-02-16 01:20:23 GMT 41.826256 -80.838554 37,000 97 535 0
2020-02-16 01:20:19 GMT 41.827374 -80.850052 37,000 97 535 0
2020-02-16 01:20:16 GMT 41.828770 -80.864807 37,000 97 535 0
2020-02-16 01:20:13 GMT 41.829391 -80.871361 37,000 97 535 0
2020-02-16 01:20:10 GMT 41.830490 -80.882881 37,000 97 535 0
2020-02-16 01:20:06 GMT 41.831841 -80.896675 37,000 97 535 0
2020-02-16 01:20:03 GMT 41.832726 -80.905876 37,000 97 536 0
2020-02-16 01:19:58 GMT 41.834030 -80.919670 37,000 97 536 64
2020-02-16 01:19:55 GMT 41.835297 -80.932846 37,000 97 536 0
2020-02-16 01:19:52 GMT 41.836258 -80.942337 37,000 97 536 0
2020-02-16 01:19:48 GMT 41.837193 -80.952248 37,000 97 537 0
2020-02-16 01:19:43 GMT 41.838871 -80.969688 37,000 97 536 0
2020-02-16 01:19:38 GMT 41.840332 -80.984779 37,000 97 537 0
2020-02-16 01:19:33 GMT 41.842175 -81.004242 37,000 97 537 0
2020-02-16 01:19:28 GMT 41.843719 -81.020363 37,000 97 537 0
2020-02-16 01:19:25 GMT 41.844543 -81.028915 37,000 97 537 0
2020-02-16 01:19:21 GMT 41.845871 -81.042770 37,000 97 537 0
2020-02-16 01:19:15 GMT 41.848068 -81.065865 37,000 97 538 0
2020-02-16 01:19:11 GMT 41.850357 -81.090279 37,000 97 538 0
2020-02-16 01:19:06 GMT 41.850357 -81.090279 37,000 97 538 64
2020-02-16 01:19:02 GMT 41.852005 -81.107819 37,000 97 538 0
2020-02-16 01:18:58 GMT 41.852837 -81.117043 37,000 97 539 0
2020-02-16 01:18:53 GMT 41.854431 -81.133911 37,000 97 539 0
2020-02-16 01:18:49 GMT 41.855484 -81.145454 37,000 97 539 0
2020-02-16 01:18:45 GMT 41.856792 -81.159393 37,000 97 539 0
2020-02-16 01:18:40 GMT 41.858284 -81.175232 37,000 97 539 -64
2020-02-16 01:18:36 GMT 41.859818 -81.191460 37,000 97 539 -64
2020-02-16 01:18:32 GMT 41.861076 -81.204361 37,000 97 540 0
2020-02-16 01:18:29 GMT 41.861961 -81.214005 37,000 97 540 0
2020-02-16 01:18:21 GMT 41.865189 -81.248451 37,000 97 540 0
2020-02-16 01:18:14 GMT 41.866653 -81.264687 37,000 97 540 0
2020-02-16 01:18:09 GMT 41.868393 -81.283287 37,000 97 540 64
2020-02-16 01:18:05 GMT 41.869629 -81.296829 37,000 97 540 0
2020-02-16 01:18:00 GMT 41.870865 -81.310440 37,000 97 540 0
2020-02-16 01:17:54 GMT 41.872787 -81.331039 37,000 97 540 0
2020-02-16 01:17:50 GMT 41.874252 -81.347267 37,000 97 540 0
2020-02-16 01:17:47 GMT 41.874855 -81.353889 37,000 97 540 0
2020-02-16 01:17:44 GMT 41.876064 -81.366852 37,000 97 540 0
2020-02-16 01:17:41 GMT 41.876530 -81.372154 37,000 97 540 0
2020-02-16 01:17:38 GMT 41.877457 -81.382095 37,000 97 540 0
2020-02-16 01:17:34 GMT 41.878860 -81.397385 37,000 97 540 0
2020-02-16 01:17:31 GMT 41.879696 -81.406647 37,000 96 539 0
2020-02-16 01:17:28 GMT 41.880535 -81.415970 37,000 96 539 0
2020-02-16 01:17:25 GMT 41.881439 -81.425919 37,000 96 539 0
2020-02-16 01:17:21 GMT 41.882904 -81.442146 37,000 96 539 0
2020-02-16 01:17:17 GMT 41.884117 -81.455444 37,000 96 539 0
2020-02-16 01:17:13 GMT 41.885052 -81.465668 37,000 96 539 0
2020-02-16 01:17:09 GMT 41.886612 -81.482597 37,000 96 539 0
2020-02-16 01:17:06 GMT 41.888447 -81.502846 37,000 96 539 64
2020-02-16 01:17:02 GMT 41.888447 -81.502846 37,000 96 539 0
2020-02-16 01:16:58 GMT 41.891754 -81.539635 37,000 96 539 0
2020-02-16 01:16:52 GMT 41.891754 -81.539635 37,000 96 539 0
2020-02-16 01:16:45 GMT 41.893570 -81.559883 37,000 96 539 0
2020-02-16 01:16:41 GMT 41.894825 -81.573807 37,000 96 539 0
2020-02-16 01:16:38 GMT 41.895756 -81.583710 37,000 96 539 0
2020-02-16 01:16:35 GMT 41.896545 -81.593025 37,000 96 539 0
2020-02-16 01:16:31 GMT 41.898056 -81.609566 37,000 96 539 0
2020-02-16 01:16:25 GMT 41.899521 -81.625793 37,000 96 538 64
2020-02-16 01:16:20 GMT 41.901031 -81.642715 37,000 96 538 0
2020-02-16 01:16:17 GMT 41.902088 -81.654671 37,000 96 538 64
2020-02-16 01:16:14 GMT 41.904099 -81.676857 37,000 96 538 0
2020-02-16 01:16:09 GMT 41.904099 -81.676857 37,000 96 538 0
2020-02-16 01:16:04 GMT 41.905701 -81.694710 37,000 96 538 0
2020-02-16 01:16:00 GMT 41.907166 -81.710938 37,000 96 538 0
2020-02-16 01:15:57 GMT 41.907990 -81.719864 37,000 96 538 0
2020-02-16 01:15:54 GMT 41.908722 -81.728172 37,000 96 539 0
2020-02-16 01:15:49 GMT 41.910187 -81.744736 37,000 96 539 0
2020-02-16 01:15:44 GMT 41.911724 -81.762360 37,000 96 539 0
2020-02-16 01:15:39 GMT 41.913353 -81.781586 37,000 96 539 0
2020-02-16 01:15:35 GMT 41.914238 -81.791870 37,000 97 538 0
2020-02-16 01:15:28 GMT 41.916504 -81.813316 37,000 101 535 0
2020-02-16 01:15:25 GMT 41.918198 -81.826736 37,000 100 536 0
2020-02-16 01:15:22 GMT 41.918884 -81.831604 37,000 104 532 0
2020-02-16 01:15:17 GMT 41.922058 -81.852425 37,000 102 533 0
2020-02-16 01:15:13 GMT 41.923737 -81.862389 37,000 103 533 0
2020-02-16 01:15:08 GMT 41.927364 -81.881554 37,000 104 532 0
2020-02-16 01:15:04 GMT 41.929459 -81.892403 37,000 104 532 0
2020-02-16 01:15:00 GMT 41.931557 -81.903267 37,000 104 532 0
2020-02-16 01:14:56 GMT 41.933990 -81.915688 37,000 104 532 0
2020-02-16 01:14:53 GMT 41.936722 -81.929710 37,000 104 532 0
2020-02-16 01:14:46 GMT 41.940994 -81.951706 37,000 104 532 0
2020-02-16 01:14:42 GMT 41.942867 -81.961266 37,000 104 532 0
2020-02-16 01:14:35 GMT 41.947243 -81.983620 37,000 104 531 0
2020-02-16 01:14:32 GMT 41.949200 -81.993462 37,000 104 532 0
2020-02-16 01:14:23 GMT 41.955322 -82.024734 37,000 104 532 0
2020-02-16 01:14:15 GMT 41.959766 -82.047371 37,000 104 532 0
2020-02-16 01:14:12 GMT 41.961639 -82.056946 37,000 104 531 0
2020-02-16 01:14:09 GMT 41.963398 -82.065887 37,000 104 532 0
2020-02-16 01:14:03 GMT 41.967957 -82.089096 37,000 104 531 0
2020-02-16 01:13:51 GMT 41.974571 -82.122864 37,000 104 530 0
2020-02-16 01:13:44 GMT 41.979218 -82.146645 37,000 104 524 0
2020-02-16 01:13:41 GMT 41.981087 -82.156212 37,000 104 524 0
2020-02-16 01:13:34 GMT 41.985580 -82.179359 37,000 104 529 0
2020-02-16 01:13:31 GMT 41.987503 -82.189156 37,000 104 528 0
2020-02-16 01:13:26 GMT 41.991001 -82.207245 37,000 104 527 0
2020-02-16 01:13:23 GMT 41.992260 -82.213890 37,000 104 527 0
2020-02-16 01:13:20 GMT 41.994095 -82.223366 37,000 104 527 0
2020-02-16 01:13:14 GMT 41.997665 -82.241783 37,000 104 526 0
2020-02-16 01:13:10 GMT 42.000080 -82.254379 37,000 104 526 0
2020-02-16 01:13:00 GMT 42.006458 -82.287598 37,000 104 525 0
2020-02-16 01:12:54 GMT 42.010025 -82.306198 37,000 104 525 0
2020-02-16 01:12:48 GMT 42.013023 -82.321960 37,000 104 525 0
2020-02-16 01:12:44 GMT 42.016094 -82.338058 37,000 104 524 0
2020-02-16 01:12:41 GMT 42.018173 -82.349083 37,000 104 524 0
2020-02-16 01:12:38 GMT 42.019073 -82.353836 37,000 104 524 0
2020-02-16 01:12:33 GMT 42.023075 -82.374596 37,000 104 524 0
2020-02-16 01:12:29 GMT 42.025127 -82.385582 37,000 104 524 0
2020-02-16 01:12:20 GMT 42.030258 -82.412689 37,000 104 523 0
2020-02-16 01:12:17 GMT 42.031998 -82.421806 37,000 104 523 0
2020-02-16 01:12:10 GMT 42.036255 -82.444527 37,000 104 524 0
2020-02-16 01:12:06 GMT 42.038578 -82.457184 37,000 104 524 0
2020-02-16 01:12:01 GMT 42.041748 -82.474174 37,000 104 524 0
2020-02-16 01:11:58 GMT 42.043423 -82.483055 37,000 104 524 0
2020-02-16 01:11:54 GMT 42.045135 -82.492531 37,000 103 524 -64
2020-02-16 01:11:51 GMT 42.047333 -82.504204 37,000 103 524 0
2020-02-16 01:11:48 GMT 42.049255 -82.514626 37,000 103 524 0
2020-02-16 01:11:40 GMT 42.055103 -82.546227 37,000 103 524 0
2020-02-16 01:11:34 GMT 42.061798 -82.582542 37,000 103 524 0
2020-02-16 01:11:26 GMT 42.061798 -82.582542 37,000 103 524 0
2020-02-16 01:11:22 GMT 42.067348 -82.612587 37,000 104 525 0
2020-02-16 01:11:17 GMT 42.067348 -82.612587 37,000 104 524 0
2020-02-16 01:11:13 GMT 42.069305 -82.623001 37,000 104 524 0
2020-02-16 01:11:06 GMT 42.075123 -82.654297 37,000 104 525 -64
2020-02-16 01:10:56 GMT 42.079964 -82.679848 37,000 104 524 0
2020-02-16 01:10:52 GMT 42.081757 -82.689285 37,000 104 524 0
2020-02-16 01:10:46 GMT 42.086063 -82.711723 37,000 104 524 -64
2020-02-16 01:10:43 GMT 42.090500 -82.734726 37,000 104 525 0
2020-02-16 01:10:38 GMT 42.090500 -82.734726 37,000 104 524 0
2020-02-16 01:10:34 GMT 42.093185 -82.748573 37,000 104 524 64
2020-02-16 01:10:30 GMT 42.096676 -82.766907 37,000 104 525 0
2020-02-16 01:10:27 GMT 42.096676 -82.766907 37,000 104 524 -64
2020-02-16 01:10:24 GMT 42.098740 -82.777611 37,000 104 524 -64
2020-02-16 01:10:21 GMT 42.101471 -82.791817 37,000 104 524 0
2020-02-16 01:10:18 GMT 42.102917 -82.799423 37,000 104 524 0
2020-02-16 01:10:14 GMT 42.105789 -82.814194 37,000 104 525 0
2020-02-16 01:10:10 GMT 42.107616 -82.823692 37,000 104 525 0
2020-02-16 01:10:07 GMT 42.108994 -82.830986 37,000 104 525 0
2020-02-16 01:10:04 GMT 42.111328 -82.843285 37,000 104 525 64
2020-02-16 01:10:01 GMT 42.112701 -82.850586 37,000 104 525 64
2020-02-16 01:09:54 GMT 42.117233 -82.874931 37,000 104 525 0
2020-02-16 01:09:50 GMT 42.119579 -82.887627 37,000 104 525 0
2020-02-16 01:09:47 GMT 42.121033 -82.895218 37,000 104 525 0
2020-02-16 01:09:43 GMT 42.123722 -82.909798 37,000 104 525 0
2020-02-16 01:09:40 GMT 42.124969 -82.916443 37,000 103 526 0
2020-02-16 01:09:37 GMT 42.129681 -82.941856 37,000 104 526 0
2020-02-16 01:09:32 GMT 42.129681 -82.941856 37,000 104 525 -64
2020-02-16 01:09:28 GMT 42.132755 -82.958275 37,000 104 525 -64
2020-02-16 01:09:22 GMT 42.135361 -82.972244 37,000 103 526 0
2020-02-16 01:09:19 GMT 42.138016 -82.986504 37,000 103 526 0
2020-02-16 01:09:16 GMT 42.139179 -82.992897 37,000 103 526 0
2020-02-16 01:09:12 GMT 42.143414 -83.016014 37,000 103 526 0
2020-02-16 01:09:09 GMT 42.145294 -83.026237 37,000 103 526 0
2020-02-16 01:09:06 GMT 42.146534 -83.032883 37,000 103 526 0
2020-02-16 01:09:03 GMT 42.148315 -83.042412 37,000 103 526 0
2020-02-16 01:08:55 GMT 42.151283 -83.058624 37,000 103 526 0
2020-02-16 01:08:50 GMT 42.154167 -83.074203 37,000 103 527 0
2020-02-16 01:08:46 GMT 42.157242 -83.090683 37,000 103 527 0
2020-02-16 01:08:39 GMT 42.161407 -83.113319 37,000 103 527 0
2020-02-16 01:08:35 GMT 42.163525 -83.124733 37,000 103 527 0
2020-02-16 01:08:31 GMT 42.165852 -83.137505 37,000 103 527 0
2020-02-16 01:08:28 GMT 42.167904 -83.148621 37,000 103 528 0
2020-02-16 01:08:23 GMT 42.170837 -83.164566 37,000 103 528 0
2020-02-16 01:08:20 GMT 42.173954 -83.181450 37,000 103 528 0
2020-02-16 01:08:17 GMT 42.176788 -83.197090 37,000 103 528 0
2020-02-16 01:08:12 GMT 42.176788 -83.197090 37,000 103 528 0
2020-02-16 01:08:09 GMT 42.178329 -83.205727 37,000 103 528 0
2020-02-16 01:08:06 GMT 42.180099 -83.215622 37,000 103 528 0
2020-02-16 01:08:03 GMT 42.184288 -83.238937 37,000 103 528 0
2020-02-16 01:08:00 GMT 42.184288 -83.238937 37,000 103 528 -64
2020-02-16 01:07:57 GMT 42.185963 -83.248260 37,000 103 528 0
2020-02-16 01:07:52 GMT 42.188828 -83.264198 37,000 103 528 0
2020-02-16 01:07:49 GMT 42.190109 -83.271561 37,000 103 529 0
2020-02-16 01:07:44 GMT 42.192947 -83.287544 37,000 103 529 -64
2020-02-16 01:07:40 GMT 42.195553 -83.302299 37,000 103 529 -64
2020-02-16 01:07:37 GMT 42.196426 -83.307076 37,000 103 529 0
2020-02-16 01:07:34 GMT 42.198074 -83.316383 37,000 103 529 64
2020-02-16 01:07:30 GMT 42.200912 -83.332359 37,000 103 529 0
2020-02-16 01:07:26 GMT 42.203606 -83.347717 37,000 103 529 64
2020-02-16 01:07:21 GMT 42.205959 -83.360336 37,000 102 534 -3776
2020-02-16 01:07:18 GMT 42.207600 -83.370049 37,000 102 534 -3776
2020-02-16 01:07:15 GMT 42.209270 -83.379852 37,000 103 522 -3776
2020-02-16 01:07:12 GMT 42.211201 -83.388680 37,000 103 528 0
2020-02-16 01:07:06 GMT 42.214035 -83.406029 37,000 102 530 0
2020-02-16 01:07:03 GMT 42.215942 -83.417976 37,000 100 532 0
2020-02-16 01:07:00 GMT 42.217484 -83.429054 37,000 99 532 0
2020-02-16 01:06:56 GMT 42.219086 -83.441788 37,000 98 533 0
2020-02-16 01:06:53 GMT 42.219955 -83.449966 37,000 96 534 0
2020-02-16 01:06:49 GMT 42.221157 -83.463516 37,000 82 540 0
2020-02-16 01:06:46 GMT 42.222462 -83.484085 37,000 92 536 0
2020-02-16 01:06:43 GMT 42.222462 -83.484085 37,000 89 539 0
2020-02-16 01:06:37 GMT 42.223110 -83.502480 37,000 90 538 0
2020-02-16 01:06:34 GMT 42.223251 -83.513824 37,000 89 539 0
2020-02-16 01:06:31 GMT 42.223206 -83.521896 37,000 89 539 0
2020-02-16 01:06:26 GMT 42.222134 -83.553711 37,000 86 540 -64
2020-02-16 01:06:22 GMT 42.222134 -83.553711 37,000 85 540 -64
2020-02-16 01:06:18 GMT 42.221203 -83.567444 37,000 82 540 0
2020-02-16 01:06:15 GMT 42.219387 -83.586792 37,000 81 540 0
2020-02-16 01:06:08 GMT 42.217808 -83.601738 37,000 81 540 0
2020-02-16 01:06:03 GMT 42.214142 -83.636665 37,000 82 540 0
2020-02-16 01:05:57 GMT 42.214142 -83.636665 37,000 82 540 0
2020-02-16 01:05:53 GMT 42.212448 -83.652962 37,000 82 540 0
2020-02-16 01:05:50 GMT 42.211613 -83.660950 37,000 82 540 0
2020-02-16 01:05:46 GMT 42.210217 -83.674622 37,000 82 540 0
2020-02-16 01:05:42 GMT 42.208679 -83.689247 37,000 82 540 0
2020-02-16 01:05:35 GMT 42.206497 -83.710205 37,000 82 540 64
2020-02-16 01:05:31 GMT 42.205032 -83.723808 37,000 81 540 0
2020-02-16 01:05:28 GMT 42.203705 -83.736794 37,000 81 540 0
2020-02-16 01:05:25 GMT 42.202908 -83.744118 37,000 81 540 0
2020-02-16 01:05:19 GMT 42.200813 -83.764107 37,000 81 540 0
2020-02-16 01:05:16 GMT 42.199696 -83.774773 37,000 81 540 0
2020-02-16 01:05:13 GMT 42.197479 -83.795723 37,000 81 541 0
2020-02-16 01:05:10 GMT 42.197479 -83.795723 37,000 81 541 0
2020-02-16 01:05:07 GMT 42.196609 -83.804085 37,000 81 541 0
2020-02-16 01:05:03 GMT 42.193691 -83.831688 37,000 81 541 0
2020-02-16 01:04:59 GMT 42.193691 -83.831688 37,000 81 541 0
2020-02-16 01:04:56 GMT 42.192856 -83.839729 37,000 81 541 0
2020-02-16 01:04:51 GMT 42.191299 -83.854332 37,000 81 541 0
2020-02-16 01:04:47 GMT 42.189468 -83.872002 37,000 81 541 64
2020-02-16 01:04:44 GMT 42.188431 -83.882019 37,000 81 541 0
2020-02-16 01:04:39 GMT 42.185532 -83.909393 37,000 81 542 0
2020-02-16 01:04:35 GMT 42.185532 -83.909393 37,000 81 542 0
2020-02-16 01:04:32 GMT 42.184196 -83.922066 37,000 81 542 64
2020-02-16 01:04:28 GMT 42.182785 -83.935425 37,000 81 542 0
2020-02-16 01:04:21 GMT 42.180542 -83.956772 37,000 81 542 0
2020-02-16 01:04:18 GMT 42.178982 -83.971123 37,000 81 542 0
2020-02-16 01:04:13 GMT 42.177353 -83.986839 37,000 81 542 0
2020-02-16 01:04:10 GMT 42.175720 -84.001846 37,000 81 542 0
2020-02-16 01:04:04 GMT 42.174187 -84.016541 37,000 81 542 0
2020-02-16 01:04:00 GMT 42.173035 -84.027184 37,000 81 542 0
2020-02-16 01:03:54 GMT 42.170700 -84.048592 37,000 81 542 -64
2020-02-16 01:03:51 GMT 42.170013 -84.055275 37,000 81 542 -64
2020-02-16 01:03:47 GMT 42.168457 -84.069321 37,000 81 542 0
2020-02-16 01:03:43 GMT 42.166645 -84.085968 37,000 81 542 0
2020-02-16 01:03:40 GMT 42.165482 -84.096321 37,000 81 542 0
2020-02-16 01:03:32 GMT 42.162735 -84.121063 37,000 81 543 0
2020-02-16 01:03:28 GMT 42.161453 -84.132736 37,000 81 543 0
2020-02-16 01:03:25 GMT 42.159756 -84.148117 37,000 81 543 0
2020-02-16 01:03:22 GMT 42.158707 -84.157455 37,000 81 543 0
2020-02-16 01:03:18 GMT 42.157242 -84.170815 37,000 81 543 0
2020-02-16 01:03:14 GMT 42.156170 -84.180504 37,000 81 543 0
2020-02-16 01:03:11 GMT 42.154907 -84.191917 37,000 81 543 0
2020-02-16 01:03:07 GMT 42.153717 -84.202965 37,000 81 543 0
2020-02-16 01:03:04 GMT 42.150677 -84.230392 37,000 81 543 -64
2020-02-16 01:03:00 GMT 42.150677 -84.230392 37,000 81 543 -64
2020-02-16 01:02:57 GMT 42.149597 -84.240417 37,000 81 543 -64
2020-02-16 01:02:53 GMT 42.147125 -84.263138 37,000 81 543 0
2020-02-16 01:02:50 GMT 42.146210 -84.271507 37,000 81 543 0
2020-02-16 01:02:47 GMT 42.145386 -84.278870 37,000 81 543 0
2020-02-16 01:02:40 GMT 42.143509 -84.295921 37,000 81 543 0
2020-02-16 01:02:37 GMT 42.140762 -84.320946 37,000 81 543 0
2020-02-16 01:02:33 GMT 42.140762 -84.320946 37,000 81 543 0
2020-02-16 01:02:29 GMT 42.139877 -84.329010 37,000 81 543 0
2020-02-16 01:02:26 GMT 42.137596 -84.349709 37,000 81 543 0
2020-02-16 01:02:20 GMT 42.136505 -84.359772 37,000 85 544 0
2020-02-16 01:02:17 GMT 42.134857 -84.374809 37,000 81 544 0
2020-02-16 01:02:13 GMT 42.133896 -84.383179 37,000 81 545 0
2020-02-16 01:02:09 GMT 42.131962 -84.400612 37,000 81 545 0
2020-02-16 01:02:06 GMT 42.130829 -84.410645 37,000 81 545 0
2020-02-16 01:02:02 GMT 42.129684 -84.421005 37,000 81 545 0
2020-02-16 01:01:59 GMT 42.128380 -84.434082 37,000 83 544 -64
2020-02-16 01:01:56 GMT 42.127354 -84.445839 37,000 84 544 -64
2020-02-16 01:01:53 GMT 42.125866 -84.468765 37,000 86 544 0
2020-02-16 01:01:48 GMT 42.125866 -84.468765 37,000 86 544 0
2020-02-16 01:01:42 GMT 42.125107 -84.486671 37,000 88 544 0
2020-02-16 01:01:38 GMT 42.124702 -84.504219 37,000 89 544 0
2020-02-16 01:01:31 GMT 42.124832 -84.530243 37,000 91 543 0
2020-02-16 01:01:27 GMT 42.125015 -84.538673 37,000 91 543 -64
2020-02-16 01:01:23 GMT 42.125446 -84.556534 37,000 91 543 0
2020-02-16 01:01:19 GMT 42.125633 -84.565987 37,000 91 543 0
2020-02-16 01:01:16 GMT 42.125839 -84.575439 37,000 91 543 0
2020-02-16 01:01:12 GMT 42.126144 -84.591919 37,000 91 543 0
2020-02-16 01:01:07 GMT 42.126469 -84.608459 37,000 91 543 0
2020-02-16 01:01:01 GMT 42.126892 -84.629684 37,000 91 543 0
2020-02-16 01:00:57 GMT 42.127308 -84.654640 37,000 91 543 0
2020-02-16 01:00:54 GMT 42.127308 -84.654640 37,000 91 543 0
2020-02-16 01:00:50 GMT 42.127495 -84.665436 37,000 91 543 0
2020-02-16 01:00:46 GMT 42.127670 -84.678246 37,000 91 543 0
2020-02-16 01:00:42 GMT 42.127808 -84.688736 37,000 91 543 0
2020-02-16 01:00:38 GMT 42.128006 -84.702545 37,000 91 543 0
2020-02-16 01:00:35 GMT 42.128174 -84.715385 37,000 91 543 0
2020-02-16 01:00:30 GMT 42.128448 -84.733620 37,000 91 544 0
2020-02-16 01:00:27 GMT 42.128517 -84.740044 37,000 91 543 0
2020-02-16 01:00:23 GMT 42.128750 -84.756905 37,000 91 543 0
2020-02-16 01:00:18 GMT 42.129044 -84.775124 37,000 91 543 64
2020-02-16 01:00:12 GMT 42.129311 -84.791649 37,000 91 543 128
2020-02-16 01:00:09 GMT 42.129547 -84.805840 36,975 91 544 128
2020-02-16 01:00:05 GMT 42.129822 -84.820007 36,975 91 544 64
2020-02-16 01:00:00 GMT 42.130142 -84.835548 36,975 91 544 128
2020-02-16 00:59:56 GMT 42.130379 -84.849396 36,950 91 543 320
2020-02-16 00:59:49 GMT 42.130737 -84.869637 36,925 91 542 256
2020-02-16 00:59:46 GMT 42.130894 -84.877686 36,925 91 538 192
2020-02-16 00:59:43 GMT 42.131104 -84.889107 36,900 91 540 192
2020-02-16 00:59:40 GMT 42.131359 -84.902534 36,900 91 539 256
2020-02-16 00:59:37 GMT 42.131561 -84.913208 36,875 91 538 128
2020-02-16 00:59:32 GMT 42.131790 -84.925941 36,875 91 537 0
2020-02-16 00:59:29 GMT 42.132019 -84.939545 36,775 91 535 256
2020-02-16 00:59:25 GMT 42.132240 -84.952866 36,825 91 534 512
2020-02-16 00:59:22 GMT 42.132336 -84.957848 36,825 91 534 640
2020-02-16 00:59:18 GMT 42.132614 -84.976051 36,450 91 530 576
2020-02-16 00:59:15 GMT 42.132710 -84.981674 36,450 91 530 576
2020-02-16 00:59:12 GMT 42.132935 -84.994293 35,825 90 529 832
2020-02-16 00:59:08 GMT 42.133125 -85.007477 36,650 91 532 704
2020-02-16 00:59:03 GMT 42.133347 -85.025688 36,575 91 532 704
2020-02-16 00:59:00 GMT 42.133484 -85.034927 36,550 91 531 704
2020-02-16 00:58:56 GMT 42.133759 -85.055344 36,500 91 530 704
2020-02-16 00:58:53 GMT 42.133759 -85.055344 36,475 91 530 704
2020-02-16 00:58:49 GMT 42.133987 -85.069824 36,425 91 530 576
2020-02-16 00:58:45 GMT 42.134151 -85.083679 36,350 90 529 704
2020-02-16 00:58:42 GMT 42.134293 -85.093842 35,825 90 529 832
2020-02-16 00:58:38 GMT 42.134476 -85.108597 36,100 90 529 1088
2020-02-16 00:58:32 GMT 42.134754 -85.128326 36,175 90 529 1088
2020-02-16 00:58:29 GMT 42.134857 -85.137489 36,100 90 529 1088
2020-02-16 00:58:25 GMT 42.135132 -85.158524 36,000 90 528 1024
2020-02-16 00:58:22 GMT 42.135132 -85.158524 36,000 91 528 1088
2020-02-16 00:58:19 GMT 42.135315 -85.171638 35,925 91 529 1216
2020-02-16 00:58:16 GMT 42.135406 -85.177879 35,925 91 529 1280
2020-02-16 00:58:11 GMT 42.135689 -85.197250 35,775 91 529 1280
2020-02-16 00:58:08 GMT 42.135818 -85.206467 35,700 91 529 1344
2020-02-16 00:58:04 GMT 42.135967 -85.218330 35,625 91 530 1344
2020-02-16 00:58:00 GMT 42.136139 -85.230812 35,575 91 530 1344
2020-02-16 00:57:56 GMT 42.136368 -85.244980 35,450 91 530 1408
2020-02-16 00:57:53 GMT 42.136688 -85.266083 35,350 91 531 1600
2020-02-16 00:57:50 GMT 42.136688 -85.266083 35,275 91 531 1664
2020-02-16 00:57:46 GMT 42.136852 -85.277924 35,175 91 532 1792
2020-02-16 00:57:42 GMT 42.137009 -85.287178 35,025 91 533 1792
2020-02-16 00:57:39 GMT 42.137177 -85.299767 35,025 91 533 1792
2020-02-16 00:57:35 GMT 42.137375 -85.313332 34,850 90 535 1856
2020-02-16 00:57:31 GMT 42.137558 -85.329002 34,700 90 536 1856
2020-02-16 00:57:28 GMT 42.137695 -85.339615 34,600 90 536 1856
2020-02-16 00:57:24 GMT 42.137833 -85.351288 34,500 90 538 1856
2020-02-16 00:57:21 GMT 42.137924 -85.360336 34,425 90 538 1856
2020-02-16 00:57:18 GMT 42.138248 -85.387466 34,250 90 540 1408
2020-02-16 00:57:13 GMT 42.138248 -85.387466 34,200 90 540 1408
2020-02-16 00:57:10 GMT 42.138382 -85.397850 34,100 90 540 1472
2020-02-16 00:57:04 GMT 42.138714 -85.426682 33,925 90 541 1536
2020-02-16 00:57:01 GMT 42.138714 -85.426682 33,925 90 541 1472
2020-02-16 00:56:58 GMT 42.138851 -85.439842 33,700 90 541 1344
2020-02-16 00:56:53 GMT 42.138992 -85.452232 33,050 90 541 1216
2020-02-16 00:56:50 GMT 42.139114 -85.464020 33,650 90 541 1408
2020-02-16 00:56:47 GMT 42.139343 -85.484558 33,575 90 541 1536
2020-02-16 00:56:43 GMT 42.139458 -85.494644 33,500 90 542 1472
2020-02-16 00:56:40 GMT 42.139458 -85.494644 33,425 90 542 1408
2020-02-16 00:56:37 GMT 42.139618 -85.508774 33,350 90 542 1472
2020-02-16 00:56:34 GMT 42.139847 -85.530998 33,275 90 542 1792
2020-02-16 00:56:31 GMT 42.139847 -85.530998 33,150 90 543 1984
2020-02-16 00:56:28 GMT 42.139893 -85.539429 32,675 90 545 1792
2020-02-16 00:56:24 GMT 42.140030 -85.552597 32,925 90 545 1664
2020-02-16 00:56:21 GMT 42.140156 -85.562737 32,875 90 545 1536
2020-02-16 00:56:17 GMT 42.140247 -85.575317 32,750 90 546 1536
2020-02-16 00:56:14 GMT 42.140388 -85.586494 32,700 90 546 1600
2020-02-16 00:56:11 GMT 42.140442 -85.595291 32,650 90 546 1664
2020-02-16 00:56:07 GMT 42.140579 -85.611588 32,525 90 546 1664
2020-02-16 00:56:04 GMT 42.140717 -85.623444 32,475 90 547 1536
2020-02-16 00:56:01 GMT 42.140762 -85.631592 32,325 90 547 1536
2020-02-16 00:55:58 GMT 42.140854 -85.641800 32,175 90 547 1536
2020-02-16 00:55:55 GMT 42.140949 -85.650307 32,200 90 548 1664
2020-02-16 00:55:51 GMT 42.141041 -85.665955 31,975 90 547 1536
2020-02-16 00:55:45 GMT 42.141220 -85.688049 31,900 90 548 1664
2020-02-16 00:55:42 GMT 42.141312 -85.697914 31,825 90 548 1728
2020-02-16 00:55:38 GMT 42.141369 -85.708115 31,750 90 548 1728
2020-02-16 00:55:34 GMT 42.141495 -85.721077 31,625 90 549 1728
2020-02-16 00:55:31 GMT 42.141552 -85.733345 31,525 90 549 1536
2020-02-16 00:55:28 GMT 42.141647 -85.743950 31,450 90 549 1600
2020-02-16 00:55:25 GMT 42.141693 -85.752441 31,350 90 549 1536
2020-02-16 00:55:22 GMT 42.141785 -85.765091 31,300 90 549 1536
2020-02-16 00:55:18 GMT 42.141880 -85.778374 31,175 90 549 1792
2020-02-16 00:55:13 GMT 42.142017 -85.794090 30,275 90 549 1216
2020-02-16 00:55:10 GMT 42.142063 -85.806099 30,900 90 551 1728
2020-02-16 00:55:07 GMT 42.142159 -85.815292 30,850 90 551 1728
2020-02-16 00:55:04 GMT 42.142250 -85.826599 30,750 90 551 1792
2020-02-16 00:55:01 GMT 42.142300 -85.834137 30,700 90 551 1792
2020-02-16 00:54:57 GMT 42.142410 -85.850227 30,550 90 552 1472
2020-02-16 00:54:54 GMT 42.142456 -85.857094 30,450 90 552 1152
2020-02-16 00:54:51 GMT 42.142532 -85.869781 30,450 90 552 1152
2020-02-16 00:54:44 GMT 42.142731 -85.894798 30,200 90 551 1216
2020-02-16 00:54:41 GMT 42.142776 -85.903351 30,250 90 551 1152
2020-02-16 00:54:35 GMT 42.142914 -85.920830 30,150 90 550 1216
2020-02-16 00:54:32 GMT 42.142998 -85.936142 30,050 90 549 1216
2020-02-16 00:54:26 GMT 42.143135 -85.956268 29,925 90 549 1280
2020-02-16 00:54:23 GMT 42.143234 -85.965836 29,850 90 548 1280
2020-02-16 00:54:20 GMT 42.143280 -85.976379 29,775 90 548 1280
2020-02-16 00:54:17 GMT 42.143368 -85.985268 29,750 90 547 1152
2020-02-16 00:54:13 GMT 42.143463 -85.998482 29,675 90 546 1216
2020-02-16 00:54:09 GMT 42.143555 -86.011391 29,625 90 546 1216
2020-02-16 00:54:04 GMT 42.143646 -86.029381 29,500 90 545 1088
2020-02-16 00:54:00 GMT 42.143742 -86.041534 29,450 90 540 896
2020-02-16 00:53:57 GMT 42.143833 -86.054756 29,400 90 543 832
2020-02-16 00:53:54 GMT 42.143921 -86.064835 29,275 90 541 960
2020-02-16 00:53:51 GMT 42.143974 -86.071236 29,300 90 541 960
2020-02-16 00:53:48 GMT 42.144066 -86.085037 29,250 90 540 896
2020-02-16 00:53:43 GMT 42.144150 -86.099419 29,150 90 538 1024
2020-02-16 00:53:40 GMT 42.144207 -86.111481 29,100 90 537 1088
2020-02-16 00:53:37 GMT 42.144196 -86.122139 29,050 88 537 1088
2020-02-16 00:53:31 GMT 42.143784 -86.141487 28,975 87 536 768
2020-02-16 00:53:28 GMT 42.143509 -86.151466 28,950 87 532 960
2020-02-16 00:53:25 GMT 42.143322 -86.157402 28,900 87 527 1088
2020-02-16 00:53:21 GMT 42.142868 -86.172325 28,850 87 532 1024
2020-02-16 00:53:18 GMT 42.142578 -86.182892 28,775 87 530 832
2020-02-16 00:53:15 GMT 42.142204 -86.194389 28,700 87 529 768
2020-02-16 00:53:11 GMT 42.141907 -86.204285 28,675 87 528 960
2020-02-16 00:53:08 GMT 42.141598 -86.215401 28,600 87 527 1088
2020-02-16 00:53:05 GMT 42.141220 -86.227821 28,575 87 521 320
2020-02-16 00:53:00 GMT 42.140808 -86.240555 28,525 87 524 384
2020-02-16 00:52:57 GMT 42.140434 -86.253532 26,375 87 521 320
2020-02-16 00:52:53 GMT 42.140018 -86.266121 28,500 87 518 512
2020-02-16 00:52:50 GMT 42.139786 -86.273529 28,475 87 517 448
2020-02-16 00:52:47 GMT 42.139343 -86.287308 28,450 87 515 128
2020-02-16 00:52:43 GMT 42.139023 -86.298172 28,425 87 510 320
2020-02-16 00:52:38 GMT 42.138527 -86.313637 27,075 87 507 2112
2020-02-16 00:52:34 GMT 42.137970 -86.331001 26,375 87 507 1920
2020-02-16 00:52:29 GMT 42.137737 -86.338867 28,200 87 507 2112
2020-02-16 00:52:26 GMT 42.137318 -86.352089 28,000 87 507 1920
2020-02-16 00:52:23 GMT 42.136871 -86.365959 27,875 87 507 1920
2020-02-16 00:52:19 GMT 42.136620 -86.374191 27,775 87 507 1920
2020-02-16 00:52:16 GMT 42.136276 -86.384247 27,750 87 507 1984
2020-02-16 00:52:13 GMT 42.136105 -86.390541 27,475 87 507 1920
2020-02-16 00:52:09 GMT 42.135593 -86.405365 27,450 87 507 1920
2020-02-16 00:52:06 GMT 42.135315 -86.414841 26,375 87 501 1600
2020-02-16 00:52:03 GMT 42.135036 -86.422989 26,375 87 501 1600
2020-02-16 00:51:58 GMT 42.134571 -86.437172 27,125 87 506 1536
2020-02-16 00:51:55 GMT 42.134151 -86.448799 26,450 87 505 1472
2020-02-16 00:51:51 GMT 42.133804 -86.459717 27,025 87 505 1472
2020-02-16 00:51:48 GMT 42.133408 -86.471024 26,900 87 503 1536
2020-02-16 00:51:45 GMT 42.133072 -86.481628 26,800 87 502 1536
2020-02-16 00:51:42 GMT 42.132843 -86.488182 26,775 87 502 1536
2020-02-16 00:51:36 GMT 42.132248 -86.505974 26,625 87 501 1536
2020-02-16 00:51:32 GMT 42.131729 -86.521805 26,325 87 498 1536
2020-02-16 00:51:28 GMT 42.131359 -86.532661 26,300 87 497 1600
2020-02-16 00:51:25 GMT 42.130646 -86.553352 26,275 87 497 1600
2020-02-16 00:51:20 GMT 42.130646 -86.553352 26,225 87 497 1600
2020-02-16 00:51:17 GMT 42.130280 -86.564148 26,125 87 496 1600
2020-02-16 00:51:14 GMT 42.129776 -86.578011 26,000 87 495 1664
2020-02-16 00:51:11 GMT 42.129543 -86.584785 25,950 87 494 1664
2020-02-16 00:51:06 GMT 42.128983 -86.601395 25,800 87 493 1728
2020-02-16 00:51:02 GMT 42.128677 -86.610535 25,725 87 492 1792
2020-02-16 00:50:58 GMT 42.128174 -86.624016 25,475 87 491 1856
2020-02-16 00:50:55 GMT 42.127773 -86.635628 25,475 87 491 1856
2020-02-16 00:50:51 GMT 42.127541 -86.643227 25,400 87 491 1856
2020-02-16 00:50:48 GMT 42.127167 -86.653320 25,275 87 490 1856
2020-02-16 00:50:45 GMT 42.126755 -86.665459 25,125 87 489 1984
2020-02-16 00:50:42 GMT 42.126389 -86.674889 25,050 87 489 1984
2020-02-16 00:50:38 GMT 42.125866 -86.690109 24,900 87 488 1984
2020-02-16 00:50:34 GMT 42.125336 -86.706161 24,650 87 487 1984
2020-02-16 00:50:28 GMT 42.125072 -86.712791 24,650 87 487 1984
2020-02-16 00:50:24 GMT 42.124466 -86.730072 24,425 87 487 2176
2020-02-16 00:50:21 GMT 42.124142 -86.739746 24,325 87 487 2176
2020-02-16 00:50:18 GMT 42.123955 -86.745491 24,250 87 485 2304
2020-02-16 00:50:15 GMT 42.123596 -86.755791 24,025 87 486 2176
2020-02-16 00:50:12 GMT 42.123138 -86.769333 24,025 87 486 2240
2020-02-16 00:50:09 GMT 42.122955 -86.774452 23,900 87 485 2432
2020-02-16 00:50:02 GMT 42.122223 -86.794365 23,625 87 485 2368
2020-02-16 00:49:58 GMT 42.121353 -86.819023 23,150 87 484 2240
2020-02-16 00:49:54 GMT 42.121353 -86.819023 23,325 87 484 2368
2020-02-16 00:49:50 GMT 42.120884 -86.831657 23,150 87 484 2176
2020-02-16 00:49:46 GMT 42.120419 -86.844879 23,075 87 483 2240
2020-02-16 00:49:42 GMT 42.120071 -86.855103 22,850 87 482 2112
2020-02-16 00:49:38 GMT 42.119614 -86.868584 22,725 87 482 2048
2020-02-16 00:49:34 GMT 42.119156 -86.881134 22,600 87 481 1984
2020-02-16 00:49:31 GMT 42.118977 -86.886780 22,425 87 480 1984
2020-02-16 00:49:26 GMT 42.118462 -86.901093 22,375 87 478 1984
2020-02-16 00:49:23 GMT 42.118092 -86.910927 22,200 87 477 1856
2020-02-16 00:49:20 GMT 42.117874 -86.916840 22,175 87 476 1856
2020-02-16 00:49:17 GMT 42.117485 -86.928619 22,075 87 475 1792
2020-02-16 00:49:14 GMT 42.117233 -86.935684 21,975 87 473 1792
2020-02-16 00:49:11 GMT 42.116928 -86.943375 21,900 87 471 1792
2020-02-16 00:49:08 GMT 42.116276 -86.961197 21,750 87 469 1856
2020-02-16 00:49:00 GMT 42.115631 -86.979507 21,525 87 465 1600
2020-02-16 00:48:56 GMT 42.115250 -86.989365 21,400 87 464 1472
2020-02-16 00:48:53 GMT 42.114552 -87.008911 21,325 88 456 2048
2020-02-16 00:48:50 GMT 42.114552 -87.008911 21,250 87 459 1920
2020-02-16 00:48:47 GMT 42.114029 -87.022896 21,100 87 458 1984
2020-02-16 00:48:41 GMT 42.113575 -87.040207 20,925 88 456 2048
2020-02-16 00:48:38 GMT 42.113525 -87.049858 20,850 89 455 2048
2020-02-16 00:48:34 GMT 42.113525 -87.049858 20,775 91 453 2176
2020-02-16 00:48:30 GMT 42.113663 -87.062531 20,550 92 451 2368
2020-02-16 00:48:27 GMT 42.113983 -87.073708 20,450 92 450 2368
2020-02-16 00:48:24 GMT 42.114365 -87.082108 20,350 93 449 2304
2020-02-16 00:48:21 GMT 42.114807 -87.090187 20,225 96 447 2304
2020-02-16 00:48:18 GMT 42.115402 -87.098175 20,125 96 446 2368
2020-02-16 00:48:15 GMT 42.117252 -87.120750 19,900 96 444 2432
2020-02-16 00:48:09 GMT 42.118092 -87.130905 19,725 96 443 2432
2020-02-16 00:48:06 GMT 42.118092 -87.130905 19,625 96 443 2368
2020-02-16 00:48:03 GMT 42.118511 -87.136147 19,575 96 442 2368
2020-02-16 00:48:00 GMT 42.119202 -87.144302 18,925 96 438 2368
2020-02-16 00:47:57 GMT 42.120712 -87.162842 19,175 96 439 2432
2020-02-16 00:47:50 GMT 42.122131 -87.180756 18,975 96 438 2368
2020-02-16 00:47:47 GMT 42.122131 -87.180756 18,675 96 433 2368
2020-02-16 00:47:43 GMT 42.123001 -87.191307 18,550 96 436 2304
2020-02-16 00:47:39 GMT 42.124702 -87.212791 18,550 96 433 2368
2020-02-16 00:47:36 GMT 42.124702 -87.212791 18,450 96 432 2368
2020-02-16 00:47:33 GMT 42.125244 -87.219208 18,075 96 428 2432
2020-02-16 00:47:28 GMT 42.126480 -87.234627 18,125 96 429 2432
2020-02-16 00:47:25 GMT 42.126888 -87.239685 17,850 96 428 2432
2020-02-16 00:47:22 GMT 42.127728 -87.250290 17,875 96 427 2432
2020-02-16 00:47:19 GMT 42.128403 -87.258476 17,750 96 426 2432
2020-02-16 00:47:15 GMT 42.129135 -87.267960 17,500 96 425 2496
2020-02-16 00:47:12 GMT 42.129730 -87.275070 17,475 96 424 2688
2020-02-16 00:47:06 GMT 42.131058 -87.291557 17,225 96 423 2752
2020-02-16 00:47:02 GMT 42.131683 -87.299408 17,100 96 423 2752
2020-02-16 00:46:59 GMT 42.132614 -87.310905 16,875 96 422 2880
2020-02-16 00:46:56 GMT 42.133026 -87.315842 16,175 96 421 2880
2020-02-16 00:46:52 GMT 42.134079 -87.328888 16,525 96 421 2752
2020-02-16 00:46:47 GMT 42.134949 -87.339500 16,325 96 420 2880
2020-02-16 00:46:44 GMT 42.135593 -87.347313 16,175 96 420 2944
2020-02-16 00:46:41 GMT 42.136292 -87.355873 15,800 96 419 2560
2020-02-16 00:46:37 GMT 42.137737 -87.374016 15,825 96 416 2176
2020-02-16 00:46:34 GMT 42.137737 -87.374016 15,700 96 416 2112
2020-02-16 00:46:30 GMT 42.138435 -87.382957 15,550 95 412 2304
2020-02-16 00:46:26 GMT 42.139252 -87.393181 15,475 95 412 2304
2020-02-16 00:46:23 GMT 42.140076 -87.403854 15,325 96 409 2048
2020-02-16 00:46:20 GMT 42.140488 -87.408913 14,475 95 393 2560
2020-02-16 00:46:15 GMT 42.141586 -87.423515 15,025 95 404 2048
2020-02-16 00:46:12 GMT 42.142483 -87.435204 14,900 95 402 2176
2020-02-16 00:46:09 GMT 42.142483 -87.435204 14,850 95 400 2240
2020-02-16 00:46:06 GMT 42.143044 -87.442421 14,600 95 396 2304
2020-02-16 00:46:03 GMT 42.144608 -87.463280 14,525 95 394 2432
2020-02-16 00:45:59 GMT 42.144608 -87.463280 14,450 95 394 2496
2020-02-16 00:45:55 GMT 42.145111 -87.469833 14,325 95 391 2752
2020-02-16 00:45:52 GMT 42.145744 -87.478065 14,175 95 391 2752
2020-02-16 00:45:49 GMT 42.146255 -87.484879 14,075 95 390 2304
2020-02-16 00:45:45 GMT 42.147034 -87.495239 13,925 95 385 1088
2020-02-16 00:45:42 GMT 42.147511 -87.501884 13,875 95 375 1024
2020-02-16 00:45:38 GMT 42.148209 -87.510834 13,850 95 375 1024
2020-02-16 00:45:35 GMT 42.148865 -87.519646 13,775 95 371 960
2020-02-16 00:45:32 GMT 42.149506 -87.528137 13,725 96 360 704
2020-02-16 00:45:28 GMT 42.150166 -87.536697 13,675 96 360 768
2020-02-16 00:45:24 GMT 42.150696 -87.543373 13,650 96 357 1024
2020-02-16 00:45:21 GMT 42.151421 -87.552544 13,600 96 353 1536
2020-02-16 00:45:17 GMT 42.151932 -87.558975 13,425 96 346 2112
2020-02-16 00:45:11 GMT 42.152985 -87.571152 13,225 96 342 2432
2020-02-16 00:45:08 GMT 42.153442 -87.576454 13,125 97 340 2880
2020-02-16 00:45:05 GMT 42.154358 -87.585876 12,875 97 339 3328
2020-02-16 00:45:01 GMT 42.155285 -87.594826 12,650 98 338 3200
2020-02-16 00:44:57 GMT 42.156097 -87.601921 12,550 98 338 3200
2020-02-16 00:44:54 GMT 42.157894 -87.615326 12,225 100 336 3456
2020-02-16 00:44:50 GMT 42.157894 -87.615326 11,950 101 336 3520
2020-02-16 00:44:46 GMT 42.158981 -87.622711 11,900 101 336 3520
2020-02-16 00:44:43 GMT 42.160034 -87.629059 11,775 103 335 3456
2020-02-16 00:44:40 GMT 42.161057 -87.634933 11,300 103 334 3328
2020-02-16 00:44:37 GMT 42.162506 -87.643242 11,300 102 334 3392
2020-02-16 00:44:34 GMT 42.163525 -87.649307 11,125 102 333 3520
2020-02-16 00:44:30 GMT 42.164875 -87.657616 10,875 102 333 3520
2020-02-16 00:44:26 GMT 42.166901 -87.670029 10,150 101 332 2496
2020-02-16 00:44:23 GMT 42.168087 -87.678116 10,400 100 331 2432
2020-02-16 00:44:19 GMT 42.168087 -87.678116 10,400 100 331 2304
2020-02-16 00:44:15 GMT 42.169811 -87.692680 10,150 98 325 2496
2020-02-16 00:44:09 GMT 42.170464 -87.698875 9,875 98 323 2432
2020-02-16 00:44:06 GMT 42.171253 -87.706604 9,825 95 319 2688
2020-02-16 00:44:02 GMT 42.171627 -87.712357 9,700 93 318 2944
2020-02-16 00:43:59 GMT 42.171799 -87.719841 9,550 89 318 3456
2020-02-16 00:43:56 GMT 42.171673 -87.725380 9,175 83 318 3072
2020-02-16 00:43:49 GMT 42.173981 -87.747063 7,400 41 284 3488
2020-02-16 00:43:46 GMT 42.168041 -87.754044 7,400 41 284 3488
2020-02-16 00:43:43 GMT 42.168041 -87.754044 7,400 41 284 3488
2020-02-16 00:43:40 GMT 42.165070 -87.757523 7,400 41 284 3488
2020-02-16 00:43:37 GMT 42.162102 -87.761009 7,400 41 284 3488
2020-02-16 00:43:34 GMT 42.159119 -87.764503 7,400 41 284 3488
2020-02-16 00:43:31 GMT 42.156151 -87.767982 7,400 41 284 3488
2020-02-16 00:43:28 GMT 42.153179 -87.771469 7,400 41 284 3488
2020-02-16 00:43:25 GMT 42.150200 -87.774948 7,400 41 284 3488
2020-02-16 00:43:22 GMT 42.144119 -87.781967 7,400 41 284 3488
2020-02-16 00:43:19 GMT 42.144119 -87.781967 7,200 41 282 3488
2020-02-16 00:43:16 GMT 42.141178 -87.785439 7,200 41 282 3488
2020-02-16 00:43:13 GMT 42.138302 -87.788933 6,900 41 282 3488
2020-02-16 00:43:10 GMT 42.135361 -87.792313 6,500 41 283 3488
2020-02-16 00:43:07 GMT 42.132336 -87.795769 6,500 41 283 3488
2020-02-16 00:43:04 GMT 42.129265 -87.799286 6,450 40 284 4160
2020-02-16 00:43:01 GMT 42.126419 -87.802879 6,000 41 280 448
2020-02-16 00:42:58 GMT 42.123489 -87.806320 6,000 41 280 448
2020-02-16 00:42:55 GMT 42.120579 -87.809662 5,700 41 281 448
2020-02-16 00:42:52 GMT 42.117649 -87.813118 5,700 41 281 448
2020-02-16 00:42:49 GMT 42.114700 -87.816544 5,300 41 282 448
2020-02-16 00:42:46 GMT 42.111671 -87.819977 5,300 41 281 448
2020-02-16 00:42:43 GMT 42.108761 -87.823463 5,300 41 281 448
2020-02-16 00:42:40 GMT 42.105770 -87.826920 5,200 41 279 448
2020-02-16 00:42:37 GMT 42.102909 -87.830421 5,200 41 279 448
2020-02-16 00:42:34 GMT 42.099972 -87.833969 5,000 41 277 448
2020-02-16 00:42:31 GMT 42.097111 -87.837532 5,000 41 276 448
2020-02-16 00:42:28 GMT 42.094360 -87.840828 5,000 41 279 448
2020-02-16 00:42:25 GMT 42.091339 -87.844330 5,000 41 276 448
2020-02-16 00:42:22 GMT 42.088459 -87.847618 4,900 41 277 0
2020-02-16 00:42:19 GMT 42.085678 -87.851028 4,900 41 277 0
2020-02-16 00:42:16 GMT 42.082691 -87.854553 4,900 41 276 -288
2020-02-16 00:42:13 GMT 42.079731 -87.857948 4,900 41 279 -288
2020-02-16 00:42:10 GMT 42.077049 -87.861023 4,900 42 285 -288
2020-02-16 00:42:07 GMT 42.074039 -87.864578 4,900 42 280 -288
2020-02-16 00:42:04 GMT 42.071209 -87.868118 4,900 41 277 -288
2020-02-16 00:42:01 GMT 42.068371 -87.871597 4,900 41 277 -32
2020-02-16 00:41:58 GMT 42.065460 -87.875282 4,900 40 266 -32
2020-02-16 00:41:55 GMT 42.062580 -87.879143 4,900 39 261 -32
2020-02-16 00:41:52 GMT 42.059841 -87.882118 4,900 38 253 -32
2020-02-16 00:41:49 GMT 42.057014 -87.885002 4,900 39 248 -224
2020-02-16 00:41:46 GMT 42.051579 -87.891228 4,800 41 264 640
2020-02-16 00:41:43 GMT 42.051579 -87.891228 4,800 41 265 -224
2020-02-16 00:41:40 GMT 42.049141 -87.894127 4,800 41 266 -224
2020-02-16 00:41:37 GMT 42.046551 -87.897339 4,800 42 257 -224
2020-02-16 00:41:34 GMT 42.043510 -87.900681 4,800 42 255 -32
2020-02-16 00:41:31 GMT 42.041069 -87.903923 4,800 41 267 -32
2020-02-16 00:41:28 GMT 42.035248 -87.910973 4,700 42 262 -32
2020-02-16 00:41:22 GMT 42.030201 -87.916718 4,700 44 246 -32
2020-02-16 00:41:19 GMT 42.030201 -87.916718 4,700 41 262 96
2020-02-16 00:41:16 GMT 42.027500 -87.920326 4,700 41 251 192
2020-02-16 00:41:13 GMT 42.025490 -87.923058 4,700 41 246 512
2020-02-16 00:41:10 GMT 42.022469 -87.925972 4,600 47 228 1120
2020-02-16 00:41:07 GMT 42.020721 -87.929207 4,525 41 242 1120
2020-02-16 00:41:04 GMT 42.015572 -87.934898 4,400 40 230 416
2020-02-16 00:41:01 GMT 42.015572 -87.934898 4,400 44 218 416
2020-02-16 00:40:58 GMT 42.013351 -87.937767 4,100 39 221 416
2020-02-16 00:40:55 GMT 42.010792 -87.940269 4,100 44 215 416
2020-02-16 00:40:52 GMT 42.008709 -87.943069 3,700 42 217 416
2020-02-16 00:40:49 GMT 42.006390 -87.945610 3,700 43 216 416
2020-02-16 00:40:46 GMT 42.004101 -87.948257 3,475 41 224 416
2020-02-16 00:40:43 GMT 42.001659 -87.950943 3,100 31 228 416
2020-02-16 00:40:40 GMT 41.999050 -87.953247 3,075 26 226 416
2020-02-16 00:40:37 GMT 41.996262 -87.955109 2,900 20 224 416
2020-02-16 00:40:34 GMT 41.993401 -87.956383 2,825 12 216 416
2020-02-16 00:40:31 GMT 41.990509 -87.957207 2,700 8 212 416
2020-02-16 00:40:28 GMT 41.987659 -87.957619 2,700 4 208 416
2020-02-16 00:40:25 GMT 41.984890 -87.957619 2,500 348 193 -2400
2020-02-16 00:40:22 GMT 41.982262 -87.957062 2,500 343 190 3904
2020-02-16 00:40:19 GMT 41.979790 -87.956108 2,300 338 186 3904
2020-02-16 00:40:16 GMT 41.977482 -87.954720 2,200 327 170 3904
2020-02-16 00:40:13 GMT 41.975498 -87.953041 2,200 323 167 3904
2020-02-16 00:40:10 GMT 41.973770 -87.951141 2,000 316 165 3904
2020-02-16 00:40:07 GMT 41.972290 -87.948929 2,000 305 160 3904
2020-02-16 00:40:04 GMT 41.971142 -87.946472 1,700 300 159 3904
2020-02-16 00:40:01 GMT 41.970200 -87.943863 1,500 281 152 160
2020-02-16 00:39:58 GMT 41.969620 -87.941170 1,425 277 153 160
2020-02-16 00:39:55 GMT 41.969311 -87.937378 1,200 271 154 160
2020-02-16 00:39:52 GMT 41.969238 -87.935471 1,100 270 155 160
2020-02-16 00:39:49 GMT 41.969219 -87.932533 725 270 159 160
2020-02-16 00:39:46 GMT 41.969189 -87.929581 725 270 161 160
2020-02-16 00:39:43 GMT 41.969151 -87.926559 725 271 163 160
2020-02-16 00:39:40 GMT 41.969059 -87.920547 575 270 164 128
2020-02-16 00:39:37 GMT 41.969059 -87.920547 575 270 158 128
2020-02-16 00:39:34 GMT 41.969040 -87.917618 575 270 153 128
2020-02-16 00:39:31 GMT 41.969051 -87.914810 575 270 147 128
2020-02-16 00:39:28 GMT 41.969028 -87.912178 575 269 135 0
2020-02-16 00:39:25 GMT 41.969051 -87.909721 575 270 129 0
2020-02-16 00:39:22 GMT 41.969021 -87.905357 575 270 110 32
2020-02-16 00:39:19 GMT 41.969021 -87.905357 575 268 100 -64
2020-02-16 00:39:16 GMT 41.969028 -87.903442 575 269 95
2020-02-16 00:39:13 GMT 41.969051 -87.901711 0 269 88
2020-02-16 00:39:10 GMT 41.969051 -87.900230 0 270 72
2020-02-16 00:39:07 GMT 41.969051 -87.898956 0 270 63
2020-02-16 00:39:04 GMT 41.969021 -87.897858 0 267 45
2020-02-16 00:39:01 GMT 41.969028 -87.897079 0 269 34
2020-02-16 00:38:58 GMT 41.969059 -87.896217 0 272 6
2020-02-16 00:38:55 GMT 41.969059 -87.896217 0 276 3
2020-02-16 00:38:52 GMT 41.969090 -87.896156 0 280 2
2020-02-16 00:38:49 GMT 41.969059 -87.896118 0 279 1
2020-02-16 00:38:46 GMT 41.969070 -87.896103 0 283 1
2020-02-16 00:38:43 GMT 41.969090 -87.896118 0 291 2
2020-02-16 00:38:40 GMT 41.969082 -87.896111 0 294 1
2020-02-16 00:38:37 GMT 41.969051 -87.896072 0 282 5
2020-02-16 00:38:34 GMT 41.969051 -87.896072 0 263 6
2020-02-16 00:38:31 GMT 41.969051 -87.895981 0 262 5
2020-02-16 00:38:28 GMT 41.969051 -87.895866 0 249 5
2020-02-16 00:38:25 GMT 41.969082 -87.895790 0 239 5
2020-02-16 00:38:22 GMT 41.969090 -87.895699 0 222 5
2020-02-16 00:38:19 GMT 41.969131 -87.895592 0 185 5
2020-02-16 00:38:16 GMT 41.969189 -87.895561 0 176 8
2020-02-16 00:38:13 GMT 41.969311 -87.895569 0 179 8
2020-02-16 00:38:10 GMT 41.969421 -87.895561 0 176 9
2020-02-16 00:38:07 GMT 41.969528 -87.895576 0 181 9
2020-02-16 00:38:04 GMT 41.969650 -87.895554 0 167 9
2020-02-16 00:38:01 GMT 41.969780 -87.895569 0 163 8
2020-02-16 00:37:58 GMT 41.969898 -87.895599 0 152 8
2020-02-16 00:37:55 GMT 41.970020 -87.895660 0 137 6
2020-02-16 00:37:52 GMT 41.970081 -87.895729 0 132 8
2020-02-16 00:37:49 GMT 41.970150 -87.895866 0 115 8
2020-02-16 00:37:46 GMT 41.970200 -87.896004 0 115 8
2020-02-16 00:37:43 GMT 41.970249 -87.896149 0 112 8
2020-02-16 00:37:40 GMT 41.970280 -87.896240 0 110 6
2020-02-16 00:37:37 GMT 41.970310 -87.896347 0 112 7
2020-02-16 00:37:34 GMT 41.970360 -87.896492 0 113 8
2020-02-16 00:37:31 GMT 41.970390 -87.896599 0 99 7
2020-02-16 00:37:28 GMT 41.970409 -87.896744 0 93 7
2020-02-16 00:37:25 GMT 41.970421 -87.896858 0 92 7
2020-02-16 00:37:22 GMT 41.970421 -87.896988 0 93 9
2020-02-16 00:37:19 GMT 41.970409 -87.897141 0 94 8
2020-02-16 00:37:16 GMT 41.970428 -87.897293 0 87 8
2020-02-16 00:37:13 GMT 41.970409 -87.897453 0 89 5
2020-02-16 00:37:10 GMT 41.970421 -87.897507 0 83 8
2020-02-16 00:37:07 GMT 41.970421 -87.897842 0 98 7
2020-02-16 00:37:04 GMT 41.970421 -87.897842 0 85 6
2020-02-16 00:37:01 GMT 41.970428 -87.897972 0 86 7
2020-02-16 00:36:58 GMT 41.970421 -87.898079 0 92 6
2020-02-16 00:36:55 GMT 41.970421 -87.898216 0 91 8
2020-02-16 00:36:52 GMT 41.970428 -87.898399 0 96 8
2020-02-16 00:36:49 GMT 41.970421 -87.898628 0 87 6
2020-02-16 00:36:46 GMT 41.970421 -87.898628 0 97 7
2020-02-16 00:36:43 GMT 41.970421 -87.898750 0 91 7
2020-02-16 00:36:40 GMT 41.970428 -87.898903 0 82 6
2020-02-16 00:36:37 GMT 41.970428 -87.899010 0 84 6
2020-02-16 00:36:34 GMT 41.970428 -87.899132 0 85 8
2020-02-16 00:36:31 GMT 41.970402 -87.899277 0 93 7
2020-02-16 00:36:28 GMT 41.970421 -87.899406 0 85 7
2020-02-16 00:36:25 GMT 41.970421 -87.899521 0 91 6
2020-02-16 00:36:22 GMT 41.970409 -87.899612 0 95 8
2020-02-16 00:36:19 GMT 41.970421 -87.899742 0 92 7
2020-02-16 00:36:16 GMT 41.970428 -87.899872 0 91 5
2020-02-16 00:36:13 GMT 41.970440 -87.899979 0 79 7
2020-02-16 00:36:10 GMT 41.970409 -87.900238 0 94 8
2020-02-16 00:36:04 GMT 41.970421 -87.900398 0 92 7
2020-02-16 00:36:01 GMT 41.970421 -87.900482 0 89 11
2020-02-16 00:35:58 GMT 41.970409 -87.900673 0 90 9
2020-02-16 00:35:55 GMT 41.970421 -87.900841 0 85 9
2020-02-16 00:35:52 GMT 41.970390 -87.901001 0 93 9
2020-02-16 00:35:49 GMT 41.970428 -87.901138 0 82 9
2020-02-16 00:35:46 GMT 41.970409 -87.901321 0 85 9
2020-02-16 00:35:43 GMT 41.970402 -87.901443 0 94 8
2020-02-16 00:35:40 GMT 41.970409 -87.901611 0 85 8
2020-02-16 00:35:37 GMT 41.970421 -87.901878 0 94 9
2020-02-16 00:35:34 GMT 41.970421 -87.901878 0 86 8
2020-02-16 00:35:31 GMT 41.970409 -87.902039 0 91 7
2020-02-16 00:35:28 GMT 41.970402 -87.902191 0 95 8
2020-02-16 00:35:25 GMT 41.970421 -87.902298 0 88 8
2020-02-16 00:35:22 GMT 41.970421 -87.902451 0 81 7
2020-02-16 00:35:19 GMT 41.970421 -87.902580 0 90 8
2020-02-16 00:35:16 GMT 41.970402 -87.902733 0 89 8
2020-02-16 00:35:13 GMT 41.970402 -87.902863 0 96 9
2020-02-16 00:35:10 GMT 41.970428 -87.903023 0 92 9
2020-02-16 00:35:07 GMT 41.970421 -87.903183 0 87 8
2020-02-16 00:35:04 GMT 41.970409 -87.903320 0 88 8
2020-02-16 00:35:01 GMT 41.970390 -87.903511 0 95 8
2020-02-16 00:34:58 GMT 41.970421 -87.903641 0 85 7
2020-02-16 00:34:55 GMT 41.970409 -87.903770 0 94 8
2020-02-16 00:34:52 GMT 41.970421 -87.903908 0 94 6
2020-02-16 00:34:49 GMT 41.970409 -87.904037 0 90 8
2020-02-16 00:34:46 GMT 41.970421 -87.904190 0 86 8
2020-02-16 00:34:43 GMT 41.970402 -87.904480 0 93 9
2020-02-16 00:34:40 GMT 41.970402 -87.904480 0 92 8
2020-02-16 00:34:37 GMT 41.970421 -87.904610 0 90 9
2020-02-16 00:34:34 GMT 41.970421 -87.904778 0 93 8
2020-02-16 00:34:31 GMT 41.970428 -87.904907 0 82 7
2020-02-16 00:34:28 GMT 41.970402 -87.905060 0 94 8
2020-02-16 00:34:25 GMT 41.970402 -87.905190 0 85 7
2020-02-16 00:34:22 GMT 41.970428 -87.905273 0 85 6
2020-02-16 00:34:19 GMT 41.970409 -87.905388 0 85 7
2020-02-16 00:34:16 GMT 41.970409 -87.905487 0 94 6
2020-02-16 00:34:13 GMT 41.970409 -87.905579 0 98 5
2020-02-16 00:34:10 GMT 41.970421 -87.905693 0 78 6
2020-02-16 00:34:07 GMT 41.970402 -87.905792 0 93 7
2020-02-16 00:34:04 GMT 41.970409 -87.905922 0 93 5
2020-02-16 00:34:01 GMT 41.970421 -87.906143 0 93 6
2020-02-16 00:33:58 GMT 41.970421 -87.906143 0 86 7
2020-02-16 00:33:55 GMT 41.970409 -87.906258 0 97 5
2020-02-16 00:33:52 GMT 41.970409 -87.906357 0 85 6
2020-02-16 00:33:49 GMT 41.970421 -87.906479 0 86 7
2020-02-16 00:33:46 GMT 41.970402 -87.906616 0 90 8
2020-02-16 00:33:43 GMT 41.970409 -87.906754 0 94 7
2020-02-16 00:33:40 GMT 41.970409 -87.906990 0 87 6
2020-02-16 00:33:37 GMT 41.970421 -87.907127 0 88 8
2020-02-16 00:33:34 GMT 41.970421 -87.907127 0 90 9
2020-02-16 00:33:31 GMT 41.970421 -87.907288 0 85 7
2020-02-16 00:33:28 GMT 41.970409 -87.907402 0 86 8
2020-02-16 00:33:25 GMT 41.970402 -87.907539 0 90 7
2020-02-16 00:33:22 GMT 41.970402 -87.907707 0 91 9
2020-02-16 00:33:19 GMT 41.970421 -87.907822 0 86 9
2020-02-16 00:33:16 GMT 41.970390 -87.907967 0 99 8
2020-02-16 00:33:13 GMT 41.970440 -87.908272 0 112 9
2020-02-16 00:33:10 GMT 41.970440 -87.908272 0 116 8
2020-02-16 00:33:07 GMT 41.970482 -87.908417 0 126 8
2020-02-16 00:33:04 GMT 41.970551 -87.908531 0 132 10
2020-02-16 00:33:01 GMT 41.970619 -87.908691 0 140 10
2020-02-16 00:32:58 GMT 41.970718 -87.908813 0 139 9
2020-02-16 00:32:55 GMT 41.970821 -87.908897 0 136 10
2020-02-16 00:32:52 GMT 41.970909 -87.909027 0 139 10
2020-02-16 00:32:49 GMT 41.971020 -87.909126 0 138 10
2020-02-16 00:32:46 GMT 41.971230 -87.909370 0 143 10
2020-02-16 00:32:43 GMT 41.971230 -87.909370 0 142 10
2020-02-16 00:32:40 GMT 41.971340 -87.909462 0 139 9
2020-02-16 00:32:37 GMT 41.971432 -87.909592 0 143 9
2020-02-16 00:32:34 GMT 41.971531 -87.909683 0 136 10
2020-02-16 00:32:31 GMT 41.971611 -87.909798 0 134 8
2020-02-16 00:32:28 GMT 41.971710 -87.909943 0 142 7
2020-02-16 00:32:25 GMT 41.971790 -87.909981 0 136 9
2020-02-16 00:32:22 GMT 41.971889 -87.910110 0 136 8
2020-02-16 00:32:19 GMT 41.971970 -87.910233 0 141 9
2020-02-16 00:32:16 GMT 41.972069 -87.910332 0 140 8
2020-02-16 00:32:13 GMT 41.972160 -87.910408 0 139 9
2020-02-16 00:32:10 GMT 41.972252 -87.910507 0 135 10
2020-02-16 00:32:07 GMT 41.972359 -87.910637 0 137 9
2020-02-16 00:32:04 GMT 41.972431 -87.910759 0 141 9
2020-02-16 00:32:01 GMT 41.972549 -87.910858 0 140 9
2020-02-16 00:31:58 GMT 41.972630 -87.910950 0 135 9
2020-02-16 00:31:55 GMT 41.972752 -87.911110 0 143 6
2020-02-16 00:31:52 GMT 41.972801 -87.911179 0 141 9
2020-02-16 00:31:49 GMT 41.972988 -87.911331 0 138 7
2020-02-16 00:31:46 GMT 41.972988 -87.911331 0 131 5
2020-02-16 00:31:43 GMT 41.973049 -87.911423 0 141 7
2020-02-16 00:31:40 GMT 41.973122 -87.911499 0 127 4
2020-02-16 00:31:37 GMT 41.973171 -87.911537 0 134 4
2020-02-16 00:31:34 GMT 41.973209 -87.911621 0 142 5
2020-02-16 00:31:31 GMT 41.973259 -87.911652 0 141 6
2020-02-16 00:31:28 GMT 41.973389 -87.911758 0 158 7
2020-02-16 00:31:25 GMT 41.973389 -87.911758 0 161 6
2020-02-16 00:31:22 GMT 41.973469 -87.911842 0 199 5
2020-02-16 00:31:19 GMT 41.973530 -87.911819 0 215 6
2020-02-16 00:31:16 GMT 41.973598 -87.911797 0 227 6
2020-02-16 00:31:13 GMT 41.973671 -87.911682 0 218 8
2020-02-16 00:31:10 GMT 41.973770 -87.911621 0 219 9
2020-02-16 00:31:07 GMT 41.973839 -87.911491 0 223 9
2020-02-16 00:31:04 GMT 41.973949 -87.911362 0 223 7
2020-02-16 00:31:01 GMT 41.974041 -87.911270 0 226 8
2020-02-16 00:30:58 GMT 41.974098 -87.911163 0 215 7
2020-02-16 00:30:55 GMT 41.974201 -87.911072 0 213 6
2020-02-16 00:30:52 GMT 41.974251 -87.911003 0 197 4
2020-02-16 00:30:49 GMT 41.974380 -87.910919 0 215 3
2020-02-16 00:30:43 GMT 41.974411 -87.910873 0 227 7
2020-02-16 00:30:40 GMT 41.974522 -87.910698 0 215 6
2020-02-16 00:30:37 GMT 41.974522 -87.910698 0 208 8
2020-02-16 00:30:34 GMT 41.974621 -87.910606 0 194 7
2020-02-16 00:30:31 GMT 41.974701 -87.910561 0 179 6
2020-02-16 00:30:28 GMT 41.974781 -87.910530 0 189 8
2020-02-16 00:30:25 GMT 41.974869 -87.910522 0 164 6
2020-02-16 00:30:22 GMT 41.974941 -87.910583 0 182 7
2020-02-16 00:30:19 GMT 41.975052 -87.910591 0 213 5
2020-02-16 00:30:16 GMT 41.975090 -87.910583 0 222 4
2020-02-16 00:30:13 GMT 41.975151 -87.910561 0 237 6
2020-02-16 00:30:10 GMT 41.975201 -87.910477 0 238 4
2020-02-16 00:30:07 GMT 41.975208 -87.910423 0 243 5
2020-02-16 00:30:04 GMT 41.975250 -87.910370 0 254 3
2020-02-16 00:30:01 GMT 41.975250 -87.910278 0 252 3
2020-02-16 00:29:58 GMT 41.975281 -87.910278 0 243 4
2020-02-16 00:29:55 GMT 41.975288 -87.910217 0 236 3
2020-02-16 00:29:52 GMT 41.975319 -87.910118 0 236 0
2020-02-16 00:29:49 GMT 41.975342 -87.910027 0 236 1
2020-02-16 00:29:46 GMT 41.975349 -87.910011 0 235 1
2020-02-16 00:29:43 GMT 41.975349 -87.910019 0 235 0
2020-02-16 00:29:40 GMT 41.975342 -87.910011 0 235 0
2020-02-16 00:29:37 GMT 41.975342 -87.910027 0 235 0
2020-02-16 00:29:34 GMT 41.975330 -87.910027 0 235 0
2020-02-16 00:29:31 GMT 41.975342 -87.909912 0 241 2
2020-02-16 00:29:28 GMT 41.975300 -87.909988 0 244 2
2020-02-16 00:29:25 GMT 41.975319 -87.910042 0 252 1
2020-02-16 00:29:22 GMT 41.975349 -87.910042 0 252 2
2020-02-16 00:29:19 GMT 41.975349 -87.910011 0 253 0
2020-02-16 00:29:16 GMT 41.975368 -87.910004 0 249 2
2020-02-16 00:29:13 GMT 41.975368 -87.909988 0 240 2
2020-02-16 00:29:10 GMT 41.975349 -87.910019 0 240 1
2020-02-16 00:29:07 GMT 41.975342 -87.910019 0 240 0
2020-02-16 00:29:04 GMT 41.975342 -87.910019 0 240 1
2020-02-16 00:29:01 GMT 41.975349 -87.910027 0 240 1
2020-02-16 00:28:58 GMT 41.975349 -87.910004 0 240 1
2020-02-16 00:28:55 GMT 41.975349 -87.909981 0 240 2
2020-02-16 00:28:52 GMT 41.975349 -87.909950 0 239 3
2020-02-16 00:28:49 GMT 41.975391 -87.909866 0 251 2
2020-02-16 00:28:46 GMT 41.975391 -87.909866 0 259 3
2020-02-16 00:28:43 GMT 41.975410 -87.909821 0 253 3
2020-02-16 00:28:40 GMT 41.975422 -87.909721 0 256 4
2020-02-16 00:28:37 GMT 41.975430 -87.909714 0 250 4
2020-02-16 00:28:34 GMT 41.975471 -87.909653 0 254 4
2020-02-16 00:28:31 GMT 41.975460 -87.909554 0 245 5
2020-02-16 00:28:28 GMT 41.975498 -87.909439 0 236 4
2020-02-16 00:28:25 GMT 41.975521 -87.909363 0 234 6
2020-02-16 00:28:22 GMT 41.975571 -87.909264 0 237 8
2020-02-16 00:28:19 GMT 41.975670 -87.909019 0 220 9
2020-02-16 00:28:16 GMT 41.975670 -87.909019 0 204 8
2020-02-16 00:28:13 GMT 41.975819 -87.908859 0 186 8
2020-02-16 00:28:10 GMT 41.975819 -87.908859 0 183 8
2020-02-16 00:28:07 GMT 41.975948 -87.908852 0 185 7
2020-02-16 00:28:04 GMT 41.976070 -87.908836 0 192 10
2020-02-16 00:28:01 GMT 41.976212 -87.908791 0 193 9
2020-02-16 00:27:58 GMT 41.976311 -87.908760 0 192 9
2020-02-16 00:27:55 GMT 41.976429 -87.908691 0 188 10
2020-02-16 00:27:52 GMT 41.976711 -87.908661 0 195 8
2020-02-16 00:27:49 GMT 41.976711 -87.908661 0 193 7
2020-02-16 00:27:46 GMT 41.976898 -87.908577 0 184 7
2020-02-16 00:27:43 GMT 41.976898 -87.908577 0 189 5
2020-02-16 00:27:40 GMT 41.976971 -87.908592 0 186 8
2020-02-16 00:27:37 GMT 41.977058 -87.908524 0 179 7
2020-02-16 00:27:34 GMT 41.977150 -87.908531 0 187 7
2020-02-16 00:27:31 GMT 41.977329 -87.908478 0 189 8
2020-02-16 00:27:28 GMT 41.977329 -87.908478 0 188 8
2020-02-16 00:27:25 GMT 41.977440 -87.908470 0 182 8
2020-02-16 00:27:22 GMT 41.977539 -87.908447 0 187 8
2020-02-16 00:27:19 GMT 41.977650 -87.908463 0 190 7
2020-02-16 00:27:16 GMT 41.977730 -87.908440 0 184 6
2020-02-16 00:27:13 GMT 41.977829 -87.908440 0 186 6
2020-02-16 00:27:10 GMT 41.977859 -87.908409 0 196 6
2020-02-16 00:27:07 GMT 41.977951 -87.908379 0 181 6
2020-02-16 00:27:04 GMT 41.978031 -87.908379 0 187 6
2020-02-16 00:27:01 GMT 41.978100 -87.908371 0 196 7
2020-02-16 00:26:58 GMT 41.978191 -87.908318 0 191 6
2020-02-16 00:26:55 GMT 41.978271 -87.908279 0 183 5
2020-02-16 00:26:52 GMT 41.978340 -87.908302 0 194 7
2020-02-16 00:26:49 GMT 41.978451 -87.908287 0 213 4
2020-02-16 00:26:46 GMT 41.978500 -87.908203 0 201 8
2020-02-16 00:26:43 GMT 41.978619 -87.908127 0 114 4
2020-02-16 00:26:40 GMT 41.978619 -87.908127 0 102 3
2020-02-16 00:26:37 GMT 41.978661 -87.908089 0 94 4
2020-02-16 00:26:34 GMT 41.978699 -87.908073 0 49 4
2020-02-16 00:26:31 GMT 41.978748 -87.908058 0 39 4
2020-02-16 00:26:28 GMT 41.978882 -87.908028 0 31 1
2020-02-16 00:26:25 GMT 41.978981 -87.908043 0 23 1
2020-02-16 00:26:22 GMT 41.978981 -87.908043 0 23 1
2020-02-16 00:26:19 GMT 41.978970 -87.908081 0 23 0
2020-02-16 00:26:16 GMT 41.978989 -87.908127 0 26 1
2020-02-16 00:26:13 GMT 41.978970 -87.908089 0 28 0
2020-02-16 00:26:10 GMT 41.978981 -87.908112 0 31 0
2020-02-16 00:26:07 GMT 41.978951 -87.908058 0 33 0
2020-02-16 00:26:04 GMT 41.978901 -87.907997 0 33 0
2020-02-16 00:26:01 GMT 41.978909 -87.908020 0 32 0
2020-02-16 00:25:57 GMT 41.978909 -87.908012 0 38 1
2020-02-16 00:25:54 GMT 41.978889 -87.907990 0 35 1
2020-02-16 00:25:51 GMT 41.978909 -87.908020 0 28 1
2020-02-16 00:25:48 GMT 41.978931 -87.908043 0 28 1
2020-02-16 00:25:45 GMT 41.978939 -87.907997 0 25 1
2020-02-16 00:25:42 GMT 41.978981 -87.908112 0 19 0
2020-02-16 00:25:39 GMT 41.978981 -87.908112 0 20 1
2020-02-16 00:25:36 GMT 41.979012 -87.908150 0 22 1
2020-02-16 00:25:33 GMT 41.979000 -87.908142 0 22 0
2020-02-16 00:25:30 GMT 41.978989 -87.908112 0 21 1
2020-02-16 00:25:25 GMT 41.978970 -87.908081 0 14 1
2020-02-16 00:25:22 GMT 41.978958 -87.908058 0 12 1
2020-02-16 00:25:19 GMT 41.978939 -87.908028 0 7 1
2020-02-16 00:25:16 GMT 41.978958 -87.908096 0 7 0
2020-02-16 00:25:13 GMT 41.978989 -87.908127 0 8 0
2020-02-16 00:25:07 GMT 41.978981 -87.908112 0 5 1
2020-02-16 00:25:04 GMT 41.978981 -87.908096 0 5 1
2020-02-16 00:25:01 GMT 41.979012 -87.908142 0 5 0
2020-02-16 00:24:57 GMT 41.978989 -87.908096 0 5 0
2020-02-16 00:24:54 GMT 41.978989 -87.908096 0 5 1
2020-02-16 00:24:51 GMT 41.978981 -87.908127 0 7 1
2020-02-16 00:24:48 GMT 41.978989 -87.908112 0 9 1
2020-02-16 00:24:45 GMT 41.978989 -87.908127 0 10 0
2020-02-16 00:24:42 GMT 41.978981 -87.908096 0 10 0
2020-02-16 00:24:39 GMT 41.978989 -87.908127 0 10 0
2020-02-16 00:24:36 GMT 41.979012 -87.908150 0 11 1
2020-02-16 00:24:33 GMT 41.979000 -87.908142 0 13 1
2020-02-16 00:24:30 GMT 41.978939 -87.908043 0 13 0
2020-02-16 00:24:27 GMT 41.978958 -87.908081 0 14 1
2020-02-16 00:24:24 GMT 41.978939 -87.908058 0 14 1
2020-02-16 00:24:18 GMT 41.978951 -87.908058 0 12 0
2020-02-16 00:24:15 GMT 41.978989 -87.908119 0 9 1
2020-02-16 00:24:12 GMT 41.978970 -87.908089 0 5 0
2020-02-16 00:24:09 GMT 41.978970 -87.908089 0 5 0
2020-02-16 00:24:06 GMT 41.978989 -87.908119 0 0 0
2020-02-16 00:24:03 GMT 41.978989 -87.908127 0 0 0
2020-02-16 00:23:41 GMT 41.978920 -87.908043 0 350 0
2020-02-16 00:23:38 GMT 41.978909 -87.908012 0 351 0
2020-02-16 00:23:35 GMT 41.978909 -87.907997 0 353 0
2020-02-16 00:23:32 GMT 41.978909 -87.907997 0 354 1
2020-02-16 00:23:29 GMT 41.978909 -87.907997 0 355 0
2020-02-16 00:23:26 GMT 41.978920 -87.907990 0 357 0
2020-02-16 00:23:23 GMT 41.978931 -87.907997 0 355 0
2020-02-16 00:23:20 GMT 41.978909 -87.907997 0 353 1
2020-02-16 00:23:17 GMT 41.978909 -87.908020 0 356 1
2020-02-16 00:23:14 GMT 41.978931 -87.908043 0 1 0
2020-02-16 00:23:11 GMT 41.978970 -87.908112 0 352 0

Making use of Plane Finder data

You are free to use the raw flight data, aircraft information and images provided in this report for your own purposes provided the data is correctly attributed to Plane Finder. We ask that you please credit Plane Finder and link to planefinder.net in close proximity to the content.

Optionally one of the following logos (no smaller then 150x24px) can be used and must link to planefinder.net

Embedding the Plane Finder map

You are welcome to embed the Plane Finder playback map on your website to offer visitors a more interactive experience. We suggest using the following HTML code:

<iframe src="//planefinder.net/data/report/UA2329-N36272-7700-squawk-2020-02-16/map" width="800" height="600" seamless="seamless"></iframe>

Where our data comes from

Plane Finder has a global network of data feeds and antenna radars that receive data broadcast directly from aircraft. The primary technologies used are ADS-B and MLAT. We also show feeds from the FAA and a FLARM glider feed.

Click here to find out more about the Plane Finder network.

How we collect our data